Provisional Data: East Fork First Fork Sinnemahoning Creek near Logue, PA


Please select a monitoring station.
Please select start date.
Please select start date.

Toggle Unit: C/F Toggle Unit: C/F
Sample Time Temperature (C) Temperature (F) Specific Conductivity (mS/cm) pH   Turbidity (NTU+) DO (mg/L)
12/4/2020 12:00:00 AM 4.32 39.776 0.042 6.5 2.33 12.94
12/4/2020 12:15:00 AM 4.32 39.776 0.042 6.53 2.49 12.94
12/4/2020 12:30:00 AM 4.32 39.776 0.042 6.53 2.42 12.94
12/4/2020 12:45:00 AM 4.33 39.794 0.042 6.55 2.35 12.94
12/4/2020 1:00:00 AM 4.33 39.794 0.042 6.53 2.44 12.94
12/4/2020 1:15:00 AM 4.33 39.794 0.042 6.54 2.75 12.94
12/4/2020 1:30:00 AM 4.33 39.794 0.042 6.54 2.37 12.94
12/4/2020 1:45:00 AM 4.34 39.812 0.042 6.54 2.4 12.94
12/4/2020 2:00:00 AM 4.34 39.812 0.042 6.53 2.39 12.94
12/4/2020 2:15:00 AM 4.35 39.83 0.042 6.46 2.31 12.93
12/4/2020 2:30:00 AM 4.35 39.83 0.042 6.54 2.53 12.93
12/4/2020 2:45:00 AM 4.34 39.812 0.042 6.53 2.49 12.93
12/4/2020 3:00:00 AM 4.33 39.794 0.042 6.48 2.34 12.93
12/4/2020 3:15:00 AM 4.33 39.794 0.042 6.53 2.4 12.93
12/4/2020 3:30:00 AM 4.32 39.776 0.042 6.46 2.45 12.93
12/4/2020 3:45:00 AM 4.31 39.758 0.042 6.52 2.37 12.93
12/4/2020 4:00:00 AM 4.31 39.758 0.042 6.53 2.59 12.93
12/4/2020 4:15:00 AM 4.31 39.758 0.042 6.54 2.34 12.94
12/4/2020 4:30:00 AM 4.31 39.758 0.042 6.53 2.5 12.93
12/4/2020 4:45:00 AM 4.3 39.74 0.042 6.52 2.59 12.94
12/4/2020 5:00:00 AM 4.29 39.722 0.042 6.49 2.49 12.94
12/4/2020 5:15:00 AM 4.29 39.722 0.042 6.51 2.5 12.94
12/4/2020 5:30:00 AM 4.29 39.722 0.042 6.45 2.38 12.94
12/4/2020 5:45:00 AM 4.29 39.722 0.042 6.54 2.76 12.94
12/4/2020 6:00:00 AM 4.3 39.74 0.042 6.54 2.45 12.94
12/4/2020 6:15:00 AM 4.31 39.758 0.042 6.52 2.38 12.94
12/4/2020 6:30:00 AM 4.32 39.776 0.042 6.53 2.42 12.94
12/4/2020 6:45:00 AM 4.33 39.794 0.042 6.53 2.56 12.93
12/4/2020 7:00:00 AM 4.34 39.812 0.042 6.53 2.31 12.93
12/4/2020 7:15:00 AM 4.35 39.83 0.042 6.46 2.35 12.93
12/4/2020 7:30:00 AM 4.36 39.848 0.042 6.55 2.43 12.93
12/4/2020 7:45:00 AM 4.37 39.866 0.042 6.5 2.18 12.94
12/4/2020 8:00:00 AM 4.38 39.884 0.042 6.55 2.25 12.95
12/4/2020 8:15:00 AM 4.39 39.902 0.042 6.47 2.23 12.96
12/4/2020 8:30:00 AM 4.41 39.938 0.042 6.52 2.21 12.99
12/4/2020 8:45:00 AM 4.43 39.974 0.042 6.53 2.19 13.02
12/4/2020 9:00:00 AM 4.46 40.028 0.042 6.59 2.18 13.04
12/4/2020 9:15:00 AM 4.47 40.046 0.042 6.59 2.23 13.05
12/4/2020 9:30:00 AM 4.48 40.064 0.041 6.55 2.15 13.05
12/4/2020 9:45:00 AM 4.48 40.064 0.041 6.58 2.21 13.05
12/4/2020 10:00:00 AM 4.52 40.136 0.041 6.63 2.18 13.08
12/4/2020 10:15:00 AM 4.55 40.19 0.041 6.6 2.19 13.07
12/4/2020 10:30:00 AM 4.61 40.298 0.041 6.58 2.06 13.06
12/4/2020 10:45:00 AM 4.66 40.388 0.041 6.61 2.13 13.04
12/4/2020 11:00:00 AM 4.73 40.514 0.041 6.65 2.18 13.03
12/4/2020 11:15:00 AM 4.8 40.64 0.041 6.65 2.22 13.01
12/4/2020 11:30:00 AM 4.9 40.82 0.041 6.68 2.09 13.01
12/4/2020 11:45:00 AM 5.06 41.108 0.041 6.61 2.2 12.98
12/4/2020 12:00:00 PM 5.22 41.396 0.041 6.72 2.21 12.96
12/4/2020 12:15:00 PM 5.36 41.648 0.041 6.7 2.25 12.93
12/4/2020 12:30:00 PM 5.42 41.756 0.041 6.71 2.25 12.9
12/4/2020 12:45:00 PM 5.46 41.828 0.041 6.66 2.36 12.88
12/4/2020 1:00:00 PM 5.49 41.882 0.041 6.63 2.34 12.85
12/4/2020 1:15:00 PM 5.53 41.954 0.041 6.64 2.19 12.82
12/4/2020 1:30:00 PM 5.55 41.99 0.041 6.69 2.22 12.8
12/4/2020 1:45:00 PM 5.56 42.008 0.041 6.67 2.14 12.78
12/4/2020 2:00:00 PM 5.57 42.026 0.041 6.58 2.23 12.76
12/4/2020 2:15:00 PM 5.56 42.008 0.041 6.66 2.29 12.75
12/4/2020 2:30:00 PM 5.56 42.008 0.041 6.62 2.3 12.73
12/4/2020 2:45:00 PM 5.57 42.026 0.041 6.65 2.25 12.73
12/4/2020 3:00:00 PM 5.59 42.062 0.041 6.55 2.23 12.73
12/4/2020 3:15:00 PM 5.6 42.08 0.041 6.66 2.36 12.72
12/4/2020 3:30:00 PM 5.62 42.116 0.041 6.66 2.2 12.7
12/4/2020 3:45:00 PM 5.62 42.116 0.041 6.63 2.23 12.68
12/4/2020 4:00:00 PM 5.6 42.08 0.041 6.58 2.22 12.66
12/4/2020 4:15:00 PM 5.58 42.044 0.041 6.61 2.36 12.64
12/4/2020 4:30:00 PM 5.56 42.008 0.041 6.61 2.28 12.62
12/4/2020 4:45:00 PM 5.53 41.954 0.041 6.56 2.25 12.59
12/4/2020 5:00:00 PM 5.5 41.9 0.041 6.52 2.4 12.56
12/4/2020 5:15:00 PM 5.48 41.864 0.041 6.54 2.28 12.55
12/4/2020 5:30:00 PM 5.45 41.81 0.041 6.59 2.21 12.54
12/4/2020 5:45:00 PM 5.42 41.756 0.041 6.49 2.23 12.53
12/4/2020 6:00:00 PM 5.38 41.684 0.041 6.56 2.18 12.53
12/4/2020 6:15:00 PM 5.35 41.63 0.041 6.48 2.33 12.53
12/4/2020 6:30:00 PM 5.32 41.576 0.041 6.54 2.28 12.54
12/4/2020 6:45:00 PM 5.31 41.558 0.041 6.54 2.44 12.55
12/4/2020 7:00:00 PM 5.29 41.522 0.041 6.54 2.19 12.55
12/4/2020 7:15:00 PM 5.27 41.486 0.041 6.55 2.18 12.55
12/4/2020 7:30:00 PM 5.25 41.45 0.041 6.54 2.51 12.56
12/4/2020 7:45:00 PM 5.24 41.432 0.042 6.51 2.36 12.57
12/4/2020 8:00:00 PM 5.22 41.396 0.042 6.47 2.32 12.56
12/4/2020 8:15:00 PM 5.21 41.378 0.042 6.53 2.41 12.57
12/4/2020 8:30:00 PM 5.2 41.36 0.042 6.54 2.28 12.58
12/4/2020 8:45:00 PM 5.2 41.36 0.042 6.54 2.27 12.58
12/4/2020 9:00:00 PM 5.2 41.36 0.042 6.52 2.31 12.59
12/4/2020 9:15:00 PM 5.2 41.36 0.042 6.45 2.26 12.59
12/4/2020 9:30:00 PM 5.2 41.36 0.042 6.48 2.22 12.59
12/4/2020 9:45:00 PM 5.2 41.36 0.042 6.52 2.23 12.59
12/4/2020 10:00:00 PM 5.2 41.36 0.042 6.48 2.27 12.59
12/4/2020 10:15:00 PM 5.19 41.342 0.042 6.5 2.38 12.59
12/4/2020 10:30:00 PM 5.18 41.324 0.042 6.51 2.29 12.6
12/4/2020 10:45:00 PM 5.16 41.288 0.042 6.56 2.25 12.59
12/4/2020 11:00:00 PM 5.14 41.252 0.042 6.55 2.28 12.6
12/4/2020 11:15:00 PM 5.12 41.216 0.042 6.55 2.32 12.6
12/4/2020 11:30:00 PM 5.1 41.18 0.042 6.54 2.38 12.61
12/4/2020 11:45:00 PM 5.08 41.144 0.042 6.48 2.35 12.61
12/5/2020 12:00:00 AM 5.07 41.126 0.042 6.53 2.27 12.62
12/5/2020 12:15:00 AM 5.06 41.108 0.042 6.5 2.23 12.62
12/5/2020 12:30:00 AM 5.05 41.09 0.042 6.5 2.3 12.62
12/5/2020 12:45:00 AM 5.05 41.09 0.042 6.52 2.24 12.62
12/5/2020 1:00:00 AM 5.05 41.09 0.042 6.51 2.38 12.62
12/5/2020 1:15:00 AM 5.05 41.09 0.042 6.51 2.27 12.62
12/5/2020 1:30:00 AM 5.04 41.072 0.042 6.53 2.25 12.62
12/5/2020 1:45:00 AM 5.05 41.09 0.042 6.55 2.22 12.62
12/5/2020 2:00:00 AM 5.04 41.072 0.042 6.55 2.25 12.62
12/5/2020 2:15:00 AM 5.05 41.09 0.042 6.56 2.3 12.62
12/5/2020 2:30:00 AM 5.05 41.09 0.042 6.56 2.16 12.61
12/5/2020 2:45:00 AM 5.05 41.09 0.042 6.57 2.26 12.62
12/5/2020 3:00:00 AM 5.05 41.09 0.042 6.56 2.29 12.61
12/5/2020 3:15:00 AM 5.06 41.108 0.042 6.45 2.23 12.61
12/5/2020 3:30:00 AM 5.06 41.108 0.042 6.56 2.25 12.61
12/5/2020 3:45:00 AM 5.06 41.108 0.042 6.51 2.34 12.6
12/5/2020 4:00:00 AM 5.07 41.126 0.042 6.55 2.35 12.6
12/5/2020 4:15:00 AM 5.07 41.126 0.042 6.47 2.44 12.6
12/5/2020 4:30:00 AM 5.07 41.126 0.042 6.55 2.24 12.61
12/5/2020 4:45:00 AM 5.07 41.126 0.042 6.55 2.18 12.6
12/5/2020 5:00:00 AM 5.08 41.144 0.042 6.56 2.23 12.6
12/5/2020 5:15:00 AM 5.09 41.162 0.042 6.55 2.29 12.6
12/5/2020 5:30:00 AM 5.09 41.162 0.042 6.55 2.38 12.6
12/5/2020 5:45:00 AM 5.1 41.18 0.042 6.48 2.19 12.6
12/5/2020 6:00:00 AM 5.11 41.198 0.042 6.56 2.25 12.59
12/5/2020 6:15:00 AM 5.12 41.216 0.042 6.57 2.2 12.6
12/5/2020 6:30:00 AM 5.13 41.234 0.042 6.58 2.16 12.6
12/5/2020 6:45:00 AM 5.14 41.252 0.042 6.58 2.24 12.59
12/5/2020 7:00:00 AM 5.15 41.27 0.042 6.58 2.36 12.59
12/5/2020 7:15:00 AM 5.16 41.288 0.042 6.55 2.27 12.58
12/5/2020 7:30:00 AM 5.17 41.306 0.042 6.51 2.17 12.59
12/5/2020 7:45:00 AM 5.17 41.306 0.042 6.56 2.14 12.6
12/5/2020 8:00:00 AM 5.17 41.306 0.042 6.58 2.15 12.62
12/5/2020 8:15:00 AM 5.18 41.324 0.042 6.61 2.02 12.65
12/5/2020 8:30:00 AM 5.18 41.324 0.042 6.59 2.14 12.69
12/5/2020 8:45:00 AM 5.19 41.342 0.041 6.53 2.1 12.72
12/5/2020 9:00:00 AM 5.21 41.378 0.041 6.57 1.99 12.74
12/5/2020 9:15:00 AM 5.23 41.414 0.041 6.58 2.01 12.76
12/5/2020 9:30:00 AM 5.25 41.45 0.041 6.65 1.99 12.79
12/5/2020 9:45:00 AM 5.27 41.486 0.041 6.66 2.02 12.8
12/5/2020 10:00:00 AM 5.29 41.522 0.041 6.65 2.07 12.81
12/5/2020 10:15:00 AM 5.3 41.54 0.041 6.65 2.03 12.82
12/5/2020 10:30:00 AM 5.31 41.558 0.041 6.6 2.03 12.8
12/5/2020 10:45:00 AM 5.33 41.594 0.041 6.67 1.97 12.8
12/5/2020 11:00:00 AM 5.33 41.594 0.041 6.6 2.06 12.81
12/5/2020 11:15:00 AM 5.33 41.594 0.041 6.63 1.95 12.8
12/5/2020 11:30:00 AM 5.33 41.594 0.041 6.61 1.99 12.79
12/5/2020 11:45:00 AM 5.34 41.612 0.041 6.61 2.06 12.79
12/5/2020 12:00:00 PM 5.35 41.63 0.041 6.59 1.98 12.8
12/5/2020 12:15:00 PM 5.35 41.63 0.041 6.6 1.96 12.79
12/5/2020 12:30:00 PM 5.36 41.648 0.041 6.62 1.93 12.79
12/5/2020 12:45:00 PM 5.36 41.648 0.041 6.6 2.04 12.79
12/5/2020 1:00:00 PM 5.36 41.648 0.041 6.68 2.02 12.79
12/5/2020 1:15:00 PM 5.36 41.648 0.041 6.66 2.02 12.79
12/5/2020 1:30:00 PM 5.39 41.702 0.041 6.68 2.04 12.8
12/5/2020 1:45:00 PM 5.38 41.684 0.041 6.59 2.05 12.79
12/5/2020 2:00:00 PM 5.38 41.684 0.041 6.65 2.02 12.79
12/5/2020 2:15:00 PM 5.4 41.72 0.041 6.66 2.02 12.79
12/5/2020 2:30:00 PM 5.42 41.756 0.041 6.63 2.04 12.79
12/5/2020 2:45:00 PM 5.43 41.774 0.041 6.64 2 12.79
12/5/2020 3:00:00 PM 5.44 41.792 0.041 6.63 1.98 12.78
12/5/2020 3:15:00 PM 5.42 41.756 0.041 6.63 2.06 12.78
12/5/2020 3:30:00 PM 5.41 41.738 0.041 6.68 2.07 12.76
12/5/2020 3:45:00 PM 5.4 41.72 0.041 6.61 2.06 12.71
12/5/2020 4:00:00 PM 5.39 41.702 0.041 6.66 2.12 12.7
12/5/2020 4:15:00 PM 5.37 41.666 0.041 6.64 2.14 12.68
12/5/2020 4:30:00 PM 5.34 41.612 0.041 6.59 2 12.66
12/5/2020 4:45:00 PM 5.31 41.558 0.041 6.58 2.05 12.65
12/5/2020 5:00:00 PM 5.29 41.522 0.041 6.56 2.17 12.64
12/5/2020 5:15:00 PM 5.26 41.468 0.041 6.61 2.13 12.63
12/5/2020 5:30:00 PM 5.23 41.414 0.041 6.6 2.07 12.62
12/5/2020 5:45:00 PM 5.21 41.378 0.041 6.6 2.28 12.61
12/5/2020 6:00:00 PM 5.18 41.324 0.041 6.59 2.19 12.61
12/5/2020 6:15:00 PM 5.17 41.306 0.041 6.6 2.36 12.61
12/5/2020 6:30:00 PM 5.16 41.288 0.041 6.48 2.2 12.62
12/5/2020 6:45:00 PM 5.14 41.252 0.041 6.58 2.19 12.63
12/5/2020 7:00:00 PM 5.11 41.198 0.041 6.54 2.3 12.63
12/5/2020 7:15:00 PM 5.08 41.144 0.041 6.59 2.09 12.64
12/5/2020 7:30:00 PM 5.06 41.108 0.041 6.56 2.11 12.64
12/5/2020 7:45:00 PM 5.03 41.054 0.042 6.57 2.18 12.65
12/5/2020 8:00:00 PM 5 41 0.042 6.59 2.08 12.66
12/5/2020 8:15:00 PM 4.98 40.964 0.042 6.51 2.16 12.67
12/5/2020 8:30:00 PM 4.96 40.928 0.042 6.54 2.11 12.68
12/5/2020 8:45:00 PM 4.94 40.892 0.042 6.54 2.18 12.69
12/5/2020 9:00:00 PM 4.92 40.856 0.042 6.57 2.37 12.69
12/5/2020 9:15:00 PM 4.9 40.82 0.042 6.58 2.08 12.7
12/5/2020 9:30:00 PM 4.88 40.784 0.042 6.58 2.2 12.7
12/5/2020 9:45:00 PM 4.85 40.73 0.042 6.58 2.27 12.71
12/5/2020 10:00:00 PM 4.83 40.694 0.042 6.58 2.19 12.71
12/5/2020 10:15:00 PM 4.8 40.64 0.042 6.48 2.16 12.72
12/5/2020 10:30:00 PM 4.78 40.604 0.042 6.58 2.26 12.73
12/5/2020 10:45:00 PM 4.76 40.568 0.042 6.56 2.34 12.73
12/5/2020 11:00:00 PM 4.74 40.532 0.042 6.51 2.19 12.75
12/5/2020 11:15:00 PM 4.72 40.496 0.042 6.53 2.16 12.75
12/5/2020 11:30:00 PM 4.7 40.46 0.042 6.53 2.09 12.76
12/5/2020 11:45:00 PM 4.67 40.406 0.042 6.56 2.19 12.77
12/6/2020 12:00:00 AM 4.64 40.352 0.042 6.58 2.27 12.77
12/6/2020 12:15:00 AM 4.62 40.316 0.042 6.6 2.1 12.78
12/6/2020 12:30:00 AM 4.6 40.28 0.042 6.55 2.26 12.79
12/6/2020 12:45:00 AM 4.58 40.244 0.042 6.51 2.31 12.81
12/6/2020 1:00:00 AM 4.56 40.208 0.042 6.6 2.29 12.8
12/6/2020 1:15:00 AM 4.54 40.172 0.042 6.58 2.16 12.81
12/6/2020 1:30:00 AM 4.51 40.118 0.042 6.53 2.24 12.82
12/6/2020 1:45:00 AM 4.5 40.1 0.042 6.5 2.17 12.83
12/6/2020 2:00:00 AM 4.47 40.046 0.042 6.57 2.11 12.83
12/6/2020 2:15:00 AM 4.45 40.01 0.042 6.58 2.29 12.84
12/6/2020 2:30:00 AM 4.43 39.974 0.042 6.55 2.14 12.85
12/6/2020 2:45:00 AM 4.4 39.92 0.042 6.6 2.1 12.86
12/6/2020 3:00:00 AM 4.38 39.884 0.042 6.57 2.14 12.87
12/6/2020 3:15:00 AM 4.35 39.83 0.042 6.55 2.26 12.88
12/6/2020 3:30:00 AM 4.33 39.794 0.042 6.53 2.27 12.88
12/6/2020 3:45:00 AM 4.31 39.758 0.042 6.59 2.13 12.89
12/6/2020 4:00:00 AM 4.3 39.74 0.042 6.57 2.17 12.9
12/6/2020 4:15:00 AM 4.28 39.704 0.042 6.58 2.13 12.91
12/6/2020 4:30:00 AM 4.26 39.668 0.042 6.59 2.16 12.92
12/6/2020 4:45:00 AM 4.24 39.632 0.042 6.58 2.22 12.92
12/6/2020 5:00:00 AM 4.21 39.578 0.042 6.5 2.22 12.93
12/6/2020 5:15:00 AM 4.18 39.524 0.042 6.59 2.33 12.95
12/6/2020 5:30:00 AM 4.15 39.47 0.042 6.59 2.19 12.95
12/6/2020 5:45:00 AM 4.12 39.416 0.042 6.6 2.23 12.96
12/6/2020 6:00:00 AM 4.09 39.362 0.042 6.59 2.29 12.97
12/6/2020 6:15:00 AM 4.06 39.308 0.042 6.58 2.27 12.98
12/6/2020 6:30:00 AM 4.03 39.254 0.042 6.54 2.1 12.99
12/6/2020 6:45:00 AM 4 39.2 0.042 6.59 2.08 12.99
12/6/2020 7:00:00 AM 3.97 39.146 0.042 6.52 2.08 13.01
12/6/2020 7:15:00 AM 3.94 39.092 0.042 6.58 2.02 13.02
12/6/2020 7:30:00 AM 3.92 39.056 0.042 6.54 2.02 13.04
12/6/2020 7:45:00 AM 3.89 39.002 0.042 6.59 2.05 13.06
12/6/2020 8:00:00 AM 3.85 38.93 0.042 6.6 2.01 13.08
12/6/2020 8:15:00 AM 3.83 38.894 0.042 6.61 2.36 13.11
12/6/2020 8:30:00 AM 3.8 38.84 0.042 6.59 1.93 13.16
12/6/2020 8:45:00 AM 3.78 38.804 0.042 6.62 1.99 13.2
12/6/2020 9:00:00 AM 3.78 38.804 0.042 6.62 2.01 13.23
12/6/2020 9:15:00 AM 3.79 38.822 0.042 6.57 2.05 13.27
12/6/2020 9:30:00 AM 3.8 38.84 0.041 6.68 1.99 13.3
12/6/2020 9:45:00 AM 3.82 38.876 0.041 6.69 2.04 13.33
12/6/2020 10:00:00 AM 3.83 38.894 0.041 6.7 1.99 13.34
12/6/2020 10:15:00 AM 3.85 38.93 0.041 6.69 1.96 13.35
12/6/2020 10:30:00 AM 3.88 38.984 0.041 6.71 2.67 13.36
12/6/2020 10:45:00 AM 3.91 39.038 0.041 6.61 1.91 13.36
12/6/2020 11:00:00 AM 3.94 39.092 0.041 6.67 1.86 13.36
12/6/2020 11:15:00 AM 3.96 39.128 0.041 6.72 1.99 13.36
12/6/2020 11:30:00 AM 3.99 39.182 0.041 6.71 2.04 13.36
12/6/2020 11:45:00 AM 4.02 39.236 0.041 6.7 2.05 13.35
12/6/2020 12:00:00 PM 4.04 39.272 0.041 6.73 1.98 13.34
12/6/2020 12:15:00 PM 4.06 39.308 0.041 6.73 1.93 13.34
12/6/2020 12:30:00 PM 4.11 39.398 0.041 6.67 1.95 13.33
12/6/2020 12:45:00 PM 4.14 39.452 0.041 6.66 1.9 13.31
12/6/2020 1:00:00 PM 4.16 39.488 0.041 6.74 1.92 13.28
12/6/2020 1:15:00 PM 4.22 39.596 0.041 6.75 1.96 13.28
12/6/2020 1:30:00 PM 4.25 39.65 0.041 6.74 1.86 13.27
12/6/2020 1:45:00 PM 4.32 39.776 0.041 6.76 1.93 13.24
12/6/2020 2:00:00 PM 4.38 39.884 0.041 6.74 1.89 13.2
12/6/2020 2:15:00 PM 4.38 39.884 0.041 6.73 1.89 13.19
12/6/2020 2:30:00 PM 4.37 39.866 0.041 6.73 1.83 13.15
12/6/2020 2:45:00 PM 4.38 39.884 0.041 6.71 2.16 13.17
12/6/2020 3:00:00 PM 4.4 39.92 0.041 6.72 1.9 13.15
12/6/2020 3:15:00 PM 4.41 39.938 0.041 6.71 1.98 13.14
12/6/2020 3:30:00 PM 4.38 39.884 0.041 6.72 1.85 13.12
12/6/2020 3:45:00 PM 4.34 39.812 0.041 6.67 2.05 13.11
12/6/2020 4:00:00 PM 4.29 39.722 0.041 6.59 1.94 13.1
12/6/2020 4:15:00 PM 4.22 39.596 0.041 6.61 1.92 13.09
12/6/2020 4:30:00 PM 4.15 39.47 0.041 6.6 2.02 13.08
12/6/2020 4:45:00 PM 4.08 39.344 0.041 6.65 1.96 13.07
12/6/2020 5:00:00 PM 4.01 39.218 0.041 6.64 1.92 13.07
12/6/2020 5:15:00 PM 3.94 39.092 0.041 6.62 2 13.07
12/6/2020 5:30:00 PM 3.87 38.966 0.041 6.59 1.99 13.08
12/6/2020 5:45:00 PM 3.81 38.858 0.042 6.55 2.02 13.09
12/6/2020 6:00:00 PM 3.78 38.804 0.042 6.61 2.06 13.1
12/6/2020 6:15:00 PM 3.74 38.732 0.042 6.6 2.23 13.1
12/6/2020 6:30:00 PM 3.71 38.678 0.042 6.6 2.07 13.11
12/6/2020 6:45:00 PM 3.69 38.642 0.042 6.6 2.1 13.11
12/6/2020 7:00:00 PM 3.67 38.606 0.042 6.59 2.17 13.12
12/6/2020 7:15:00 PM 3.66 38.588 0.042 6.51 2.36 13.13
12/6/2020 7:30:00 PM 3.63 38.534 0.042 6.61 2.35 13.13
12/6/2020 7:45:00 PM 3.63 38.534 0.042 6.61 2.17 13.14
12/6/2020 8:00:00 PM 3.59 38.462 0.042 6.6 2.11 13.15
12/6/2020 8:15:00 PM 3.56 38.408 0.042 6.6 2.04 13.16
12/6/2020 8:30:00 PM 3.54 38.372 0.042 6.61 2.12 13.16
12/6/2020 8:45:00 PM 3.5 38.3 0.042 6.59 2.15 13.17
12/6/2020 9:00:00 PM 3.47 38.246 0.042 6.5 1.96 13.18
12/6/2020 9:15:00 PM 3.45 38.21 0.042 6.57 2.03 13.2
12/6/2020 9:30:00 PM 3.43 38.174 0.042 6.61 2.12 13.2
12/6/2020 9:45:00 PM 3.41 38.138 0.042 6.6 2.07 13.21
12/6/2020 10:00:00 PM 3.4 38.12 0.042 6.6 2.09 13.22
12/6/2020 10:15:00 PM 3.39 38.102 0.042 6.61 1.99 13.21
12/6/2020 10:30:00 PM 3.38 38.084 0.042 6.49 2.09 13.22
12/6/2020 10:45:00 PM 3.37 38.066 0.042 6.54 2.14 13.22
12/6/2020 11:00:00 PM 3.37 38.066 0.042 6.62 1.96 13.22
12/6/2020 11:15:00 PM 3.36 38.048 0.042 6.55 1.94 13.21
12/6/2020 11:30:00 PM 3.36 38.048 0.042 6.61 1.96 13.22
12/6/2020 11:45:00 PM 3.35 38.03 0.042 6.5 2.05 13.22
12/7/2020 12:00:00 AM 3.33 37.994 0.042 6.55 2.01 13.23
12/7/2020 12:15:00 AM 3.33 37.994 0.042 6.54 2.09 13.23
12/7/2020 12:30:00 AM 3.32 37.976 0.042 6.56 1.94 13.23
12/7/2020 12:45:00 AM 3.31 37.958 0.042 6.61 2.02 13.23
12/7/2020 1:00:00 AM 3.3 37.94 0.042 6.61 2.02 13.24
12/7/2020 1:15:00 AM 3.29 37.922 0.042 6.6 2.04 13.24
12/7/2020 1:30:00 AM 3.28 37.904 0.042 6.6 1.98 13.24
12/7/2020 1:45:00 AM 3.27 37.886 0.042 6.59 2.09 13.25
12/7/2020 2:00:00 AM 3.27 37.886 0.042 6.52 2.26 13.25
12/7/2020 2:15:00 AM 3.26 37.868 0.042 6.61 2 13.25
12/7/2020 2:30:00 AM 3.26 37.868 0.042 6.59 1.97 13.25
12/7/2020 2:45:00 AM 3.25 37.85 0.042 6.62 2.05 13.24
12/7/2020 3:00:00 AM 3.24 37.832 0.042 6.61 1.92 13.25
12/7/2020 3:15:00 AM 3.23 37.814 0.042 6.53 1.92 13.25
12/7/2020 3:30:00 AM 3.22 37.796 0.042 6.61 1.94 13.25
12/7/2020 3:45:00 AM 3.21 37.778 0.042 6.58 2.1 13.26
12/7/2020 4:00:00 AM 3.19 37.742 0.042 6.53 2.02 13.26
12/7/2020 4:15:00 AM 3.19 37.742 0.042 6.59 2.11 13.27
12/7/2020 4:30:00 AM 3.18 37.724 0.042 6.6 1.98 13.27
12/7/2020 4:45:00 AM 3.16 37.688 0.042 6.61 1.97 13.28
12/7/2020 5:00:00 AM 3.15 37.67 0.042 6.59 1.99 13.27
12/7/2020 5:15:00 AM 3.13 37.634 0.042 6.61 2.06 13.28
12/7/2020 5:30:00 AM 3.12 37.616 0.042 6.6 2.03 13.28
12/7/2020 5:45:00 AM 3.12 37.616 0.042 6.61 2.02 13.28
12/7/2020 6:00:00 AM 3.13 37.634 0.042 6.51 2.09 13.29
12/7/2020 6:15:00 AM 3.12 37.616 0.042 6.62 1.99 13.28
12/7/2020 6:30:00 AM 3.11 37.598 0.042 6.6 1.92 13.29
12/7/2020 6:45:00 AM 3.11 37.598 0.042 6.51 1.97 13.29
12/7/2020 7:00:00 AM 3.1 37.58 0.042 6.61 1.99 13.29
12/7/2020 7:15:00 AM 3.09 37.562 0.042 6.6 2.08 13.3
12/7/2020 7:30:00 AM 3.08 37.544 0.042 6.6 1.96 13.3
12/7/2020 7:45:00 AM 3.08 37.544 0.042 6.59 2.01 13.31
12/7/2020 8:00:00 AM 3.07 37.526 0.042 6.6 2.09 13.34
12/7/2020 8:15:00 AM 3.06 37.508 0.042 6.61 1.99 13.37
12/7/2020 8:30:00 AM 3.06 37.508 0.042 6.62 1.99 13.4
12/7/2020 8:45:00 AM 3.06 37.508 0.042 6.62 1.86 13.44
12/7/2020 9:00:00 AM 3.05 37.49 0.042 6.63 1.96 13.49
12/7/2020 9:15:00 AM 3.06 37.508 0.042 6.66 2 13.52
12/7/2020 9:30:00 AM 3.06 37.508 0.042 6.66 1.87 13.53
12/7/2020 9:45:00 AM 3.08 37.544 0.042 6.6 1.96 13.56
12/7/2020 10:00:00 AM 3.1 37.58 0.042 6.7 1.87 13.57
12/7/2020 10:15:00 AM 3.13 37.634 0.042 6.69 1.83 13.57
12/7/2020 10:30:00 AM 3.15 37.67 0.042 6.63 1.8 13.57
12/7/2020 10:45:00 AM 3.16 37.688 0.042 6.69 1.84 13.57
12/7/2020 11:00:00 AM 3.17 37.706 0.041 6.64 1.86 13.57
12/7/2020 11:15:00 AM 3.17 37.706 0.041 6.69 1.87 13.56
12/7/2020 11:30:00 AM 3.19 37.742 0.041 6.7 1.81 13.55
12/7/2020 11:45:00 AM 3.23 37.814 0.041 6.71 1.8 13.55
12/7/2020 12:00:00 PM 3.31 37.958 0.041 6.72 1.88 13.55
12/7/2020 12:15:00 PM 3.37 38.066 0.041 6.73 1.88 13.54
12/7/2020 12:30:00 PM 3.51 38.318 0.041 6.76 1.84 13.52
12/7/2020 12:45:00 PM 3.53 38.354 0.041 6.76 1.8 13.49
12/7/2020 1:00:00 PM 3.61 38.498 0.041 6.76 1.82 13.47
12/7/2020 1:15:00 PM 3.71 38.678 0.041 6.77 2.25 13.45
12/7/2020 1:30:00 PM 3.83 38.894 0.041 6.79 1.86 13.42
12/7/2020 1:45:00 PM 3.9 39.02 0.041 6.71 1.93 13.38
12/7/2020 2:00:00 PM 3.92 39.056 0.041 6.74 1.93 13.35
12/7/2020 2:15:00 PM 3.94 39.092 0.041 6.76 1.82 13.33
12/7/2020 2:30:00 PM 3.95 39.11 0.041 6.67 1.86 13.31
12/7/2020 2:45:00 PM 3.95 39.11 0.041 6.75 1.87 13.3
12/7/2020 3:00:00 PM 3.94 39.092 0.041 6.73 1.83 13.3
12/7/2020 3:15:00 PM 3.92 39.056 0.041 6.74 1.82 13.29
12/7/2020 3:30:00 PM 3.9 39.02 0.041 6.67 1.9 13.28
12/7/2020 3:45:00 PM 3.86 38.948 0.041 6.72 2.08 13.27
12/7/2020 4:00:00 PM 3.82 38.876 0.041 6.7 1.89 13.26
12/7/2020 4:15:00 PM 3.76 38.768 0.041 6.68 1.98 13.24
12/7/2020 4:30:00 PM 3.7 38.66 0.041 6.62 1.89 13.23
12/7/2020 4:45:00 PM 3.64 38.552 0.041 6.68 1.94 13.21
12/7/2020 5:00:00 PM 3.57 38.426 0.041 6.66 1.95 13.21
12/7/2020 5:15:00 PM 3.52 38.336 0.041 6.65 1.84 13.19
12/7/2020 5:30:00 PM 3.47 38.246 0.042 6.63 1.96 13.19
12/7/2020 5:45:00 PM 3.42 38.156 0.042 6.63 1.95 13.18
12/7/2020 6:00:00 PM 3.37 38.066 0.042 6.59 2 13.19
12/7/2020 6:15:00 PM 3.34 38.012 0.042 6.62 2 13.19
12/7/2020 6:30:00 PM 3.32 37.976 0.042 6.61 1.89 13.2
12/7/2020 6:45:00 PM 3.29 37.922 0.042 6.55 2.11 13.2
12/7/2020 7:00:00 PM 3.26 37.868 0.042 6.61 1.96 13.22
12/7/2020 7:15:00 PM 3.22 37.796 0.042 6.61 2.03 13.22
12/7/2020 7:30:00 PM 3.19 37.742 0.042 6.62 2.02 13.23
12/7/2020 7:45:00 PM 3.15 37.67 0.042 6.61 2.02 13.25
12/7/2020 8:00:00 PM 3.1 37.58 0.042 6.61 1.93 13.26
12/7/2020 8:15:00 PM 3.06 37.508 0.042 6.6 1.96 13.27
12/7/2020 8:30:00 PM 3.02 37.436 0.042 6.6 1.88 13.29
12/7/2020 8:45:00 PM 2.99 37.382 0.042 6.6 1.85 13.3
12/7/2020 9:00:00 PM 2.95 37.31 0.042 6.61 2.1 13.31
12/7/2020 9:15:00 PM 2.91 37.238 0.042 6.58 2 13.32
12/7/2020 9:30:00 PM 2.88 37.184 0.042 6.56 2.16 13.34
12/7/2020 9:45:00 PM 2.84 37.112 0.042 6.59 2.07 13.34
12/7/2020 10:00:00 PM 2.81 37.058 0.042 6.55 1.96 13.36
12/7/2020 10:15:00 PM 2.79 37.022 0.042 6.56 2.51 13.37
12/7/2020 10:30:00 PM 2.77 36.986 0.042 6.6 1.98 13.38
12/7/2020 10:45:00 PM 2.76 36.968 0.042 6.6 2.09 13.39
12/7/2020 11:00:00 PM 2.75 36.95 0.042 6.6 1.99 13.4
12/7/2020 11:15:00 PM 2.75 36.95 0.042 6.62 2 13.4
12/7/2020 11:30:00 PM 2.76 36.968 0.042 6.61 1.98 13.4
12/7/2020 11:45:00 PM 2.77 36.986 0.042 6.61 2.06 13.4
12/8/2020 12:00:00 AM 2.77 36.986 0.042 6.62 1.94 13.4
12/8/2020 12:15:00 AM 2.78 37.004 0.042 6.52 2.33 13.4
12/8/2020 12:30:00 AM 2.79 37.022 0.042 6.63 2.27 13.39
12/8/2020 12:45:00 AM 2.78 37.004 0.042 6.62 1.94 13.4
12/8/2020 1:00:00 AM 2.76 36.968 0.042 6.62 2.02 13.4
12/8/2020 1:15:00 AM 2.76 36.968 0.042 6.63 4.14 13.39
12/8/2020 1:30:00 AM 2.74 36.932 0.042 6.62 2.47 13.4
12/8/2020 1:45:00 AM 2.73 36.914 0.042 6.61 2.13 13.41
12/8/2020 2:00:00 AM 2.72 36.896 0.042 6.61 2.47 13.41
12/8/2020 2:15:00 AM 2.72 36.896 0.042 6.62 2.19 13.42
12/8/2020 2:30:00 AM 2.71 36.878 0.042 6.59 2.27 13.41
12/8/2020 2:45:00 AM 2.7 36.86 0.042 6.62 2.2 13.42
12/8/2020 3:00:00 AM 2.69 36.842 0.042 6.63 2.08 13.42
12/8/2020 3:15:00 AM 2.66 36.788 0.042 6.63 2.13 13.43
12/8/2020 3:30:00 AM 2.6 36.68 0.042 6.61 2.34 13.44
12/8/2020 3:45:00 AM 2.56 36.608 0.042 6.59 2.02 13.45
12/8/2020 4:00:00 AM 2.53 36.554 0.042 6.61 3.48 13.46
12/8/2020 4:15:00 AM 2.51 36.518 0.042 6.6 2.05 13.47
12/8/2020 4:30:00 AM 2.49 36.482 0.042 6.59 2.02 13.48
12/8/2020 4:45:00 AM 2.45 36.41 0.042 6.59 2.08 13.5
12/8/2020 5:00:00 AM 2.42 36.356 0.042 6.61 2.16 13.51
12/8/2020 5:15:00 AM 2.39 36.302 0.042 6.59 2.21 13.52
12/8/2020 5:30:00 AM 2.36 36.248 0.042 6.63 2.18 13.52
12/8/2020 5:45:00 AM 2.33 36.194 0.042 6.59 2.36 13.53
12/8/2020 6:00:00 AM 2.3 36.14 0.042 6.59 2.23 13.55
12/8/2020 6:15:00 AM 2.28 36.104 0.042 6.61 2.11 13.56
12/8/2020 6:30:00 AM 2.25 36.05 0.042 6.63 2.16 13.56
12/8/2020 6:45:00 AM 2.23 36.014 0.042 6.62 2.01 13.58
12/8/2020 7:00:00 AM 2.21 35.978 0.042 6.62 2.04 13.59
12/8/2020 7:15:00 AM 2.18 35.924 0.042 6.63 2.01 13.61
12/8/2020 7:30:00 AM 2.15 35.87 0.042 6.56 2.05 13.63
12/8/2020 7:45:00 AM 2.13 35.834 0.042 6.62 2 13.65
12/8/2020 8:00:00 AM 2.11 35.798 0.042 6.62 1.95 13.67
12/8/2020 8:15:00 AM 2.09 35.762 0.042 6.59 1.99 13.7
12/8/2020 8:30:00 AM 2.06 35.708 0.042 6.63 2.02 13.74
12/8/2020 8:45:00 AM 2.04 35.672 0.042 6.64 1.95 13.78
12/8/2020 9:00:00 AM 2.04 35.672 0.042 6.65 2.18 13.8
12/8/2020 9:15:00 AM 2.02 35.636 0.042 6.65 2.05 13.83
12/8/2020 9:30:00 AM 2.02 35.636 0.042 6.65 2 13.84
12/8/2020 9:45:00 AM 2.02 35.636 0.042 6.68 1.95 13.86
12/8/2020 10:00:00 AM 2.02 35.636 0.042 6.66 1.94 13.87
12/8/2020 10:15:00 AM 2.03 35.654 0.042 6.67 1.96 13.87
12/8/2020 10:30:00 AM 2.06 35.708 0.042 6.68 1.94 13.89
12/8/2020 10:45:00 AM 2.14 35.852 0.042 6.7 1.98 13.89
12/8/2020 11:00:00 AM 2.2 35.96 0.042 6.68 1.87 13.88
12/8/2020 11:15:00 AM 2.28 36.104 0.042 6.68 2.77 13.88
12/8/2020 11:30:00 AM 2.36 36.248 0.042 6.7 1.93 13.86
12/8/2020 11:45:00 AM 2.44 36.392 0.042 6.7 2 13.85
12/8/2020 12:00:00 PM 2.52 36.536 0.042 6.7 1.94 13.82
12/8/2020 12:15:00 PM 2.6 36.68 0.042 6.74 1.89 13.79
12/8/2020 12:30:00 PM 2.7 36.86 0.042 6.72 1.87 13.76
12/8/2020 12:45:00 PM 2.79 37.022 0.042 6.72 1.96 13.74
12/8/2020 1:00:00 PM 2.89 37.202 0.042 6.73 1.95 13.71
12/8/2020 1:15:00 PM 2.98 37.364 0.042 6.77 1.99 13.67
12/8/2020 1:30:00 PM 3.09 37.562 0.042 6.76 1.95 13.64
12/8/2020 1:45:00 PM 3.17 37.706 0.042 6.72 1.88 13.6
12/8/2020 2:00:00 PM 3.23 37.814 0.042 6.77 2.09 13.59
12/8/2020 2:15:00 PM 3.27 37.886 0.042 6.72 2.08 13.57
12/8/2020 2:30:00 PM 3.29 37.922 0.042 6.74 1.92 13.55
12/8/2020 2:45:00 PM 3.31 37.958 0.042 6.76 2.01 13.52
12/8/2020 3:00:00 PM 3.31 37.958 0.042 6.75 2.02 13.51
12/8/2020 3:15:00 PM 3.31 37.958 0.042 6.73 2 13.5
12/8/2020 3:30:00 PM 3.28 37.904 0.042 6.73 1.92 13.51
12/8/2020 3:45:00 PM 3.25 37.85 0.042 6.72 2.16 13.49
12/8/2020 4:00:00 PM 3.2 37.76 0.042 6.71 1.99 13.48
12/8/2020 4:15:00 PM 3.14 37.652 0.042 6.71 1.9 13.47
12/8/2020 4:30:00 PM 3.09 37.562 0.042 6.66 1.99 13.47
12/8/2020 4:45:00 PM 3.03 37.454 0.042 6.62 1.92 13.45
12/8/2020 5:00:00 PM 2.97 37.346 0.042 6.64 2.03 13.44
12/8/2020 5:15:00 PM 2.93 37.274 0.042 6.68 1.97 13.44
12/8/2020 5:30:00 PM 2.87 37.166 0.042 6.57 2 13.44
12/8/2020 5:45:00 PM 2.82 37.076 0.042 6.59 2.02 13.45
12/8/2020 6:00:00 PM 2.77 36.986 0.042 6.59 1.9 13.45
12/8/2020 6:15:00 PM 2.74 36.932 0.042 6.59 2.02 13.45
12/8/2020 6:30:00 PM 2.72 36.896 0.042 6.63 2 13.46
12/8/2020 6:45:00 PM 2.72 36.896 0.042 6.61 2.1 13.45
12/8/2020 7:00:00 PM 2.72 36.896 0.042 6.65 2.1 13.45
12/8/2020 7:15:00 PM 2.73 36.914 0.042 6.64 2.04 13.45
12/8/2020 7:30:00 PM 2.74 36.932 0.042 6.56 1.98 13.45
12/8/2020 7:45:00 PM 2.75 36.95 0.042 6.59 2.05 13.45
12/8/2020 8:00:00 PM 2.77 36.986 0.042 6.66 2.18 13.45
12/8/2020 8:15:00 PM 2.78 37.004 0.042 6.63 2.13 13.44
12/8/2020 8:30:00 PM 2.79 37.022 0.042 6.66 2 13.44
12/8/2020 8:45:00 PM 2.79 37.022 0.042 6.63 2.1 13.43
12/8/2020 9:00:00 PM 2.8 37.04 0.042 6.61 2.07 13.43
12/8/2020 9:15:00 PM 2.79 37.022 0.042 6.61 1.98 13.43
12/8/2020 9:30:00 PM 2.8 37.04 0.042 6.65 2.06 13.43
12/8/2020 9:45:00 PM 2.81 37.058 0.042 6.63 2.08 13.42
12/8/2020 10:00:00 PM 2.81 37.058 0.042 6.64 2.04 13.42
12/8/2020 10:15:00 PM 2.82 37.076 0.042 6.61 2.04 13.42
12/8/2020 10:30:00 PM 2.82 37.076 0.042 6.64 2.23 13.42
12/8/2020 10:45:00 PM 2.82 37.076 0.042 6.59 2.21 13.42
12/8/2020 11:00:00 PM 2.82 37.076 0.042 6.64 2.31 13.42
12/8/2020 11:15:00 PM 2.82 37.076 0.042 6.64 2.07 13.42
12/8/2020 11:30:00 PM 2.82 37.076 0.042 6.64 2.03 13.41
12/8/2020 11:45:00 PM 2.82 37.076 0.042 6.63 2.07 13.42
12/9/2020 12:00:00 AM 2.82 37.076 0.042 6.58 2.1 13.41
12/9/2020 12:15:00 AM 2.83 37.094 0.042 6.63 2.18 13.4
12/9/2020 12:30:00 AM 2.83 37.094 0.042 6.65 2.28 13.41
12/9/2020 12:45:00 AM 2.83 37.094 0.042 6.63 2.06 13.4
12/9/2020 1:00:00 AM 2.82 37.076 0.042 6.61 2.09 13.4
12/9/2020 1:15:00 AM 2.82 37.076 0.042 6.65 2.24 13.4
12/9/2020 1:30:00 AM 2.82 37.076 0.042 6.64 2.19 13.39
12/9/2020 1:45:00 AM 2.82 37.076 0.042 6.64 2 13.39
12/9/2020 2:00:00 AM 2.81 37.058 0.042 6.65 1.95 13.38
12/9/2020 2:15:00 AM 2.8 37.04 0.042 6.62 2.19 13.39
12/9/2020 2:30:00 AM 2.79 37.022 0.042 6.65 2.15 13.39
12/9/2020 2:45:00 AM 2.78 37.004 0.042 6.61 2.11 13.39
12/9/2020 3:00:00 AM 2.78 37.004 0.042 6.62 2.06 13.39
12/9/2020 3:15:00 AM 2.77 36.986 0.042 6.62 2.01 13.39
12/9/2020 3:30:00 AM 2.76 36.968 0.042 6.65 2.1 13.38
12/9/2020 3:45:00 AM 2.76 36.968 0.043 6.63 1.98 13.39
12/9/2020 4:00:00 AM 2.76 36.968 0.043 6.65 2.17 13.39
12/9/2020 4:15:00 AM 2.76 36.968 0.043 6.64 2.36 13.39
12/9/2020 4:30:00 AM 2.76 36.968 0.043 6.63 2.36 13.4
12/9/2020 4:45:00 AM 2.75 36.95 0.043 6.63 2.38 13.38
12/9/2020 5:00:00 AM 2.75 36.95 0.043 6.62 2.29 13.39
12/9/2020 5:15:00 AM 2.75 36.95 0.043 6.6 2.36 13.39
12/9/2020 5:30:00 AM 2.75 36.95 0.043 6.6 2.33 13.39
12/9/2020 5:45:00 AM 2.75 36.95 0.043 6.65 2.13 13.38
12/9/2020 6:00:00 AM 2.75 36.95 0.043 6.65 2.08 13.39
12/9/2020 6:15:00 AM 2.75 36.95 0.043 6.64 2.02 13.38
12/9/2020 6:30:00 AM 2.75 36.95 0.043 6.62 2.07 13.39
12/9/2020 6:45:00 AM 2.75 36.95 0.043 6.64 2.03 13.38
12/9/2020 7:00:00 AM 2.75 36.95 0.043 6.65 2.08 13.37
12/9/2020 7:15:00 AM 2.75 36.95 0.043 6.64 2.07 13.38
12/9/2020 7:30:00 AM 2.75 36.95 0.043 6.61 2.07 13.38
12/9/2020 7:45:00 AM 2.75 36.95 0.043 6.64 1.94 13.38
12/9/2020 8:00:00 AM 2.74 36.932 0.043 6.61 1.93 13.39
12/9/2020 8:15:00 AM 2.74 36.932 0.043 6.65 2.19 13.41
12/9/2020 8:30:00 AM 2.72 36.896 0.043 6.63 1.94 13.42
12/9/2020 8:45:00 AM 2.7 36.86 0.043 6.66 2.07 13.43
12/9/2020 9:00:00 AM 2.69 36.842 0.043 6.64 1.96 13.46
12/9/2020 9:15:00 AM 2.68 36.824 0.042 6.67 2.12 13.49
12/9/2020 9:30:00 AM 2.69 36.842 0.042 6.67 1.96 13.53
12/9/2020 9:45:00 AM 2.7 36.86 0.042 6.68 1.88 13.56
12/9/2020 10:00:00 AM 2.72 36.896 0.042 6.69 2.04 13.59
12/9/2020 10:15:00 AM 2.74 36.932 0.042 6.7 2.75 13.61
12/9/2020 10:30:00 AM 2.76 36.968 0.042 6.68 1.94 13.6
12/9/2020 10:45:00 AM 2.78 37.004 0.042 6.72 2 13.59
12/9/2020 11:00:00 AM 2.8 37.04 0.042 6.71 1.87 13.59
12/9/2020 11:15:00 AM 2.82 37.076 0.042 6.72 1.89 13.59
12/9/2020 11:30:00 AM 2.84 37.112 0.042 6.72 2.08 13.59
12/9/2020 11:45:00 AM 2.86 37.148 0.042 6.67 1.88 13.59
12/9/2020 12:00:00 PM 2.88 37.184 0.042 6.7 1.98 13.58
12/9/2020 12:15:00 PM 2.9 37.22 0.042 6.7 1.92 13.58
12/9/2020 12:30:00 PM 2.92 37.256 0.042 6.68 1.96 13.56
12/9/2020 12:45:00 PM 2.94 37.292 0.042 6.71 1.9 13.55
12/9/2020 1:00:00 PM 2.95 37.31 0.042 6.66 2.02 13.52
12/9/2020 1:15:00 PM 2.97 37.346 0.042 6.72 1.83 13.52
12/9/2020 1:30:00 PM 2.99 37.382 0.042 6.72 2.21 13.5
12/9/2020 1:45:00 PM 3 37.4 0.042 6.72 1.96 13.48
12/9/2020 2:00:00 PM 3.02 37.436 0.042 6.72 2.17 13.47
12/9/2020 2:15:00 PM 3.04 37.472 0.042 6.6 1.91 13.46
12/9/2020 2:30:00 PM 3.05 37.49 0.042 6.72 1.91 13.45
12/9/2020 2:45:00 PM 3.07 37.526 0.042 6.7 1.97 13.43
12/9/2020 3:00:00 PM 3.08 37.544 0.042 6.72 2 13.42
12/9/2020 3:15:00 PM 3.09 37.562 0.042 6.69 1.92 13.41
12/9/2020 3:30:00 PM 3.1 37.58 0.042 6.64 1.9 13.4
12/9/2020 3:45:00 PM 3.12 37.616 0.042 6.66 1.88 13.38
12/9/2020 4:00:00 PM 3.13 37.634 0.042 6.67 1.9 13.37
12/9/2020 4:15:00 PM 3.14 37.652 0.042 6.64 1.89 13.34
12/9/2020 4:30:00 PM 3.15 37.67 0.042 6.69 1.94 13.33
12/9/2020 4:45:00 PM 3.16 37.688 0.042 6.69 1.95 13.31
12/9/2020 5:00:00 PM 3.17 37.706 0.042 6.68 1.92 13.29
12/9/2020 5:15:00 PM 3.19 37.742 0.042 6.6 1.9 13.28
12/9/2020 5:30:00 PM 3.2 37.76 0.042 6.61 1.91 13.27
12/9/2020 5:45:00 PM 3.21 37.778 0.042 6.68 3.52 13.25
12/9/2020 6:00:00 PM 3.23 37.814 0.042 6.58 3.03 13.24
12/9/2020 6:15:00 PM 3.24 37.832 0.042 6.68 2.8 13.24
12/9/2020 6:30:00 PM 3.25 37.85 0.042 6.62 3.85 13.23
12/9/2020 6:45:00 PM 3.27 37.886 0.042 6.61 2.23 13.22
12/9/2020 7:00:00 PM 3.28 37.904 0.043 6.61 1.97 13.21
12/9/2020 7:15:00 PM 3.3 37.94 0.043 6.64 1.89 13.22
12/9/2020 7:30:00 PM 3.31 37.958 0.043 6.67 1.93 13.22
12/9/2020 7:45:00 PM 3.33 37.994 0.043 6.61 2.01 13.2
12/9/2020 8:00:00 PM 3.34 38.012 0.043 6.67 2.02 13.2
12/9/2020 8:15:00 PM 3.35 38.03 0.043 6.6 2.19 13.2
12/9/2020 8:30:00 PM 3.37 38.066 0.043 6.67 1.91 13.2
12/9/2020 8:45:00 PM 3.39 38.102 0.043 6.66 1.94 13.19
12/9/2020 9:00:00 PM 3.41 38.138 0.043 6.63 2.02 13.19
12/9/2020 9:15:00 PM 3.42 38.156 0.043 6.63 2.31 13.2
12/9/2020 9:30:00 PM 3.43 38.174 0.043 6.6 2.04 13.18
12/9/2020 9:45:00 PM 3.45 38.21 0.043 6.67 1.96 13.19
12/9/2020 10:00:00 PM 3.46 38.228 0.043 6.65 2.05 13.17
12/9/2020 10:15:00 PM 3.47 38.246 0.043 6.67 2.34 13.17
12/9/2020 10:30:00 PM 3.49 38.282 0.043 6.67 2 13.18
12/9/2020 10:45:00 PM 3.5 38.3 0.043 6.66 2.01 13.17
12/9/2020 11:00:00 PM 3.52 38.336 0.043 6.6 1.95 13.17
12/9/2020 11:15:00 PM 3.53 38.354 0.043 6.59 2.25 13.16
12/9/2020 11:30:00 PM 3.53 38.354 0.043 6.62 1.94 13.16
12/9/2020 11:45:00 PM 3.54 38.372 0.043 6.66 1.94 13.15
12/10/2020 12:00:00 AM 3.55 38.39 0.043 6.58 1.95 13.15
12/10/2020 12:15:00 AM 3.55 38.39 0.043 6.62 2.13 13.15
12/10/2020 12:30:00 AM 3.56 38.408 0.043 6.66 1.99 13.16
12/10/2020 12:45:00 AM 3.57 38.426 0.043 6.66 1.89 13.15
12/10/2020 1:00:00 AM 3.58 38.444 0.043 6.63 2.31 13.15
12/10/2020 1:15:00 AM 3.59 38.462 0.043 6.6 2.18 13.15
12/10/2020 1:30:00 AM 3.6 38.48 0.043 6.67 1.88 13.15
12/10/2020 1:45:00 AM 3.61 38.498 0.043 6.67 1.93 13.15
12/10/2020 2:00:00 AM 3.62 38.516 0.043 6.63 1.92 13.14
12/10/2020 2:15:00 AM 3.63 38.534 0.043 6.66 1.9 13.14
12/10/2020 2:30:00 AM 3.63 38.534 0.043 6.6 1.93 13.14
12/10/2020 2:45:00 AM 3.64 38.552 0.043 6.67 1.98 13.15
12/10/2020 3:00:00 AM 3.64 38.552 0.043 6.67 2.03 13.15
12/10/2020 3:15:00 AM 3.66 38.588 0.043 6.62 1.93 13.14
12/10/2020 3:30:00 AM 3.66 38.588 0.043 6.67 2.08 13.14
12/10/2020 3:45:00 AM 3.67 38.606 0.043 6.63 2 13.14
12/10/2020 4:00:00 AM 3.68 38.624 0.043 6.58 2.01 13.14
12/10/2020 4:15:00 AM 3.68 38.624 0.043 6.63 1.77 13.14
12/10/2020 4:30:00 AM 3.69 38.642 0.043 6.66 2.26 13.14
12/10/2020 4:45:00 AM 3.7 38.66 0.043 6.67 2.02 13.14
12/10/2020 5:00:00 AM 3.71 38.678 0.043 6.57 2.46 13.14
12/10/2020 5:15:00 AM 3.71 38.678 0.043 6.67 2 13.13
12/10/2020 5:30:00 AM 3.72 38.696 0.043 6.58 1.96 13.14
12/10/2020 5:45:00 AM 3.73 38.714 0.043 6.62 2.06 13.14
12/10/2020 6:00:00 AM 3.74 38.732 0.043 6.66 1.91 13.14
12/10/2020 6:15:00 AM 3.75 38.75 0.043 6.65 1.86 13.13
12/10/2020 6:30:00 AM 3.76 38.768 0.043 6.63 1.84 13.14
12/10/2020 6:45:00 AM 3.77 38.786 0.043 6.66 1.89 13.14
12/10/2020 7:00:00 AM 3.78 38.804 0.043 6.66 1.88 13.14
12/10/2020 7:15:00 AM 3.79 38.822 0.043 6.66 2 13.14
12/10/2020 7:30:00 AM 3.8 38.84 0.043 6.66 1.88 13.13
12/10/2020 7:45:00 AM 3.8 38.84 0.043 6.61 1.92 13.14
12/10/2020 8:00:00 AM 3.81 38.858 0.043 6.67 1.85 13.15
12/10/2020 8:15:00 AM 3.83 38.894 0.043 6.67 1.93 13.17
12/10/2020 8:30:00 AM 3.85 38.93 0.043 6.68 1.82 13.21
12/10/2020 8:45:00 AM 3.87 38.966 0.043 6.61 1.75 13.24
12/10/2020 9:00:00 AM 3.89 39.002 0.043 6.7 1.78 13.27
12/10/2020 9:15:00 AM 3.92 39.056 0.043 6.72 1.79 13.3
12/10/2020 9:30:00 AM 3.96 39.128 0.043 6.67 1.83 13.33
12/10/2020 9:45:00 AM 4 39.2 0.043 6.73 1.83 13.35
12/10/2020 10:00:00 AM 4.03 39.254 0.042 6.75 1.74 13.37
12/10/2020 10:15:00 AM 4.07 39.326 0.042 6.75 1.89 13.38
12/10/2020 10:30:00 AM 4.12 39.416 0.042 6.77 1.8 13.4
12/10/2020 10:45:00 AM 4.17 39.506 0.042 6.74 1.76 13.4
12/10/2020 11:00:00 AM 4.22 39.596 0.042 6.76 1.81 13.4
12/10/2020 11:15:00 AM 4.27 39.686 0.042 6.73 1.81 13.4
12/10/2020 11:30:00 AM 4.33 39.794 0.042 6.82 1.82 13.4
12/10/2020 11:45:00 AM 4.38 39.884 0.042 6.8 1.85 13.38
12/10/2020 12:00:00 PM 4.43 39.974 0.042 6.78 1.82 13.37
12/10/2020 12:15:00 PM 4.49 40.082 0.042 6.81 1.74 13.37
12/10/2020 12:30:00 PM 4.55 40.19 0.042 6.81 1.88 13.35
12/10/2020 12:45:00 PM 4.6 40.28 0.042 6.81 1.76 13.34
12/10/2020 1:00:00 PM 4.64 40.352 0.042 6.8 1.78 13.31
12/10/2020 1:15:00 PM 4.69 40.442 0.042 6.83 1.82 13.3
12/10/2020 1:30:00 PM 4.74 40.532 0.042 6.83 1.82 13.28
12/10/2020 1:45:00 PM 4.8 40.64 0.042 6.84 1.81 13.27
12/10/2020 2:00:00 PM 4.81 40.658 0.042 6.83 1.78 13.24
12/10/2020 2:15:00 PM 4.85 40.73 0.042 6.82 1.82 13.22
12/10/2020 2:30:00 PM 4.89 40.802 0.042 6.83 1.81 13.21
12/10/2020 2:45:00 PM 4.87 40.766 0.042 6.83 1.74 13.19
12/10/2020 3:00:00 PM 4.91 40.838 0.042 6.82 1.88 13.18
12/10/2020 3:15:00 PM 4.89 40.802 0.042 6.76 1.94 13.15
12/10/2020 3:30:00 PM 4.88 40.784 0.042 6.8 1.77 13.12
12/10/2020 3:45:00 PM 4.85 40.73 0.042 6.78 1.9 13.09
12/10/2020 4:00:00 PM 4.8 40.64 0.042 6.78 1.88 13.08
12/10/2020 4:15:00 PM 4.75 40.55 0.042 6.76 1.98 13.06
12/10/2020 4:30:00 PM 4.68 40.424 0.042 6.75 1.74 13.05
12/10/2020 4:45:00 PM 4.63 40.334 0.042 6.72 1.8 13.01
12/10/2020 5:00:00 PM 4.57 40.226 0.042 6.71 1.83 13
12/10/2020 5:15:00 PM 4.51 40.118 0.042 6.7 1.84 12.98
12/10/2020 5:30:00 PM 4.45 40.01 0.042 6.65 1.88 12.97
12/10/2020 5:45:00 PM 4.39 39.902 0.042 6.64 1.85 12.98
12/10/2020 6:00:00 PM 4.32 39.776 0.043 6.67 2.18 12.99
12/10/2020 6:15:00 PM 4.26 39.668 0.043 6.67 1.85 13
12/10/2020 6:30:00 PM 4.2 39.56 0.043 6.65 1.98 13.01
12/10/2020 6:45:00 PM 4.14 39.452 0.043 6.59 1.93 13.03
12/10/2020 7:00:00 PM 4.09 39.362 0.043 6.59 1.86 13.03
12/10/2020 7:15:00 PM 4.03 39.254 0.043 6.65 1.87 13.05
12/10/2020 7:30:00 PM 3.98 39.164 0.043 6.55 1.91 13.06
12/10/2020 7:45:00 PM 3.93 39.074 0.043 6.65 1.86 13.08
12/10/2020 8:00:00 PM 3.88 38.984 0.043 6.64 2.06 13.09
12/10/2020 8:15:00 PM 3.83 38.894 0.043 6.63 1.92 13.12
12/10/2020 8:30:00 PM 3.77 38.786 0.043 6.54 1.93 13.14
12/10/2020 8:45:00 PM 3.73 38.714 0.043 6.59 2.04 13.15
12/10/2020 9:00:00 PM 3.67 38.606 0.043 6.65 1.94 13.17
12/10/2020 9:15:00 PM 3.62 38.516 0.043 6.57 1.99 13.19
12/10/2020 9:30:00 PM 3.57 38.426 0.043 6.6 1.94 13.2
12/10/2020 9:45:00 PM 3.52 38.336 0.043 6.65 1.84 13.22
12/10/2020 10:00:00 PM 3.48 38.264 0.043 6.64 1.95 13.24
12/10/2020 10:15:00 PM 3.44 38.192 0.043 6.55 2.13 13.25
12/10/2020 10:30:00 PM 3.4 38.12 0.043 6.65 2.01 13.26
12/10/2020 10:45:00 PM 3.35 38.03 0.043 6.63 1.91 13.28
12/10/2020 11:00:00 PM 3.3 37.94 0.043 6.58 2.08 13.3
12/10/2020 11:15:00 PM 3.26 37.868 0.043 6.63 1.94 13.31
12/10/2020 11:30:00 PM 3.22 37.796 0.043 6.64 1.98 13.32
12/10/2020 11:45:00 PM 3.18 37.724 0.043 6.65 1.89 13.33
12/11/2020 12:00:00 AM 3.14 37.652 0.043 6.64 1.91 13.36
12/11/2020 12:15:00 AM 3.11 37.598 0.043 6.6 1.89 13.36
12/11/2020 12:30:00 AM 3.07 37.526 0.043 6.65 2 13.38
12/11/2020 12:45:00 AM 3.03 37.454 0.043 6.54 1.86 13.39
12/11/2020 1:00:00 AM 2.99 37.382 0.043 6.6 1.87 13.41
12/11/2020 1:15:00 AM 2.96 37.328 0.043 6.65 1.85 13.42
12/11/2020 1:30:00 AM 2.93 37.274 0.043 6.65 1.78 13.43
12/11/2020 1:45:00 AM 2.9 37.22 0.043 6.6 1.93 13.44
12/11/2020 2:00:00 AM 2.86 37.148 0.043 6.65 2.04 13.45
12/11/2020 2:15:00 AM 2.84 37.112 0.043 6.57 1.96 13.47
12/11/2020 2:30:00 AM 2.8 37.04 0.043 6.6 2.12 13.47
12/11/2020 2:45:00 AM 2.77 36.986 0.043 6.63 2.1 13.48
12/11/2020 3:00:00 AM 2.74 36.932 0.043 6.66 2.01 13.49
12/11/2020 3:15:00 AM 2.71 36.878 0.043 6.59 1.95 13.51
12/11/2020 3:30:00 AM 2.68 36.824 0.044 6.61 1.85 13.51
12/11/2020 3:45:00 AM 2.65 36.77 0.044 6.63 2.11 13.53
12/11/2020 4:00:00 AM 2.63 36.734 0.044 6.66 1.91 13.54
12/11/2020 4:15:00 AM 2.6 36.68 0.044 6.65 2.02 13.54
12/11/2020 4:30:00 AM 2.57 36.626 0.044 6.62 2.04 13.56
12/11/2020 4:45:00 AM 2.54 36.572 0.044 6.65 2.02 13.56
12/11/2020 5:00:00 AM 2.51 36.518 0.044 6.61 2.1 13.58
12/11/2020 5:15:00 AM 2.49 36.482 0.044 6.66 1.96 13.58
12/11/2020 5:30:00 AM 2.46 36.428 0.044 6.66 1.95 13.6
12/11/2020 5:45:00 AM 2.43 36.374 0.044 6.58 2.43 13.6
12/11/2020 6:00:00 AM 2.4 36.32 0.044 6.66 1.93 13.63
12/11/2020 6:15:00 AM 2.37 36.266 0.044 6.59 1.95 13.62
12/11/2020 6:30:00 AM 2.35 36.23 0.044 6.65 1.91 13.64
12/11/2020 6:45:00 AM 2.33 36.194 0.044 6.66 2.1 13.65
12/11/2020 7:00:00 AM 2.3 36.14 0.044 6.66 1.95 13.67
12/11/2020 7:15:00 AM 2.27 36.086 0.044 6.65 1.83 13.68
12/11/2020 7:30:00 AM 2.25 36.05 0.044 6.6 1.81 13.69
12/11/2020 7:45:00 AM 2.23 36.014 0.044 6.61 1.98 13.72
12/11/2020 8:00:00 AM 2.22 35.996 0.044 6.62 1.8 13.76
12/11/2020 8:15:00 AM 2.21 35.978 0.044 6.65 1.89 13.81
12/11/2020 8:30:00 AM 2.22 35.996 0.044 6.66 2.25 13.86
12/11/2020 8:45:00 AM 2.22 35.996 0.043 6.68 1.75 13.89
12/11/2020 9:00:00 AM 2.23 36.014 0.043 6.7 1.85 13.93
12/11/2020 9:15:00 AM 2.25 36.05 0.043 6.73 1.79 13.95
12/11/2020 9:30:00 AM 2.29 36.122 0.043 6.71 1.72 13.97
12/11/2020 9:45:00 AM 2.35 36.23 0.043 6.74 1.75 14
12/11/2020 10:00:00 AM 2.41 36.338 0.043 6.77 1.88 14.01
12/11/2020 10:15:00 AM 2.47 36.446 0.043 6.77 1.91 14.01
12/11/2020 10:30:00 AM 2.54 36.572 0.043 6.77 1.86 14
12/11/2020 10:45:00 AM 2.59 36.662 0.043 6.78 1.79 13.97
12/11/2020 11:00:00 AM 2.66 36.788 0.043 6.79 1.74 13.94
12/11/2020 11:15:00 AM 2.76 36.968 0.043 6.79 1.71 13.92
12/11/2020 11:30:00 AM 2.83 37.094 0.043 6.79 1.68 13.89
12/11/2020 11:45:00 AM 2.93 37.274 0.043 6.81 1.76 13.89
12/11/2020 12:00:00 PM 3.05 37.49 0.043 6.82 1.72 13.86
12/11/2020 12:15:00 PM 3.18 37.724 0.043 6.78 1.76 13.83
12/11/2020 12:30:00 PM 3.33 37.994 0.043 6.85 1.7 13.77
12/11/2020 12:45:00 PM 3.48 38.264 0.043 6.84 1.74 13.74
12/11/2020 1:00:00 PM 3.59 38.462 0.043 6.84 1.69 13.69
12/11/2020 1:15:00 PM 3.69 38.642 0.043 6.8 1.75 13.65
12/11/2020 1:30:00 PM 3.79 38.822 0.043 6.84 1.77 13.61
12/11/2020 1:45:00 PM 3.88 38.984 0.042 6.85 1.68 13.57
12/11/2020 2:00:00 PM 3.97 39.146 0.042 6.84 1.76 13.54
12/11/2020 2:15:00 PM 4.03 39.254 0.042 6.81 1.69 13.51
12/11/2020 2:30:00 PM 4.1 39.38 0.042 6.84 1.99 13.46
12/11/2020 2:45:00 PM 4.17 39.506 0.042 6.84 1.79 13.43
12/11/2020 3:00:00 PM 4.23 39.614 0.042 6.82 1.81 13.39
12/11/2020 3:15:00 PM 4.26 39.668 0.042 6.83 1.77 13.37
12/11/2020 3:30:00 PM 4.27 39.686 0.042 6.81 1.87 13.33
12/11/2020 3:45:00 PM 4.27 39.686 0.042 6.75 1.85 13.3
12/11/2020 4:00:00 PM 4.26 39.668 0.042 6.8 3.4 13.27
12/11/2020 4:15:00 PM 4.25 39.65 0.043 6.76 2.24 13.25
12/11/2020 4:30:00 PM 4.22 39.596 0.043 6.75 1.79 13.21
12/11/2020 4:45:00 PM 4.2 39.56 0.043 6.75 1.68 13.18
12/11/2020 5:00:00 PM 4.16 39.488 0.043 6.73 1.81 13.14
12/11/2020 5:15:00 PM 4.11 39.398 0.043 6.72 1.73 13.11
12/11/2020 5:30:00 PM 4.08 39.344 0.043 6.71 1.96 13.11
12/11/2020 5:45:00 PM 4.03 39.254 0.043 6.7 1.91 13.09
12/11/2020 6:00:00 PM 3.98 39.164 0.043 6.68 1.78 13.09
12/11/2020 6:15:00 PM 3.94 39.092 0.043 6.68 1.79 13.09
12/11/2020 6:30:00 PM 3.9 39.02 0.043 6.64 1.87 13.09
12/11/2020 6:45:00 PM 3.87 38.966 0.043 6.6 1.86 13.11
12/11/2020 7:00:00 PM 3.85 38.93 0.043 6.6 1.87 13.11
12/11/2020 7:15:00 PM 3.83 38.894 0.043 6.67 1.83 13.12
12/11/2020 7:30:00 PM 3.82 38.876 0.043 6.58 2.07 13.12
12/11/2020 7:45:00 PM 3.81 38.858 0.043 6.66 1.85 13.12
12/11/2020 8:00:00 PM 3.79 38.822 0.043 6.59 1.83 13.13
12/11/2020 8:15:00 PM 3.77 38.786 0.043 6.64 2.11 13.13
12/11/2020 8:30:00 PM 3.74 38.732 0.043 6.6 1.92 13.14
12/11/2020 8:45:00 PM 3.71 38.678 0.043 6.61 1.95 13.14
12/11/2020 9:00:00 PM 3.68 38.624 0.043 6.61 1.93 13.15
12/11/2020 9:15:00 PM 3.66 38.588 0.044 6.65 1.8 13.16
12/11/2020 9:30:00 PM 3.62 38.516 0.044 6.65 1.87 13.17
12/11/2020 9:45:00 PM 3.59 38.462 0.044 6.57 1.84 13.18
12/11/2020 10:00:00 PM 3.56 38.408 0.044 6.67 1.79 13.2
12/11/2020 10:15:00 PM 3.53 38.354 0.044 6.57 2.18 13.19
12/11/2020 10:30:00 PM 3.5 38.3 0.044 6.59 1.8 13.21
12/11/2020 10:45:00 PM 3.48 38.264 0.044 6.65 1.84 13.22
12/11/2020 11:00:00 PM 3.45 38.21 0.044 6.65 1.83 13.24
12/11/2020 11:15:00 PM 3.43 38.174 0.044 6.64 1.85 13.24
12/11/2020 11:30:00 PM 3.41 38.138 0.044 6.58 1.94 13.26
12/11/2020 11:45:00 PM 3.4 38.12 0.044 6.61 1.81 13.26
12/12/2020 12:00:00 AM 3.39 38.102 0.044 6.66 1.9 13.27
12/12/2020 12:15:00 AM 3.37 38.066 0.044 6.64 2.24 13.27
12/12/2020 12:30:00 AM 3.36 38.048 0.044 6.59 1.88 13.27
12/12/2020 12:45:00 AM 3.34 38.012 0.044 6.67 1.84 13.28
12/12/2020 1:00:00 AM 3.33 37.994 0.044 6.61 1.84 13.28
12/12/2020 1:15:00 AM 3.32 37.976 0.044 6.66 1.83 13.28
12/12/2020 1:30:00 AM 3.31 37.958 0.044 6.66 1.79 13.29
12/12/2020 1:45:00 AM 3.31 37.958 0.044 6.57 1.83 13.3
12/12/2020 2:00:00 AM 3.3 37.94 0.044 6.63 1.81 13.3
12/12/2020 2:15:00 AM 3.28 37.904 0.044 6.66 1.78 13.3
12/12/2020 2:30:00 AM 3.26 37.868 0.044 6.61 1.87 13.31
12/12/2020 2:45:00 AM 3.24 37.832 0.044 6.66 1.81 13.31
12/12/2020 3:00:00 AM 3.23 37.814 0.044 6.66 1.81 13.33
12/12/2020 3:15:00 AM 3.22 37.796 0.044 6.66 1.86 13.33
12/12/2020 3:30:00 AM 3.2 37.76 0.044 6.65 2.07 13.33
12/12/2020 3:45:00 AM 3.18 37.724 0.044 6.66 1.77 13.33
12/12/2020 4:00:00 AM 3.16 37.688 0.044 6.57 1.91 13.35
12/12/2020 4:15:00 AM 3.14 37.652 0.044 6.66 1.79 13.35
12/12/2020 4:30:00 AM 3.13 37.634 0.044 6.67 1.86 13.36
12/12/2020 4:45:00 AM 3.12 37.616 0.044 6.66 1.74 13.35
12/12/2020 5:00:00 AM 3.13 37.634 0.044 6.58 1.85 13.36
12/12/2020 5:15:00 AM 3.12 37.616 0.044 6.62 1.91 13.36
12/12/2020 5:30:00 AM 3.13 37.634 0.044 6.6 2.9 13.36
12/12/2020 5:45:00 AM 3.13 37.634 0.044 6.6 1.84 13.37
12/12/2020 6:00:00 AM 3.13 37.634 0.044 6.67 1.91 13.36
12/12/2020 6:15:00 AM 3.13 37.634 0.044 6.6 1.94 13.36
12/12/2020 6:30:00 AM 3.14 37.652 0.044 6.64 1.89 13.36
12/12/2020 6:45:00 AM 3.14 37.652 0.044 6.67 1.84 13.36
12/12/2020 7:00:00 AM 3.15 37.67 0.044 6.66 1.76 13.36
12/12/2020 7:15:00 AM 3.15 37.67 0.044 6.67 1.97 13.35
12/12/2020 7:30:00 AM 3.15 37.67 0.044 6.67 1.81 13.36
12/12/2020 7:45:00 AM 3.16 37.688 0.044 6.65 1.78 13.36
12/12/2020 8:00:00 AM 3.16 37.688 0.044 6.62 1.99 13.37
12/12/2020 8:15:00 AM 3.17 37.706 0.044 6.68 1.8 13.39
12/12/2020 8:30:00 AM 3.19 37.742 0.044 6.69 1.82 13.43
12/12/2020 8:45:00 AM 3.22 37.796 0.044 6.69 1.72 13.46
12/12/2020 9:00:00 AM 3.25 37.85 0.044 6.66 1.79 13.5
12/12/2020 9:15:00 AM 3.29 37.922 0.044 6.67 1.83 13.55
12/12/2020 9:30:00 AM 3.33 37.994 0.044 6.73 1.76 13.58
12/12/2020 9:45:00 AM 3.37 38.066 0.044 6.75 1.77 13.59
12/12/2020 10:00:00 AM 3.39 38.102 0.043 6.73 1.67 13.58
12/12/2020 10:15:00 AM 3.45 38.21 0.043 6.77 1.69 13.6
12/12/2020 10:30:00 AM 3.52 38.336 0.043 6.74 1.71 13.6
12/12/2020 10:45:00 AM 3.6 38.48 0.043 6.8 1.68 13.59
12/12/2020 11:00:00 AM 3.7 38.66 0.043 6.73 1.9 13.59
12/12/2020 11:15:00 AM 3.8 38.84 0.043 6.78 1.75 13.58
12/12/2020 11:30:00 AM 3.91 39.038 0.043 6.84 1.71 13.56
12/12/2020 11:45:00 AM 4.02 39.236 0.043 6.84 1.68 13.52
12/12/2020 12:00:00 PM 4.12 39.416 0.043 6.79 1.67 13.49
12/12/2020 12:15:00 PM 4.25 39.65 0.043 6.85 1.75 13.47
12/12/2020 12:30:00 PM 4.37 39.866 0.043 6.87 1.74 13.44
12/12/2020 12:45:00 PM 4.44 39.992 0.043 6.85 1.72 13.39
12/12/2020 1:00:00 PM 4.49 40.082 0.043 6.85 1.67 13.34
12/12/2020 1:15:00 PM 4.55 40.19 0.043 6.84 1.68 13.29
12/12/2020 1:30:00 PM 4.65 40.37 0.043 6.85 1.7 13.23
12/12/2020 1:45:00 PM 4.78 40.604 0.043 6.83 1.65 13.17
12/12/2020 2:00:00 PM 4.93 40.874 0.043 6.85 1.69 13.11
12/12/2020 2:15:00 PM 5.05 41.09 0.043 6.84 1.73 13.07
12/12/2020 2:30:00 PM 5.14 41.252 0.043 6.84 1.72 12.99
12/12/2020 2:45:00 PM 5.21 41.378 0.043 6.82 1.71 12.92
12/12/2020 3:00:00 PM 5.26 41.468 0.043 6.81 1.8 12.88
12/12/2020 3:15:00 PM 5.3 41.54 0.043 6.81 1.67 12.87
12/12/2020 3:30:00 PM 5.32 41.576 0.043 6.81 1.72 12.85
12/12/2020 3:45:00 PM 5.32 41.576 0.043 6.8 1.75 12.83
12/12/2020 4:00:00 PM 5.33 41.594 0.043 6.77 1.75 12.78
12/12/2020 4:15:00 PM 5.34 41.612 0.043 6.77 1.74 12.74
12/12/2020 4:30:00 PM 5.35 41.63 0.043 6.76 1.91 12.69
12/12/2020 4:45:00 PM 5.36 41.648 0.043 6.75 1.7 12.65
12/12/2020 5:00:00 PM 5.37 41.666 0.043 6.73 1.72 12.62
12/12/2020 5:15:00 PM 5.37 41.666 0.043 6.72 1.84 12.59
12/12/2020 5:30:00 PM 5.37 41.666 0.043 6.72 1.77 12.58
12/12/2020 5:45:00 PM 5.36 41.648 0.043 6.7 1.94 12.57
12/12/2020 6:00:00 PM 5.34 41.612 0.043 6.7 1.8 12.57
12/12/2020 6:15:00 PM 5.34 41.612 0.043 6.69 1.85 12.56
12/12/2020 6:30:00 PM 5.33 41.594 0.043 6.69 1.88 12.55
12/12/2020 6:45:00 PM 5.33 41.594 0.043 6.68 1.92 12.55
12/12/2020 7:00:00 PM 5.33 41.594 0.044 6.68 1.92 12.54
12/12/2020 7:15:00 PM 5.34 41.612 0.044 6.69 1.9 12.53
12/12/2020 7:30:00 PM 5.34 41.612 0.044 6.67 2.07 12.53
12/12/2020 7:45:00 PM 5.34 41.612 0.044 6.67 1.87 12.52
12/12/2020 8:00:00 PM 5.35 41.63 0.044 6.68 1.89 12.53
12/12/2020 8:15:00 PM 5.38 41.684 0.044 6.68 1.9 12.52
12/12/2020 8:30:00 PM 5.4 41.72 0.044 6.68 2.14 12.51
12/12/2020 8:45:00 PM 5.41 41.738 0.044 6.66 1.93 12.51
12/12/2020 9:00:00 PM 5.43 41.774 0.044 6.68 1.93 12.5
12/12/2020 9:15:00 PM 5.45 41.81 0.044 6.67 1.93 12.5
12/12/2020 9:30:00 PM 5.46 41.828 0.044 6.69 1.93 12.48
12/12/2020 9:45:00 PM 5.48 41.864 0.044 6.7 1.96 12.48
12/12/2020 10:00:00 PM 5.51 41.918 0.044 6.69 1.97 12.47
12/12/2020 10:15:00 PM 5.53 41.954 0.044 6.69 2.19 12.46
12/12/2020 10:30:00 PM 5.55 41.99 0.044 6.69 2 12.46
12/12/2020 10:45:00 PM 5.56 42.008 0.044 6.69 2.01 12.44
12/12/2020 11:00:00 PM 5.57 42.026 0.044 6.7 2.01 12.44
12/12/2020 11:15:00 PM 5.56 42.008 0.044 6.69 1.93 12.44
12/12/2020 11:30:00 PM 5.58 42.044 0.044 6.69 2.04 12.42
12/12/2020 11:45:00 PM 5.6 42.08 0.044 6.69 2.56 12.42
12/13/2020 12:00:00 AM 5.62 42.116 0.044 6.69 1.99 12.41
12/13/2020 12:15:00 AM 5.64 42.152 0.044 6.68 1.95 12.41
12/13/2020 12:30:00 AM 5.66 42.188 0.044 6.7 1.9 12.41
12/13/2020 12:45:00 AM 5.69 42.242 0.044 6.69 1.86 12.4
12/13/2020 1:00:00 AM 5.7 42.26 0.044 6.7 1.84 12.4
12/13/2020 1:15:00 AM 5.73 42.314 0.044 6.7 2.08 12.38
12/13/2020 1:30:00 AM 5.76 42.368 0.044 6.69 2.22 12.38
12/13/2020 1:45:00 AM 5.77 42.386 0.044 6.69 1.92 12.36
12/13/2020 2:00:00 AM 5.79 42.422 0.044 6.7 2.28 12.36
12/13/2020 2:15:00 AM 5.84 42.512 0.044 6.7 2.14 12.36
12/13/2020 2:30:00 AM 5.87 42.566 0.044 6.7 2.53 12.35
12/13/2020 2:45:00 AM 5.9 42.62 0.044 6.69 3.6 12.34
12/13/2020 3:00:00 AM 5.91 42.638 0.044 6.7 2.23 12.32
12/13/2020 3:15:00 AM 5.91 42.638 0.044 6.69 2.79 12.32
12/13/2020 3:30:00 AM 5.93 42.674 0.044 6.69 2.32 12.32
12/13/2020 3:45:00 AM 5.95 42.71 0.044 6.68 2.53 12.31
12/13/2020 4:00:00 AM 5.98 42.764 0.044 6.7 2.65 12.3
12/13/2020 4:15:00 AM 5.98 42.764 0.044 6.7 2.2 12.3
12/13/2020 4:30:00 AM 5.97 42.746 0.044 6.7 2.35 12.3
12/13/2020 4:45:00 AM 5.96 42.728 0.044 6.69 2.38 12.3
12/13/2020 5:00:00 AM 5.93 42.674 0.044 6.69 2.24 12.3
12/13/2020 5:15:00 AM 5.91 42.638 0.044 6.7 2.23 12.31
12/13/2020 5:30:00 AM 5.9 42.62 0.044 6.69 2.2 12.32
12/13/2020 5:45:00 AM 5.87 42.566 0.044 6.7 2.12 12.33
12/13/2020 6:00:00 AM 5.86 42.548 0.044 6.69 2.22 12.34
12/13/2020 6:15:00 AM 5.84 42.512 0.044 6.69 2.15 12.35
12/13/2020 6:30:00 AM 5.82 42.476 0.044 6.69 2.14 12.35
12/13/2020 6:45:00 AM 5.8 42.44 0.044 6.68 2.16 12.36
12/13/2020 7:00:00 AM 5.79 42.422 0.044 6.68 2.2 12.37
12/13/2020 7:15:00 AM 5.78 42.404 0.044 6.69 2.47 12.37
12/13/2020 7:30:00 AM 5.77 42.386 0.044 6.71 2.73 12.39
12/13/2020 7:45:00 AM 5.76 42.368 0.044 6.7 2.29 12.41
12/13/2020 8:00:00 AM 5.75 42.35 0.044 6.65 2.37 12.42
12/13/2020 8:15:00 AM 5.74 42.332 0.044 6.69 2.3 12.43
12/13/2020 8:30:00 AM 5.73 42.314 0.044 6.71 2.18 12.44
12/13/2020 8:45:00 AM 5.73 42.314 0.044 6.7 2.28 12.47
12/13/2020 9:00:00 AM 5.73 42.314 0.044 6.71 2.08 12.49
12/13/2020 9:15:00 AM 5.73 42.314 0.044 6.71 2.03 12.55
12/13/2020 9:30:00 AM 5.76 42.368 0.044 6.73 2.08 12.61
12/13/2020 9:45:00 AM 5.76 42.368 0.044 6.75 2.1 12.65
12/13/2020 10:00:00 AM 5.79 42.422 0.044 6.76 1.96 12.69
12/13/2020 10:15:00 AM 5.82 42.476 0.044 6.79 1.89 12.73
12/13/2020 10:30:00 AM 5.85 42.53 0.044 6.79 1.98 12.76
12/13/2020 10:45:00 AM 5.84 42.512 0.044 6.79 2.01 12.74
12/13/2020 11:00:00 AM 5.86 42.548 0.044 6.77 2.1 12.75
12/13/2020 11:15:00 AM 5.89 42.602 0.044 6.79 2.15 12.76
12/13/2020 11:30:00 AM 5.93 42.674 0.043 6.82 1.95 12.79
12/13/2020 11:45:00 AM 5.98 42.764 0.043 6.82 1.92 12.8
12/13/2020 12:00:00 PM 5.99 42.782 0.043 6.84 1.87 12.82
12/13/2020 12:15:00 PM 6 42.8 0.043 6.84 1.85 12.8
12/13/2020 12:30:00 PM 6.04 42.872 0.043 6.85 1.91 12.8
12/13/2020 12:45:00 PM 6.06 42.908 0.043 6.85 1.9 12.8
12/13/2020 1:00:00 PM 6.1 42.98 0.043 6.87 2.01 12.8
12/13/2020 1:15:00 PM 6.14 43.052 0.043 6.88 1.92 12.79
12/13/2020 1:30:00 PM 6.15 43.07 0.043 6.88 1.91 12.79
12/13/2020 1:45:00 PM 6.15 43.07 0.043 6.87 1.89 12.79
12/13/2020 2:00:00 PM 6.15 43.07 0.043 6.86 1.87 12.76
12/13/2020 2:15:00 PM 6.14 43.052 0.043 6.85 1.86 12.72
12/13/2020 2:30:00 PM 6.14 43.052 0.043 6.85 1.9 12.72
12/13/2020 2:45:00 PM 6.15 43.07 0.043 6.85 1.79 12.73
12/13/2020 3:00:00 PM 6.13 43.034 0.043 6.85 1.92 12.72
12/13/2020 3:15:00 PM 6.12 43.016 0.043 6.84 1.95 12.7
12/13/2020 3:30:00 PM 6.11 42.998 0.043 6.85 1.83 12.71
12/13/2020 3:45:00 PM 6.06 42.908 0.043 6.83 1.92 12.68
12/13/2020 4:00:00 PM 6.04 42.872 0.043 6.82 1.98 12.67
12/13/2020 4:15:00 PM 6.01 42.818 0.044 6.78 2 12.64
12/13/2020 4:30:00 PM 5.97 42.746 0.044 6.79 1.85 12.58
12/13/2020 4:45:00 PM 5.94 42.692 0.044 6.77 1.92 12.55
12/13/2020 5:00:00 PM 5.89 42.602 0.044 6.74 2.53 12.53
12/13/2020 5:15:00 PM 5.83 42.494 0.044 6.75 1.94 12.51
12/13/2020 5:30:00 PM 5.79 42.422 0.044 6.73 1.97 12.51
12/13/2020 5:45:00 PM 5.76 42.368 0.044 6.72 2.17 12.5
12/13/2020 6:00:00 PM 5.72 42.296 0.044 6.72 2.01 12.49
12/13/2020 6:15:00 PM 5.69 42.242 0.044 6.71 1.9 12.48
12/13/2020 6:30:00 PM 5.65 42.17 0.044 6.66 2.03 12.5
12/13/2020 6:45:00 PM 5.61 42.098 0.044 6.69 1.93 12.5
12/13/2020 7:00:00 PM 5.58 42.044 0.044 6.67 1.96 12.52
12/13/2020 7:15:00 PM 5.54 41.972 0.044 6.68 1.99 12.52
12/13/2020 7:30:00 PM 5.51 41.918 0.044 6.69 1.94 12.53
12/13/2020 7:45:00 PM 5.49 41.882 0.044 6.69 2.06 12.53
12/13/2020 8:00:00 PM 5.45 41.81 0.044 6.69 2.13 12.55
12/13/2020 8:15:00 PM 5.42 41.756 0.045 6.68 1.93 12.56
12/13/2020 8:30:00 PM 5.39 41.702 0.045 6.7 2.26 12.57
12/13/2020 8:45:00 PM 5.36 41.648 0.045 6.69 1.88 12.57
12/13/2020 9:00:00 PM 5.34 41.612 0.045 6.68 1.97 12.58
12/13/2020 9:15:00 PM 5.31 41.558 0.045 6.7 1.93 12.59
12/13/2020 9:30:00 PM 5.29 41.522 0.045 6.67 2.03 12.6
12/13/2020 9:45:00 PM 5.26 41.468 0.045 6.66 1.92 12.6
12/13/2020 10:00:00 PM 5.23 41.414 0.045 6.69 1.91 12.61
12/13/2020 10:15:00 PM 5.2 41.36 0.045 6.69 1.99 12.62
12/13/2020 10:30:00 PM 5.17 41.306 0.045 6.69 1.99 12.62
12/13/2020 10:45:00 PM 5.15 41.27 0.045 6.69 1.92 12.64
12/13/2020 11:00:00 PM 5.13 41.234 0.045 6.67 2.06 12.65
12/13/2020 11:15:00 PM 5.11 41.198 0.045 6.68 2.13 12.65
12/13/2020 11:30:00 PM 5.09 41.162 0.045 6.69 1.85 12.65
12/13/2020 11:45:00 PM 5.07 41.126 0.045 6.69 1.91 12.66
12/14/2020 12:00:00 AM 5.04 41.072 0.045 6.68 1.89 12.67
12/14/2020 12:15:00 AM 5.02 41.036 0.045 6.68 1.91 12.68
12/14/2020 12:30:00 AM 4.99 40.982 0.045 6.63 1.84 12.68
12/14/2020 12:45:00 AM 4.98 40.964 0.045 6.67 1.92 12.68
12/14/2020 1:00:00 AM 4.95 40.91 0.045 6.66 2.11 12.69
12/14/2020 1:15:00 AM 4.93 40.874 0.045 6.7 2.18 12.7
12/14/2020 1:30:00 AM 4.91 40.838 0.045 6.69 2.24 12.7
12/14/2020 1:45:00 AM 4.89 40.802 0.045 6.65 1.98 12.71
12/14/2020 2:00:00 AM 4.87 40.766 0.045 6.67 1.92 12.71
12/14/2020 2:15:00 AM 4.85 40.73 0.045 6.67 1.92 12.71
12/14/2020 2:30:00 AM 4.83 40.694 0.045 6.67 2.12 12.72
12/14/2020 2:45:00 AM 4.81 40.658 0.045 6.7 2.07 12.73
12/14/2020 3:00:00 AM 4.79 40.622 0.045 6.67 1.99 12.72
12/14/2020 3:15:00 AM 4.77 40.586 0.045 6.7 1.88 12.73
12/14/2020 3:30:00 AM 4.76 40.568 0.045 6.7 1.92 12.74
12/14/2020 3:45:00 AM 4.74 40.532 0.045 6.64 1.95 12.74
12/14/2020 4:00:00 AM 4.71 40.478 0.045 6.67 1.91 12.75
12/14/2020 4:15:00 AM 4.69 40.442 0.045 6.7 2.36 12.75
12/14/2020 4:30:00 AM 4.66 40.388 0.045 6.7 1.97 12.76
12/14/2020 4:45:00 AM 4.63 40.334 0.045 6.69 1.92 12.77
12/14/2020 5:00:00 AM 4.6 40.28 0.045 6.66 2.04 12.78
12/14/2020 5:15:00 AM 4.56 40.208 0.045 6.7 2.29 12.79
12/14/2020 5:30:00 AM 4.52 40.136 0.045 6.69 2.08 12.8
12/14/2020 5:45:00 AM 4.47 40.046 0.045 6.69 1.97 12.8
12/14/2020 6:00:00 AM 4.44 39.992 0.045 6.66 1.92 12.81
12/14/2020 6:15:00 AM 4.41 39.938 0.045 6.69 1.89 12.83
12/14/2020 6:30:00 AM 4.4 39.92 0.045 6.69 2.05 12.84
12/14/2020 6:45:00 AM 4.37 39.866 0.045 6.66 2.04 12.85
12/14/2020 7:00:00 AM 4.33 39.794 0.045 6.68 1.92 12.86
12/14/2020 7:15:00 AM 4.31 39.758 0.045 6.69 1.8 12.87
12/14/2020 7:30:00 AM 4.28 39.704 0.045 6.67 1.89 12.88
12/14/2020 7:45:00 AM 4.24 39.632 0.045 6.69 1.94 12.89
12/14/2020 8:00:00 AM 4.2 39.56 0.045 6.69 1.95 12.9
12/14/2020 8:15:00 AM 4.16 39.488 0.045 6.7 2.02 12.92
12/14/2020 8:30:00 AM 4.16 39.488 0.045 6.71 2 12.97
12/14/2020 8:45:00 AM 4.16 39.488 0.045 6.66 1.99 13
12/14/2020 9:00:00 AM 4.16 39.488 0.045 6.72 1.83 13.04
12/14/2020 9:15:00 AM 4.17 39.506 0.045 6.68 1.76 13.06
12/14/2020 9:30:00 AM 4.18 39.524 0.045 6.76 2.05 13.11
12/14/2020 9:45:00 AM 4.19 39.542 0.045 6.75 1.79 13.15
12/14/2020 10:00:00 AM 4.19 39.542 0.045 6.75 1.81 13.17
12/14/2020 10:15:00 AM 4.2 39.56 0.044 6.77 1.78 13.18
12/14/2020 10:30:00 AM 4.21 39.578 0.044 6.75 1.78 13.19
12/14/2020 10:45:00 AM 4.24 39.632 0.044 6.76 1.88 13.2
12/14/2020 11:00:00 AM 4.26 39.668 0.044 6.79 1.79 13.24
12/14/2020 11:15:00 AM 4.26 39.668 0.044 6.81 1.74 13.23
12/14/2020 11:30:00 AM 4.29 39.722 0.044 6.8 1.77 13.25
12/14/2020 11:45:00 AM 4.31 39.758 0.044 6.79 1.71 13.26
12/14/2020 12:00:00 PM 4.32 39.776 0.044 6.81 1.76 13.25
12/14/2020 12:15:00 PM 4.34 39.812 0.044 6.81 1.75 13.27
12/14/2020 12:30:00 PM 4.38 39.884 0.044 6.83 1.75 13.28
12/14/2020 12:45:00 PM 4.44 39.992 0.044 6.87 1.77 13.29
12/14/2020 1:00:00 PM 4.46 40.028 0.044 6.84 1.8 13.29
12/14/2020 1:15:00 PM 4.48 40.064 0.044 6.85 1.77 13.28
12/14/2020 1:30:00 PM 4.49 40.082 0.044 6.86 1.81 13.24
12/14/2020 1:45:00 PM 4.5 40.1 0.044 6.85 1.74 13.22
12/14/2020 2:00:00 PM 4.52 40.136 0.044 6.81 1.78 13.21
12/14/2020 2:15:00 PM 4.55 40.19 0.044 6.83 1.8 13.2
12/14/2020 2:30:00 PM 4.55 40.19 0.044 6.86 1.82 13.2
12/14/2020 2:45:00 PM 4.56 40.208 0.044 6.84 1.77 13.2
12/14/2020 3:00:00 PM 4.54 40.172 0.044 6.8 1.75 13.16
12/14/2020 3:15:00 PM 4.53 40.154 0.044 6.82 1.83 13.18
12/14/2020 3:30:00 PM 4.5 40.1 0.044 6.81 2.01 13.14
12/14/2020 3:45:00 PM 4.48 40.064 0.044 6.82 1.8 13.08
12/14/2020 4:00:00 PM 4.46 40.028 0.044 6.81 1.72 13.06
12/14/2020 4:15:00 PM 4.44 39.992 0.044 6.79 1.81 13.02
12/14/2020 4:30:00 PM 4.39 39.902 0.044 6.74 1.9 12.99
12/14/2020 4:45:00 PM 4.34 39.812 0.044 6.75 3.73 12.98
12/14/2020 5:00:00 PM 4.29 39.722 0.044 6.76 1.79 12.98
12/14/2020 5:15:00 PM 4.26 39.668 0.044 6.75 1.8 12.97
12/14/2020 5:30:00 PM 4.22 39.596 0.044 6.7 1.85 12.97
12/14/2020 5:45:00 PM 4.18 39.524 0.045 6.71 1.99 12.98
12/14/2020 6:00:00 PM 4.14 39.452 0.045 6.73 1.84 12.98
12/14/2020 6:15:00 PM 4.1 39.38 0.045 6.66 1.92 12.98
12/14/2020 6:30:00 PM 4.05 39.29 0.045 6.72 1.88 12.99
12/14/2020 6:45:00 PM 4 39.2 0.045 6.72 1.85 13
12/14/2020 7:00:00 PM 3.94 39.092 0.045 6.71 1.93 13.03
12/14/2020 7:15:00 PM 3.9 39.02 0.045 6.71 2.22 13.04
12/14/2020 7:30:00 PM 3.85 38.93 0.045 6.71 1.92 13.06
12/14/2020 7:45:00 PM 3.81 38.858 0.045 6.71 1.91 13.07
12/14/2020 8:00:00 PM 3.76 38.768 0.045 6.7 1.78 13.1
12/14/2020 8:15:00 PM 3.69 38.642 0.045 6.69 1.89 13.12
12/14/2020 8:30:00 PM 3.6 38.48 0.045 6.66 1.89 13.14
12/14/2020 8:45:00 PM 3.53 38.354 0.045 6.71 2 13.17
12/14/2020 9:00:00 PM 3.48 38.264 0.045 6.7 1.89 13.19
12/14/2020 9:15:00 PM 3.44 38.192 0.045 6.7 1.91 13.21
12/14/2020 9:30:00 PM 3.37 38.066 0.045 6.64 1.86 13.23
12/14/2020 9:45:00 PM 3.32 37.976 0.045 6.67 1.96 13.26
12/14/2020 10:00:00 PM 3.27 37.886 0.045 6.7 1.93 13.29
12/14/2020 10:15:00 PM 3.22 37.796 0.045 6.65 1.85 13.31
12/14/2020 10:30:00 PM 3.19 37.742 0.045 6.69 1.86 13.32
12/14/2020 10:45:00 PM 3.14 37.652 0.045 6.7 1.85 13.34
12/14/2020 11:00:00 PM 3.09 37.562 0.045 6.7 2.04 13.36
12/14/2020 11:15:00 PM 3.05 37.49 0.045 6.64 1.97 13.38
12/14/2020 11:30:00 PM 3.01 37.418 0.045 6.67 1.85 13.39
12/14/2020 11:45:00 PM 2.98 37.364 0.045 6.7 1.8 13.41
12/15/2020 12:00:00 AM 2.95 37.31 0.045 6.7 1.99 13.42
12/15/2020 12:15:00 AM 2.91 37.238 0.045 6.71 1.85 13.43
12/15/2020 12:30:00 AM 2.89 37.202 0.045 6.65 1.88 13.44
12/15/2020 12:45:00 AM 2.86 37.148 0.045 6.72 2.16 13.46
12/15/2020 1:00:00 AM 2.83 37.094 0.045 6.68 1.77 13.47
12/15/2020 1:15:00 AM 2.8 37.04 0.045 6.67 1.84 13.48
12/15/2020 1:30:00 AM 2.77 36.986 0.045 6.7 1.94 13.5
12/15/2020 1:45:00 AM 2.75 36.95 0.045 6.72 2.15 13.51
12/15/2020 2:00:00 AM 2.74 36.932 0.045 6.66 2.01 13.51
12/15/2020 2:15:00 AM 2.74 36.932 0.045 6.71 1.94 13.52
12/15/2020 2:30:00 AM 2.73 36.914 0.045 6.72 1.92 13.53
12/15/2020 2:45:00 AM 2.72 36.896 0.045 6.65 1.86 13.54
12/15/2020 3:00:00 AM 2.69 36.842 0.045 6.69 1.91 13.55
12/15/2020 3:15:00 AM 2.68 36.824 0.045 6.69 1.85 13.56
12/15/2020 3:30:00 AM 2.66 36.788 0.045 6.72 1.99 13.57
12/15/2020 3:45:00 AM 2.64 36.752 0.045 6.71 2.04 13.57
12/15/2020 4:00:00 AM 2.62 36.716 0.045 6.68 1.8 13.59
12/15/2020 4:15:00 AM 2.6 36.68 0.045 6.71 1.85 13.59
12/15/2020 4:30:00 AM 2.58 36.644 0.045 6.71 1.9 13.6
12/15/2020 4:45:00 AM 2.57 36.626 0.045 6.71 1.95 13.61
12/15/2020 5:00:00 AM 2.55 36.59 0.045 6.72 1.98 13.62
12/15/2020 5:15:00 AM 2.54 36.572 0.045 6.71 1.9 13.63
12/15/2020 5:30:00 AM 2.51 36.518 0.045 6.72 1.92 13.64
12/15/2020 5:45:00 AM 2.49 36.482 0.045 6.72 1.77 13.65
12/15/2020 6:00:00 AM 2.47 36.446 0.045 6.71 1.82 13.66
12/15/2020 6:15:00 AM 2.46 36.428 0.045 6.64 1.87 13.67
12/15/2020 6:30:00 AM 2.45 36.41 0.045 6.68 1.84 13.67
12/15/2020 6:45:00 AM 2.42 36.356 0.045 6.71 1.82 13.68
12/15/2020 7:00:00 AM 2.41 36.338 0.045 6.71 1.84 13.69
12/15/2020 7:15:00 AM 2.39 36.302 0.045 6.66 1.72 13.71
12/15/2020 7:30:00 AM 2.37 36.266 0.045 6.71 1.79 13.71
12/15/2020 7:45:00 AM 2.35 36.23 0.045 6.69 1.81 13.72
12/15/2020 8:00:00 AM 2.33 36.194 0.045 6.68 1.84 13.76
12/15/2020 8:15:00 AM 2.32 36.176 0.045 6.7 2.07 13.79
12/15/2020 8:30:00 AM 2.33 36.194 0.045 6.74 1.94 13.84
12/15/2020 8:45:00 AM 2.33 36.194 0.045 6.74 1.84 13.88
12/15/2020 9:00:00 AM 2.34 36.212 0.045 6.68 1.86 13.92
12/15/2020 9:15:00 AM 2.35 36.23 0.045 6.76 1.8 13.97
12/15/2020 9:30:00 AM 2.35 36.23 0.045 6.76 1.77 14.02
12/15/2020 9:45:00 AM 2.35 36.23 0.045 6.77 1.82 14.06
12/15/2020 10:00:00 AM 2.37 36.266 0.045 6.79 1.69 14.08
12/15/2020 10:15:00 AM 2.38 36.284 0.045 6.81 1.71 14.11
12/15/2020 10:30:00 AM 2.37 36.266 0.045 6.83 1.7 14.13
12/15/2020 10:45:00 AM 2.38 36.284 0.045 6.77 1.68 14.16
12/15/2020 11:00:00 AM 2.41 36.338 0.045 6.85 1.68 14.16
12/15/2020 11:15:00 AM 2.46 36.428 0.045 6.86 1.68 14.15
12/15/2020 11:30:00 AM 2.54 36.572 0.045 6.86 1.7 14.14
12/15/2020 11:45:00 AM 2.6 36.68 0.045 6.87 1.71 14.13
12/15/2020 12:00:00 PM 2.68 36.824 0.045 6.84 1.77 14.11
12/15/2020 12:15:00 PM 2.72 36.896 0.044 6.87 1.8 14.09
12/15/2020 12:30:00 PM 2.8 37.04 0.044 6.89 1.73 14.09
12/15/2020 12:45:00 PM 2.83 37.094 0.044 6.89 1.72 14.07
12/15/2020 1:00:00 PM 2.85 37.13 0.044 6.88 1.76 14.06
12/15/2020 1:15:00 PM 2.88 37.184 0.044 6.9 1.73 14.05
12/15/2020 1:30:00 PM 2.9 37.22 0.044 6.9 1.7 14.03
12/15/2020 1:45:00 PM 2.92 37.256 0.044 6.89 1.66 14.01
12/15/2020 2:00:00 PM 2.94 37.292 0.044 6.89 1.65 13.99
12/15/2020 2:15:00 PM 2.96 37.328 0.044 6.89 1.7 13.97
12/15/2020 2:30:00 PM 2.98 37.364 0.044 6.88 1.68 13.94
12/15/2020 2:45:00 PM 3 37.4 0.044 6.88 1.66 13.93
12/15/2020 3:00:00 PM 3.01 37.418 0.044 6.84 1.69 13.92
12/15/2020 3:15:00 PM 3 37.4 0.044 6.88 1.68 13.92
12/15/2020 3:30:00 PM 2.96 37.328 0.044 6.87 1.66 13.91
12/15/2020 3:45:00 PM 2.91 37.238 0.044 6.84 1.72 13.91
12/15/2020 4:00:00 PM 2.86 37.148 0.044 6.82 3.52 13.89
12/15/2020 4:15:00 PM 2.82 37.076 0.044 6.83 1.74 13.87
12/15/2020 4:30:00 PM 2.78 37.004 0.044 6.8 1.69 13.84
12/15/2020 4:45:00 PM 2.72 36.896 0.045 6.8 1.69 13.82
12/15/2020 5:00:00 PM 2.67 36.806 0.045 6.77 1.72 13.79
12/15/2020 5:15:00 PM 2.61 36.698 0.045 6.72 1.75 13.76
12/15/2020 5:30:00 PM 2.55 36.59 0.045 6.71 1.68 13.76
12/15/2020 5:45:00 PM 2.5 36.5 0.045 6.66 1.73 13.76
12/15/2020 6:00:00 PM 2.44 36.392 0.045 6.67 1.78 13.76
12/15/2020 6:15:00 PM 2.37 36.266 0.045 6.73 1.74 13.78
12/15/2020 6:30:00 PM 2.32 36.176 0.045 6.66 1.77 13.78
12/15/2020 6:45:00 PM 2.25 36.05 0.045 6.67 1.75 13.81
12/15/2020 7:00:00 PM 2.19 35.942 0.045 6.68 1.79 13.81
12/15/2020 7:15:00 PM 2.14 35.852 0.045 6.67 1.77 13.82
12/15/2020 7:30:00 PM 2.09 35.762 0.045 6.67 1.78 13.85
12/15/2020 7:45:00 PM 2.04 35.672 0.045 6.67 1.74 13.86
12/15/2020 8:00:00 PM 2 35.6 0.045 6.71 1.77 13.87
12/15/2020 8:15:00 PM 1.95 35.51 0.045 6.7 1.76 13.88
12/15/2020 8:30:00 PM 1.9 35.42 0.045 6.71 1.87 13.91
12/15/2020 8:45:00 PM 1.86 35.348 0.045 6.7 1.88 13.92
12/15/2020 9:00:00 PM 1.82 35.276 0.046 6.69 1.73 13.93
12/15/2020 9:15:00 PM 1.79 35.222 0.046 6.7 2.3 13.95
12/15/2020 9:30:00 PM 1.75 35.15 0.046 6.68 1.78 13.96
12/15/2020 9:45:00 PM 1.72 35.096 0.046 6.67 2.11 13.97
12/15/2020 10:00:00 PM 1.68 35.024 0.046 6.68 1.86 13.99
12/15/2020 10:15:00 PM 1.65 34.97 0.046 6.7 1.73 14
12/15/2020 10:30:00 PM 1.62 34.916 0.046 6.69 2.29 14.01
12/15/2020 10:45:00 PM 1.59 34.862 0.046 6.67 1.82 14.03
12/15/2020 11:00:00 PM 1.57 34.826 0.046 6.66 1.85 14.04
12/15/2020 11:15:00 PM 1.55 34.79 0.046 6.63 1.81 14.05
12/15/2020 11:30:00 PM 1.53 34.754 0.046 6.71 2.12 14.06
12/15/2020 11:45:00 PM 1.52 34.736 0.046 6.71 2.2 14.06
12/16/2020 12:00:00 AM 1.5 34.7 0.046 6.7 1.79 14.07
12/16/2020 12:15:00 AM 1.48 34.664 0.046 6.71 2.04 14.08
12/16/2020 12:30:00 AM 1.47 34.646 0.046 6.64 2.36 14.09
12/16/2020 12:45:00 AM 1.45 34.61 0.046 6.71 1.9 14.09
12/16/2020 1:00:00 AM 1.43 34.574 0.046 6.66 1.9 14.1
12/16/2020 1:15:00 AM 1.42 34.556 0.046 6.66 1.83 14.1
12/16/2020 1:30:00 AM 1.38 34.484 0.046 6.68 1.87 14.13
12/16/2020 1:45:00 AM 1.34 34.412 0.046 6.68 1.93 14.14
12/16/2020 2:00:00 AM 1.32 34.376 0.046 6.71 1.89 14.14
12/16/2020 2:15:00 AM 1.29 34.322 0.046 6.71 1.86 14.14
12/16/2020 2:30:00 AM 1.27 34.286 0.046 6.71 1.95 14.16
12/16/2020 2:45:00 AM 1.25 34.25 0.046 6.71 1.81 14.17
12/16/2020 3:00:00 AM 1.22 34.196 0.046 6.66 1.83 14.18
12/16/2020 3:15:00 AM 1.19 34.142 0.046 6.66 1.75 14.19
12/16/2020 3:30:00 AM 1.13 34.034 0.046 6.66 1.82 14.22
12/16/2020 3:45:00 AM 1.08 33.944 0.046 6.7 1.92 14.23
12/16/2020 4:00:00 AM 1.06 33.908 0.046 6.71 1.98 14.25
12/16/2020 4:15:00 AM 1.01 33.818 0.046 6.7 1.85 14.26
12/16/2020 4:30:00 AM 0.98 33.764 0.046 6.65 1.98 14.28
12/16/2020 4:45:00 AM 0.95 33.71 0.046 6.68 1.87 14.28
12/16/2020 5:00:00 AM 0.92 33.656 0.046 6.7 1.92 14.29
12/16/2020 5:15:00 AM 0.9 33.62 0.046 6.71 1.94 14.3
12/16/2020 5:30:00 AM 0.87 33.566 0.046 6.71 1.81 14.32
12/16/2020 5:45:00 AM 0.84 33.512 0.046 6.71 1.88 14.32
12/16/2020 6:00:00 AM 0.8 33.44 0.046 6.63 1.82 14.33
12/16/2020 6:15:00 AM 0.78 33.404 0.046 6.67 1.89 14.35
12/16/2020 6:30:00 AM 0.76 33.368 0.046 6.71 2.2 14.36
12/16/2020 6:45:00 AM 0.75 33.35 0.046 6.7 1.92 14.36
12/16/2020 7:00:00 AM 0.73 33.314 0.046 6.7 2.11 14.37
12/16/2020 7:15:00 AM 0.71 33.278 0.046 6.69 2.06 14.38
12/16/2020 7:30:00 AM 0.67 33.206 0.046 6.7 2.08 14.4
12/16/2020 7:45:00 AM 0.65 33.17 0.046 6.7 1.92 14.41
12/16/2020 8:00:00 AM 0.64 33.152 0.046 6.72 1.9 14.42
12/16/2020 8:15:00 AM 0.63 33.134 0.046 6.66 1.86 14.45
12/16/2020 8:30:00 AM 0.62 33.116 0.046 6.73 1.8 14.49
12/16/2020 8:45:00 AM 0.61 33.098 0.046 6.72 1.84 14.52
12/16/2020 9:00:00 AM 0.62 33.116 0.046 6.69 1.81 14.58
12/16/2020 9:15:00 AM 0.63 33.134 0.046 6.73 1.73 14.61
12/16/2020 9:30:00 AM 0.63 33.134 0.046 6.73 1.79 14.64
12/16/2020 9:45:00 AM 0.64 33.152 0.046 6.75 1.76 14.67
12/16/2020 10:00:00 AM 0.67 33.206 0.046 6.74 1.79 14.68
12/16/2020 10:15:00 AM 0.69 33.242 0.046 6.8 2.21 14.71
12/16/2020 10:30:00 AM 0.71 33.278 0.046 6.78 1.77 14.72
12/16/2020 10:45:00 AM 0.71 33.278 0.045 6.73 1.74 14.72
12/16/2020 11:00:00 AM 0.72 33.296 0.045 6.8 1.73 14.72
12/16/2020 11:15:00 AM 0.73 33.314 0.045 6.75 1.71 14.7
12/16/2020 11:30:00 AM 0.73 33.314 0.045 6.8 1.68 14.68
12/16/2020 11:45:00 AM 0.72 33.296 0.045 6.8 1.7 14.66
12/16/2020 12:00:00 PM 0.67 33.206 0.045 6.74 1.69 14.65
12/16/2020 12:15:00 PM 0.57 33.026 0.045 6.78 1.7 14.65
12/16/2020 12:30:00 PM 0.49 32.882 0.045 6.78 1.73 14.66
12/16/2020 12:45:00 PM 0.38 32.684 0.045 6.77 1.69 14.66
12/16/2020 1:00:00 PM 0.33 32.594 0.045 6.72 1.74 14.68
12/16/2020 1:15:00 PM 0.31 32.558 0.045 6.77 1.71 14.71
12/16/2020 1:30:00 PM 0.27 32.486 0.045 6.73 2.58 14.72
12/16/2020 1:45:00 PM 0.21 32.378 0.045 6.77 2.12 14.71
12/16/2020 2:00:00 PM 0.13 32.234 0.045 6.75 1.75 14.72
12/16/2020 2:15:00 PM 0.07 32.126 0.045 6.74 1.74 14.74
12/16/2020 2:30:00 PM 0.01 32.018 0.045 6.67 1.82 14.76
12/16/2020 2:45:00 PM 0 32 0.045 6.71 1.98 14.76
12/16/2020 3:00:00 PM 0 32 0.045 6.76 1.95 14.75
12/16/2020 3:15:00 PM 0.01 32.018 0.045 6.73 1.87 14.79
12/16/2020 3:30:00 PM 0.02 32.036 0.045 6.75 1.94 14.78
12/16/2020 3:45:00 PM 0.02 32.036 0.045 6.73 2.13 14.78
12/16/2020 4:00:00 PM 0.01 32.018 0.045 6.74 2.23 14.75
12/16/2020 4:15:00 PM 0.02 32.036 0.045 6.74 2.12 14.76
12/16/2020 4:30:00 PM 0.05 32.09 0.045 6.69 2.45 14.74
12/16/2020 4:45:00 PM 0.07 32.126 0.045 6.71 2.68 14.71
12/16/2020 5:00:00 PM 0.06 32.108 0.045 6.75 1.98 14.7
12/16/2020 5:15:00 PM 0.07 32.126 0.045 6.73 2 14.67
12/16/2020 5:30:00 PM 0.06 32.108 0.045 6.66 2.08 14.65
12/16/2020 5:45:00 PM 0.09 32.162 0.045 6.72 1.96 14.61
12/16/2020 6:00:00 PM 0.09 32.162 0.045 6.7 1.93 14.58
12/16/2020 6:15:00 PM 0.08 32.144 0.045 6.69 2.11 14.54
12/16/2020 6:30:00 PM 0.1 32.18 0.045 6.62 2.02 14.53
12/16/2020 6:45:00 PM 0 32 0.045 6.7 2.02 14.59
12/16/2020 7:00:00 PM -0.02 31.964 0.045 6.7 2.4 14.61
12/16/2020 7:15:00 PM -0.01 31.982 0.045 6.63 2.2 14.57
12/16/2020 7:30:00 PM -0.01 31.982 0.045 6.68 2.48 14.57
12/16/2020 7:45:00 PM -0.02 31.964 0.045 6.68 4.2 14.56
12/16/2020 8:00:00 PM -0.02 31.964 0.045 6.63 4.26 14.57
12/16/2020 8:15:00 PM -0.03 31.946 0.045 6.66 3.68 14.57
12/16/2020 8:30:00 PM -0.02 31.964 0.045 6.61 12.87 14.53
12/16/2020 8:45:00 PM -0.02 31.964 0.045 6.56 4.73 14.54
12/16/2020 9:00:00 PM -0.01 31.982 0.045 6.6 3.89 14.51
12/16/2020 9:15:00 PM -0.01 31.982 0.045 6.59 4.06 14.47
12/16/2020 9:30:00 PM -0.01 31.982 0.045 6.58 3.73 14.46
12/16/2020 9:45:00 PM 0 32 0.045 6.6 3.64 14.43
12/16/2020 10:00:00 PM 0 32 0.045 6.63 3.46 14.42
12/16/2020 10:15:00 PM -0.01 31.982 0.045 6.63 3.43 14.4
12/16/2020 10:30:00 PM -0.01 31.982 0.045 6.62 3.35 14.4
12/16/2020 10:45:00 PM -0.01 31.982 0.045 6.62 4.6 14.39
12/16/2020 11:00:00 PM -0.01 31.982 0.045 6.59 4.04 14.37
12/16/2020 11:15:00 PM -0.01 31.982 0.045 6.6 3.34 14.34
12/16/2020 11:30:00 PM -0.01 31.982 0.045 6.6 3.02 14.34
12/16/2020 11:45:00 PM -0.01 31.982 0.045 6.6 3.14 14.31
12/17/2020 12:00:00 AM -0.01 31.982 0.045 6.61 2.93 14.3
12/17/2020 12:15:00 AM 0 32 0.045 6.58 3.19 14.28
12/17/2020 12:30:00 AM 0.04 32.072 0.045 6.57 2.97 14.26
12/17/2020 12:45:00 AM 0.02 32.036 0.045 6.61 3.1 14.29
12/17/2020 1:00:00 AM 0.04 32.072 0.045 6.53 3.3 14.27
12/17/2020 1:15:00 AM 0.08 32.144 0.045 6.58 3.24 14.23
12/17/2020 1:30:00 AM 0.06 32.108 0.045 6.55 3.06 14.26
12/17/2020 1:45:00 AM 0.07 32.126 0.045 6.56 3.84 14.23
12/17/2020 2:00:00 AM 0.07 32.126 0.045 6.57 3.42 14.23
12/17/2020 2:15:00 AM 0.01 32.018 0.045 6.57 3.73 14.27
12/17/2020 2:30:00 AM 0.01 32.018 0.045 6.56 6.15 14.26
12/17/2020 2:45:00 AM 0.03 32.054 0.045 6.56 3.28 14.24
12/17/2020 3:00:00 AM 0.04 32.072 0.045 6.57 3.79 14.23
12/17/2020 3:15:00 AM -0.01 31.982 0.045 6.58 4.1 14.28
12/17/2020 3:30:00 AM -0.02 31.964 0.045 6.58 3.44 14.26
12/17/2020 3:45:00 AM -0.02 31.964 0.045 6.57 4.23 14.26
12/17/2020 4:00:00 AM -0.02 31.964 0.045 6.51 3.42 14.24
12/17/2020 4:15:00 AM -0.02 31.964 0.045 6.54 3.55 14.23
12/17/2020 4:30:00 AM -0.01 31.982 0.045 6.56 3.97 14.2
12/17/2020 4:45:00 AM 0 32 0.045 6.56 3.32 14.2
12/17/2020 5:00:00 AM 0 32 0.045 6.56 3.32 14.19
12/17/2020 5:15:00 AM 0.01 32.018 0.045 6.56 3.04 14.17
12/17/2020 5:30:00 AM 0.01 32.018 0.045 6.49 3.11 14.15
12/17/2020 5:45:00 AM 0.02 32.036 0.045 6.52 2.96 14.13
12/17/2020 6:00:00 AM 0.04 32.072 0.045 6.56 2.92 14.1
12/17/2020 6:15:00 AM 0.05 32.09 0.045 6.55 3.15 14.09
12/17/2020 6:30:00 AM 0.04 32.072 0.045 6.54 2.85 14.08
12/17/2020 6:45:00 AM 0.05 32.09 0.045 6.49 2.67 14.06
12/17/2020 7:00:00 AM 0.06 32.108 0.045 6.54 2.96 14.04
12/17/2020 7:15:00 AM 0.03 32.054 0.045 6.54 3.08 14.06
12/17/2020 7:30:00 AM 0.01 32.018 0.045 6.49 2.77 14.09
12/17/2020 7:45:00 AM 0.01 32.018 0.045 6.51 2.83 14.11
12/17/2020 8:00:00 AM 0.01 32.018 0.045 6.51 2.82 14.14
12/17/2020 8:15:00 AM 0.01 32.018 0.045 6.57 2.91 14.17
12/17/2020 8:30:00 AM 0 32 0.045 6.53 2.97 14.22
12/17/2020 8:45:00 AM 0 32 0.045 6.57 2.99 14.27
12/17/2020 9:00:00 AM 0 32 0.045 6.59 2.81 14.3
12/17/2020 9:15:00 AM 0 32 0.045 6.58 2.78 14.3
12/17/2020 9:30:00 AM -0.01 31.982 0.045 6.59 2.79 14.3
12/17/2020 9:45:00 AM 0 32 0.045 6.54 2.69 14.32
12/17/2020 10:00:00 AM 0 32 0.045 6.57 2.8 14.33
12/17/2020 10:15:00 AM 0 32 0.045 6.6 3.37 14.37
12/17/2020 10:30:00 AM 0 32 0.045 6.58 2.83 14.41
12/17/2020 10:45:00 AM 0.01 32.018 0.045 6.61 2.67 14.44
12/17/2020 11:00:00 AM 0.01 32.018 0.045 6.59 3.27 14.46
12/17/2020 11:15:00 AM 0 32 0.045 6.59 3.17 14.46
12/17/2020 11:30:00 AM 0 32 0.045 6.58 3.1 14.49
12/17/2020 11:45:00 AM 0 32 0.045 6.62 3.5 14.52
12/17/2020 12:00:00 PM 0 32 0.045 6.64 3.65 14.53
12/17/2020 12:15:00 PM 0 32 0.045 6.64 3.65 14.57
12/17/2020 12:30:00 PM 0 32 0.045 6.61 3.32 14.59
12/17/2020 12:45:00 PM 0 32 0.044 6.63 3.4 14.6
12/17/2020 1:00:00 PM 0 32 0.044 6.63 3.24 14.61
12/17/2020 1:15:00 PM 0 32 0.044 6.64 3.21 14.6
12/17/2020 1:30:00 PM 0 32 0.044 6.64 3.45 14.62
12/17/2020 1:45:00 PM 0 32 0.044 6.67 3.1 14.62
12/17/2020 2:00:00 PM -0.01 31.982 0.044 6.67 3.35 14.6
12/17/2020 2:15:00 PM -0.01 31.982 0.044 6.67 3.33 14.62
12/17/2020 2:30:00 PM -0.01 31.982 0.044 6.64 3.06 14.6
12/17/2020 2:45:00 PM -0.01 31.982 0.044 6.68 3.31 14.61
12/17/2020 3:00:00 PM -0.01 31.982 0.044 6.59 10.78 14.61
12/17/2020 3:15:00 PM -0.01 31.982 0.044 6.66 4.42 14.6
12/17/2020 3:30:00 PM -0.01 31.982 0.044 6.66 3.41 14.58
12/17/2020 3:45:00 PM -0.01 31.982 0.044 6.59 3.84 14.59
12/17/2020 4:00:00 PM -0.02 31.964 0.044 6.61 3.45 14.56
12/17/2020 4:15:00 PM -0.02 31.964 0.044 6.63 3.99 14.54
12/17/2020 4:30:00 PM -0.02 31.964 0.044 6.62 3.93 14.52
12/17/2020 4:45:00 PM -0.02 31.964 0.044 6.62 4.06 14.51
12/17/2020 5:00:00 PM -0.02 31.964 0.044 6.63 4.23 14.49
12/17/2020 5:15:00 PM -0.02 31.964 0.044 6.62 4.9 14.48
12/17/2020 5:30:00 PM -0.02 31.964 0.044 6.62 4.9 14.46
12/17/2020 5:45:00 PM -0.02 31.964 0.044 6.57 4.21 14.46
12/17/2020 6:00:00 PM -0.02 31.964 0.044 6.59 3.83 14.43
12/17/2020 6:15:00 PM -0.02 31.964 0.044 6.59 3.54 14.44
12/17/2020 6:30:00 PM -0.02 31.964 0.044 6.6 4.51 14.43
12/17/2020 6:45:00 PM -0.02 31.964 0.045 6.55 3.73 14.43
12/17/2020 7:00:00 PM -0.02 31.964 0.045 6.59 3.69 14.41
12/17/2020 7:15:00 PM -0.02 31.964 0.044 6.59 4.09 14.42
12/17/2020 7:30:00 PM -0.02 31.964 0.044 6.58 3.93 14.42
12/17/2020 7:45:00 PM -0.02 31.964 0.044 6.58 3.7 14.41
12/17/2020 8:00:00 PM -0.01 31.982 0.044 6.52 3.46 14.4
12/17/2020 8:15:00 PM -0.01 31.982 0.044 6.58 3.27 14.41
12/17/2020 8:30:00 PM -0.01 31.982 0.044 6.56 4 14.41
12/17/2020 8:45:00 PM -0.01 31.982 0.044 6.52 4.4 14.39
12/17/2020 9:00:00 PM 0 32 0.044 6.53 3.39 14.4
12/17/2020 9:15:00 PM 0 32 0.044 6.58 3.11 14.41
12/17/2020 9:30:00 PM 0 32 0.044 6.57 3.23 14.4
12/17/2020 9:45:00 PM 0 32 0.044 6.56 2.85 14.41
12/17/2020 10:00:00 PM 0 32 0.044 6.55 2.58 14.41
12/17/2020 10:15:00 PM 0 32 0.044 6.54 2.7 14.4
12/17/2020 10:30:00 PM 0 32 0.044 6.52 2.54 14.42
12/17/2020 10:45:00 PM 0 32 0.044 6.56 2.67 14.41
12/17/2020 11:00:00 PM 0 32 0.044 6.54 2.88 14.4
12/17/2020 11:15:00 PM 0 32 0.044 6.58 2.54 14.42
12/17/2020 11:30:00 PM 0.01 32.018 0.044 6.58 2.6 14.42
12/17/2020 11:45:00 PM 0.01 32.018 0.044 6.56 2.74 14.42
12/18/2020 12:00:00 AM 0.01 32.018 0.044 6.58 2.43 14.43
12/18/2020 12:15:00 AM 0.01 32.018 0.044 6.49 2.76 14.44
12/18/2020 12:30:00 AM 0.01 32.018 0.044 6.53 2.79 14.42
12/18/2020 12:45:00 AM 0.01 32.018 0.044 6.53 3.41 14.43
12/18/2020 1:00:00 AM 0.01 32.018 0.044 6.52 2.71 14.43
12/18/2020 1:15:00 AM 0.02 32.036 0.044 6.53 3.57 14.43
12/18/2020 1:30:00 AM 0.02 32.036 0.043 6.57 2.77 14.45
12/18/2020 1:45:00 AM 0.02 32.036 0.043 6.58 2.62 14.45
12/18/2020 2:00:00 AM 0.02 32.036 0.043 6.5 3.04 14.45
12/18/2020 2:15:00 AM 0.02 32.036 0.043 6.57 3 14.45
12/18/2020 2:30:00 AM 0.02 32.036 0.043 6.59 4.31 14.45
12/18/2020 2:45:00 AM 0.02 32.036 0.043 6.56 3.04 14.46
12/18/2020 3:00:00 AM 0.02 32.036 0.043 6.56 3.32 14.46
12/18/2020 3:15:00 AM 0.02 32.036 0.044 6.59 3.92 14.45
12/18/2020 3:30:00 AM 0.02 32.036 0.044 6.59 3.49 14.46
12/18/2020 3:45:00 AM 0.02 32.036 0.043 6.59 3.37 14.45
12/18/2020 4:00:00 AM 0.02 32.036 0.043 6.56 2.36 14.45
12/18/2020 4:15:00 AM 0.02 32.036 0.043 6.57 2.95 14.46
12/18/2020 4:30:00 AM 0.02 32.036 0.043 6.61 2.83 14.46
12/18/2020 4:45:00 AM 0.02 32.036 0.043 6.61 2.42 14.47
12/18/2020 5:00:00 AM 0.02 32.036 0.043 6.61 2.29 14.46
12/18/2020 5:15:00 AM 0.02 32.036 0.043 6.57 2.34 14.46
12/18/2020 5:30:00 AM 0.02 32.036 0.043 6.57 2.49 14.47
12/18/2020 5:45:00 AM 0.03 32.054 0.043 6.59 2.18 14.48
12/18/2020 6:00:00 AM 0.02 32.036 0.043 6.6 2.66 14.48
12/18/2020 6:15:00 AM 0.02 32.036 0.043 6.61 2.42 14.47
12/18/2020 6:30:00 AM 0.02 32.036 0.043 6.62 2.08 14.47
12/18/2020 6:45:00 AM 0.03 32.054 0.043 6.61 2.41 14.46
12/18/2020 7:00:00 AM 0.03 32.054 0.043 6.61 2.24 14.48
12/18/2020 7:15:00 AM 0.03 32.054 0.043 6.61 2.24 14.48
12/18/2020 7:30:00 AM 0.03 32.054 0.043 6.62 2.16 14.47
12/18/2020 7:45:00 AM 0.03 32.054 0.043 6.58 2.08 14.48
12/18/2020 8:00:00 AM 0.03 32.054 0.043 6.6 2.07 14.49
12/18/2020 8:15:00 AM 0.03 32.054 0.043 6.64 2.16 14.52
12/18/2020 8:30:00 AM 0.03 32.054 0.043 6.64 2.16 14.53
12/18/2020 8:45:00 AM 0.03 32.054 0.043 6.59 2.11 14.54
12/18/2020 9:00:00 AM 0.04 32.072 0.043 6.65 2.46 14.57
12/18/2020 9:15:00 AM 0.04 32.072 0.043 6.65 2.06 14.6
12/18/2020 9:30:00 AM 0.04 32.072 0.043 6.66 2.02 14.62
12/18/2020 9:45:00 AM 0.05 32.09 0.043 6.66 2.15 14.64
12/18/2020 10:00:00 AM 0.05 32.09 0.043 6.63 2.05 14.68
12/18/2020 10:15:00 AM 0.05 32.09 0.043 6.68 2.2 14.7
12/18/2020 10:30:00 AM 0.05 32.09 0.043 6.62 2.03 14.72
12/18/2020 10:45:00 AM 0.06 32.108 0.043 6.68 2.08 14.72
12/18/2020 11:00:00 AM 0.06 32.108 0.043 6.69 2.17 14.75
12/18/2020 11:15:00 AM 0.06 32.108 0.043 6.69 2.21 14.76
12/18/2020 11:30:00 AM 0.07 32.126 0.043 6.7 2.09 14.77
12/18/2020 11:45:00 AM 0.1 32.18 0.043 6.71 2.08 14.78
12/18/2020 12:00:00 PM 0.11 32.198 0.043 6.72 2.19 14.8
12/18/2020 12:15:00 PM 0.11 32.198 0.043 6.71 2.05 14.81
12/18/2020 12:30:00 PM 0.12 32.216 0.043 6.73 3.02 14.8
12/18/2020 12:45:00 PM 0.13 32.234 0.043 6.67 2.07 14.79
12/18/2020 1:00:00 PM 0.13 32.234 0.043 6.73 2.37 14.79
12/18/2020 1:15:00 PM 0.13 32.234 0.043 6.72 2.12 14.77
12/18/2020 1:30:00 PM 0.13 32.234 0.043 6.66 2.02 14.75
12/18/2020 1:45:00 PM 0.15 32.27 0.043 6.7 2.17 14.73
12/18/2020 2:00:00 PM 0.14 32.252 0.043 6.68 2.38 14.73
12/18/2020 2:15:00 PM 0.14 32.252 0.043 6.69 2.15 14.72
12/18/2020 2:30:00 PM 0.13 32.234 0.043 6.71 2.19 14.72
12/18/2020 2:45:00 PM 0.15 32.27 0.043 6.72 2.43 14.71
12/18/2020 3:00:00 PM 0.15 32.27 0.043 6.71 2.33 14.7
12/18/2020 3:15:00 PM 0.14 32.252 0.043 6.7 2.39 14.71
12/18/2020 3:30:00 PM 0.13 32.234 0.043 6.71 2.2 14.71
12/18/2020 3:45:00 PM 0.12 32.216 0.043 6.68 2.44 14.7
12/18/2020 4:00:00 PM 0.12 32.216 0.043 6.71 2.41 14.69
12/18/2020 4:15:00 PM 0.11 32.198 0.043 6.67 2.46 14.67
12/18/2020 4:30:00 PM 0.11 32.198 0.043 6.71 2.35 14.64
12/18/2020 4:45:00 PM 0.09 32.162 0.043 6.7 2.53 14.63
12/18/2020 5:00:00 PM 0.09 32.162 0.043 6.68 2.75 14.63
12/18/2020 5:15:00 PM 0.08 32.144 0.043 6.68 2.42 14.6
12/18/2020 5:30:00 PM 0.08 32.144 0.043 6.68 3.04 14.59
12/18/2020 5:45:00 PM 0.07 32.126 0.043 6.64 2.65 14.61
12/18/2020 6:00:00 PM 0.07 32.126 0.043 6.63 2.6 14.6
12/18/2020 6:15:00 PM 0.07 32.126 0.044 6.67 2.29 14.59
12/18/2020 6:30:00 PM 0.07 32.126 0.044 6.66 2.78 14.57
12/18/2020 6:45:00 PM 0.05 32.09 0.044 6.68 2.44 14.6
12/18/2020 7:00:00 PM 0.05 32.09 0.044 6.62 2.62 14.62
12/18/2020 7:15:00 PM 0.04 32.072 0.044 6.67 2.29 14.63
12/18/2020 7:30:00 PM 0.03 32.054 0.044 6.62 2.37 14.62
12/18/2020 7:45:00 PM 0.03 32.054 0.044 6.64 2.16 14.64
12/18/2020 8:00:00 PM 0.02 32.036 0.044 6.63 2.21 14.65
12/18/2020 8:15:00 PM 0.01 32.018 0.044 6.65 2.47 14.67
12/18/2020 8:30:00 PM 0 32 0.044 6.62 2.22 14.69
12/18/2020 8:45:00 PM 0 32 0.044 6.66 1.98 14.7
12/18/2020 9:00:00 PM 0.01 32.018 0.044 6.6 2.05 14.67
12/18/2020 9:15:00 PM 0.03 32.054 0.044 6.63 2.13 14.63
12/18/2020 9:30:00 PM 0.01 32.018 0.044 6.63 2.33 14.68
12/18/2020 9:45:00 PM 0.02 32.036 0.044 6.6 2.16 14.64
12/18/2020 10:00:00 PM 0.03 32.054 0.044 6.63 2.22 14.62
12/18/2020 10:15:00 PM 0.03 32.054 0.045 6.57 2.04 14.61
12/18/2020 10:30:00 PM 0.02 32.036 0.045 6.62 1.98 14.66
12/18/2020 10:45:00 PM 0.04 32.072 0.045 6.62 1.97 14.63
12/18/2020 11:00:00 PM 0.04 32.072 0.045 6.62 1.91 14.6
12/18/2020 11:15:00 PM 0.04 32.072 0.045 6.56 2.33 14.61
12/18/2020 11:30:00 PM 0.05 32.09 0.045 6.61 1.82 14.6
12/18/2020 11:45:00 PM 0.05 32.09 0.045 6.61 1.99 14.61
12/19/2020 12:00:00 AM 0.05 32.09 0.045 6.62 1.95 14.6
12/19/2020 12:15:00 AM 0.06 32.108 0.045 6.62 1.95 14.61
12/19/2020 12:30:00 AM 0.05 32.09 0.045 6.61 2.02 14.65
12/19/2020 12:45:00 AM 0.03 32.054 0.045 6.57 1.87 14.7
12/19/2020 1:00:00 AM 0.02 32.036 0.045 6.64 1.87 14.73
12/19/2020 1:15:00 AM 0.01 32.018 0.045 6.65 1.83 14.74
12/19/2020 1:30:00 AM 0 32 0.045 6.66 1.89 14.75
12/19/2020 1:45:00 AM 0 32 0.045 6.63 1.86 14.76
12/19/2020 2:00:00 AM -0.01 31.982 0.045 6.65 1.87 14.78
12/19/2020 2:15:00 AM -0.01 31.982 0.045 6.65 1.9 14.76
12/19/2020 2:30:00 AM -0.01 31.982 0.045 6.65 1.85 14.78
12/19/2020 2:45:00 AM -0.01 31.982 0.045 6.65 1.86 14.78
12/19/2020 3:00:00 AM -0.01 31.982 0.045 6.58 1.8 14.78
12/19/2020 3:15:00 AM -0.02 31.964 0.045 6.61 9.61 14.77
12/19/2020 3:30:00 AM -0.02 31.964 0.045 6.62 2.24 14.76
12/19/2020 3:45:00 AM -0.02 31.964 0.045 6.63 2.04 14.77
12/19/2020 4:00:00 AM -0.02 31.964 0.045 6.66 2.46 14.75
12/19/2020 4:15:00 AM -0.02 31.964 0.045 6.66 1.97 14.76
12/19/2020 4:30:00 AM -0.02 31.964 0.046 6.66 2.01 14.75
12/19/2020 4:45:00 AM -0.02 31.964 0.046 6.66 1.96 14.75
12/19/2020 5:00:00 AM -0.02 31.964 0.046 6.64 1.85 14.73
12/19/2020 5:15:00 AM -0.02 31.964 0.046 6.67 1.8 14.75
12/19/2020 5:30:00 AM -0.02 31.964 0.046 6.65 1.93 14.73
12/19/2020 5:45:00 AM -0.02 31.964 0.046 6.61 1.84 14.72
12/19/2020 6:00:00 AM -0.02 31.964 0.046 6.66 1.89 14.73
12/19/2020 6:15:00 AM -0.02 31.964 0.046 6.66 2.84 14.72
12/19/2020 6:30:00 AM -0.02 31.964 0.046 6.67 2.01 14.73
12/19/2020 6:45:00 AM -0.02 31.964 0.046 6.61 1.9 14.72
12/19/2020 7:00:00 AM -0.02 31.964 0.046 6.66 1.86 14.72
12/19/2020 7:15:00 AM -0.02 31.964 0.046 6.65 1.86 14.7
12/19/2020 7:30:00 AM -0.02 31.964 0.046 6.63 16.14 14.7
12/19/2020 7:45:00 AM -0.02 31.964 0.046 6.66 4.38 14.72
12/19/2020 8:00:00 AM -0.01 31.982 0.046 6.63 2.51 14.71
12/19/2020 8:15:00 AM -0.01 31.982 0.046 6.63 2.29 14.72
12/19/2020 8:30:00 AM -0.01 31.982 0.046 6.68 2.1 14.74
12/19/2020 8:45:00 AM -0.01 31.982 0.046 6.68 2.24 14.76
12/19/2020 9:00:00 AM 0 32 0.046 6.68 2.1 14.8
12/19/2020 9:15:00 AM 0 32 0.046 6.64 2.03 14.82
12/19/2020 9:30:00 AM 0.01 32.018 0.046 6.68 2.39 14.83
12/19/2020 9:45:00 AM 0.01 32.018 0.046 6.66 2.04 14.88
12/19/2020 10:00:00 AM 0.02 32.036 0.046 6.68 2.05 14.88
12/19/2020 10:15:00 AM 0.02 32.036 0.046 6.7 2.06 14.91
12/19/2020 10:30:00 AM 0.04 32.072 0.046 6.73 2.09 14.93
12/19/2020 10:45:00 AM 0.06 32.108 0.046 6.73 2.07 14.93
12/19/2020 11:00:00 AM 0.07 32.126 0.045 6.68 2.08 14.93
12/19/2020 11:15:00 AM 0.08 32.144 0.045 6.68 2.11 14.91
12/19/2020 11:30:00 AM 0.09 32.162 0.045 6.73 2.06 14.89
12/19/2020 11:45:00 AM 0.12 32.216 0.045 6.72 2.07 14.9
12/19/2020 12:00:00 PM 0.13 32.234 0.045 6.71 2.02 14.86
12/19/2020 12:15:00 PM 0.14 32.252 0.045 6.71 2.1 14.84
12/19/2020 12:30:00 PM 0.14 32.252 0.045 6.67 2.04 14.81
12/19/2020 12:45:00 PM 0.14 32.252 0.045 6.67 2.05 14.81
12/19/2020 1:00:00 PM 0.13 32.234 0.045 6.69 2.14 14.82
12/19/2020 1:15:00 PM 0.14 32.252 0.045 6.74 2.24 14.82
12/19/2020 1:30:00 PM 0.15 32.27 0.045 6.73 2.09 14.84
12/19/2020 1:45:00 PM 0.15 32.27 0.045 6.75 2.22 14.82
12/19/2020 2:00:00 PM 0.15 32.27 0.045 6.76 2.34 14.8
12/19/2020 2:15:00 PM 0.16 32.288 0.045 6.73 2.47 14.79
12/19/2020 2:30:00 PM 0.16 32.288 0.045 6.75 2.48 14.78
12/19/2020 2:45:00 PM 0.17 32.306 0.045 6.72 2.41 14.77
12/19/2020 3:00:00 PM 0.17 32.306 0.045 6.72 2.79 14.75
12/19/2020 3:15:00 PM 0.18 32.324 0.045 6.75 2.42 14.75
12/19/2020 3:30:00 PM 0.18 32.324 0.045 6.76 2.31 14.74
12/19/2020 3:45:00 PM 0.19 32.342 0.045 6.75 2.22 14.72
12/19/2020 4:00:00 PM 0.19 32.342 0.045 6.74 2.45 14.69
12/19/2020 4:15:00 PM 0.19 32.342 0.045 6.74 2.36 14.68
12/19/2020 4:30:00 PM 0.19 32.342 0.045 6.67 2.6 14.66
12/19/2020 4:45:00 PM 0.19 32.342 0.045 6.69 2.39 14.63
12/19/2020 5:00:00 PM 0.19 32.342 0.045 6.7 2.54 14.6
12/19/2020 5:15:00 PM 0.2 32.36 0.045 6.72 2.2 14.58
12/19/2020 5:30:00 PM 0.2 32.36 0.045 6.72 2.4 14.56
12/19/2020 5:45:00 PM 0.21 32.378 0.045 6.71 2.17 14.55
12/19/2020 6:00:00 PM 0.21 32.378 0.045 6.63 2.11 14.54
12/19/2020 6:15:00 PM 0.21 32.378 0.045 6.69 2.43 14.54
12/19/2020 6:30:00 PM 0.22 32.396 0.045 6.69 2.14 14.52
12/19/2020 6:45:00 PM 0.21 32.378 0.045 6.68 2.11 14.52
12/19/2020 7:00:00 PM 0.22 32.396 0.045 6.68 2.14 14.51
12/19/2020 7:15:00 PM 0.22 32.396 0.045 6.63 2.14 14.51
12/19/2020 7:30:00 PM 0.23 32.414 0.045 6.69 2.1 14.5
12/19/2020 7:45:00 PM 0.23 32.414 0.045 6.62 2.2 14.5
12/19/2020 8:00:00 PM 0.24 32.432 0.045 6.68 2.13 14.5
12/19/2020 8:15:00 PM 0.25 32.45 0.045 6.67 2.22 14.5
12/19/2020 8:30:00 PM 0.25 32.45 0.045 6.68 2.43 14.5
12/19/2020 8:45:00 PM 0.25 32.45 0.045 6.68 2.1 14.5
12/19/2020 9:00:00 PM 0.25 32.45 0.045 6.66 2.06 14.5
12/19/2020 9:15:00 PM 0.26 32.468 0.045 6.68 2.32 14.49
12/19/2020 9:30:00 PM 0.25 32.45 0.045 6.66 2.09 14.48
12/19/2020 9:45:00 PM 0.26 32.468 0.045 6.67 2.22 14.49
12/19/2020 10:00:00 PM 0.25 32.45 0.045 6.67 2.18 14.49
12/19/2020 10:15:00 PM 0.25 32.45 0.045 6.67 2.05 14.49
12/19/2020 10:30:00 PM 0.25 32.45 0.045 6.66 2.14 14.49
12/19/2020 10:45:00 PM 0.26 32.468 0.045 6.66 2.24 14.48
12/19/2020 11:00:00 PM 0.26 32.468 0.045 6.66 2.08 14.49
12/19/2020 11:15:00 PM 0.26 32.468 0.045 6.67 2.21 14.49
12/19/2020 11:30:00 PM 0.26 32.468 0.045 6.63 2.18 14.48
12/19/2020 11:45:00 PM 0.25 32.45 0.045 6.66 2.15 14.49
12/20/2020 12:00:00 AM 0.25 32.45 0.045 6.61 2.1 14.48
12/20/2020 12:15:00 AM 0.26 32.468 0.045 6.65 2.12 14.49
12/20/2020 12:30:00 AM 0.25 32.45 0.045 6.65 2.35 14.49
12/20/2020 12:45:00 AM 0.25 32.45 0.045 6.68 2 14.49
12/20/2020 1:00:00 AM 0.24 32.432 0.045 6.63 2.04 14.49
12/20/2020 1:15:00 AM 0.23 32.414 0.045 6.63 2.15 14.49
12/20/2020 1:30:00 AM 0.22 32.396 0.045 6.67 2.17 14.5
12/20/2020 1:45:00 AM 0.22 32.396 0.045 6.66 1.97 14.5
12/20/2020 2:00:00 AM 0.22 32.396 0.045 6.66 2.07 14.51
12/20/2020 2:15:00 AM 0.21 32.378 0.045 6.68 2.02 14.52
12/20/2020 2:30:00 AM 0.21 32.378 0.045 6.62 2 14.52
12/20/2020 2:45:00 AM 0.22 32.396 0.045 6.64 2.21 14.52
12/20/2020 3:00:00 AM 0.23 32.414 0.045 6.67 2.1 14.51
12/20/2020 3:15:00 AM 0.23 32.414 0.045 6.67 2.24 14.5
12/20/2020 3:30:00 AM 0.24 32.432 0.045 6.67 2.66 14.51
12/20/2020 3:45:00 AM 0.24 32.432 0.045 6.63 2.06 14.5
12/20/2020 4:00:00 AM 0.22 32.396 0.045 6.67 1.97 14.5
12/20/2020 4:15:00 AM 0.2 32.36 0.045 6.66 2.07 14.49
12/20/2020 4:30:00 AM 0.17 32.306 0.045 6.67 2.1 14.48
12/20/2020 4:45:00 AM 0.18 32.324 0.045 6.67 2.12 14.5
12/20/2020 5:00:00 AM 0.18 32.324 0.045 6.68 2.07 14.51
12/20/2020 5:15:00 AM 0.2 32.36 0.045 6.67 2.2 14.5
12/20/2020 5:30:00 AM 0.21 32.378 0.045 6.67 2.04 14.49
12/20/2020 5:45:00 AM 0.22 32.396 0.045 6.67 2.11 14.5
12/20/2020 6:00:00 AM 0.21 32.378 0.045 6.68 1.97 14.5
12/20/2020 6:15:00 AM 0.23 32.414 0.045 6.66 1.95 14.5
12/20/2020 6:30:00 AM 0.23 32.414 0.045 6.68 2.19 14.49
12/20/2020 6:45:00 AM 0.23 32.414 0.045 6.67 2.09 14.48
12/20/2020 7:00:00 AM 0.24 32.432 0.045 6.69 2.04 14.48
12/20/2020 7:15:00 AM 0.25 32.45 0.045 6.63 2 14.47
12/20/2020 7:30:00 AM 0.25 32.45 0.045 6.65 2.07 14.47
12/20/2020 7:45:00 AM 0.26 32.468 0.045 6.64 6.87 14.47
12/20/2020 8:00:00 AM 0.25 32.45 0.045 6.65 2.25 14.46
12/20/2020 8:15:00 AM 0.23 32.414 0.045 6.65 2.05 14.47
12/20/2020 8:30:00 AM 0.19 32.342 0.045 6.67 2.02 14.48
12/20/2020 8:45:00 AM 0.17 32.306 0.045 6.68 2.16 14.51
12/20/2020 9:00:00 AM 0.17 32.306 0.045 6.68 2.45 14.52
12/20/2020 9:15:00 AM 0.17 32.306 0.045 6.63 1.91 14.55
12/20/2020 9:30:00 AM 0.17 32.306 0.045 6.69 1.94 14.55
12/20/2020 9:45:00 AM 0.17 32.306 0.045 6.68 2.04 14.59
12/20/2020 10:00:00 AM 0.16 32.288 0.045 6.71 1.93 14.61
12/20/2020 10:15:00 AM 0.18 32.324 0.045 6.68 2.01 14.64
12/20/2020 10:30:00 AM 0.2 32.36 0.045 6.68 1.92 14.65
12/20/2020 10:45:00 AM 0.24 32.432 0.045 6.69 1.89 14.66
12/20/2020 11:00:00 AM 0.3 32.54 0.045 6.73 1.93 14.67
12/20/2020 11:15:00 AM 0.35 32.63 0.044 6.74 1.91 14.66
12/20/2020 11:30:00 AM 0.39 32.702 0.044 6.74 1.84 14.66
12/20/2020 11:45:00 AM 0.42 32.756 0.044 6.72 1.96 14.63
12/20/2020 12:00:00 PM 0.47 32.846 0.044 6.73 2.08 14.62
12/20/2020 12:15:00 PM 0.51 32.918 0.044 6.74 1.94 14.6
12/20/2020 12:30:00 PM 0.53 32.954 0.045 6.76 1.9 14.58
12/20/2020 12:45:00 PM 0.57 33.026 0.045 6.75 1.95 14.57
12/20/2020 1:00:00 PM 0.59 33.062 0.044 6.75 1.84 14.54
12/20/2020 1:15:00 PM 0.61 33.098 0.044 6.75 1.93 14.52
12/20/2020 1:30:00 PM 0.63 33.134 0.044 6.75 1.93 14.51
12/20/2020 1:45:00 PM 0.64 33.152 0.044 6.71 1.95 14.51
12/20/2020 2:00:00 PM 0.63 33.134 0.044 6.75 2.01 14.5
12/20/2020 2:15:00 PM 0.65 33.17 0.044 6.74 1.96 14.49
12/20/2020 2:30:00 PM 0.65 33.17 0.044 6.73 1.93 14.49
12/20/2020 2:45:00 PM 0.65 33.17 0.044 6.69 2.05 14.47
12/20/2020 3:00:00 PM 0.67 33.206 0.044 6.71 2 14.46
12/20/2020 3:15:00 PM 0.68 33.224 0.044 6.75 2.05 14.45
12/20/2020 3:30:00 PM 0.7 33.26 0.044 6.74 1.93 14.44
12/20/2020 3:45:00 PM 0.7 33.26 0.044 6.71 1.89 14.43
12/20/2020 4:00:00 PM 0.7 33.26 0.044 6.73 1.93 14.42
12/20/2020 4:15:00 PM 0.71 33.278 0.044 6.71 1.88 14.4
12/20/2020 4:30:00 PM 0.71 33.278 0.044 6.73 1.94 14.38
12/20/2020 4:45:00 PM 0.7 33.26 0.044 6.71 1.92 14.36
12/20/2020 5:00:00 PM 0.7 33.26 0.044 6.72 1.87 14.34
12/20/2020 5:15:00 PM 0.71 33.278 0.044 6.71 2.04 14.32
12/20/2020 5:30:00 PM 0.71 33.278 0.044 6.7 1.99 14.31
12/20/2020 5:45:00 PM 0.7 33.26 0.044 6.69 1.92 14.3
12/20/2020 6:00:00 PM 0.7 33.26 0.044 6.65 1.91 14.3
12/20/2020 6:15:00 PM 0.7 33.26 0.044 6.7 2.01 14.29
12/20/2020 6:30:00 PM 0.7 33.26 0.044 6.7 1.96 14.28
12/20/2020 6:45:00 PM 0.7 33.26 0.044 6.67 2.06 14.28
12/20/2020 7:00:00 PM 0.71 33.278 0.044 6.67 1.95 14.27
12/20/2020 7:15:00 PM 0.71 33.278 0.044 6.68 2.22 14.27
12/20/2020 7:30:00 PM 0.69 33.242 0.044 6.67 2.01 14.26
12/20/2020 7:45:00 PM 0.71 33.278 0.044 6.64 2.09 14.26
12/20/2020 8:00:00 PM 0.72 33.296 0.044 6.69 2.01 14.25
12/20/2020 8:15:00 PM 0.71 33.278 0.044 6.63 1.96 14.25
12/20/2020 8:30:00 PM 0.74 33.332 0.044 6.65 2.12 14.25
12/20/2020 8:45:00 PM 0.72 33.296 0.044 6.67 1.99 14.25
12/20/2020 9:00:00 PM 0.74 33.332 0.044 6.68 2.04 14.25
12/20/2020 9:15:00 PM 0.75 33.35 0.044 6.68 2.28 14.24
12/20/2020 9:30:00 PM 0.75 33.35 0.044 6.65 2.07 14.24
12/20/2020 9:45:00 PM 0.76 33.368 0.044 6.61 2.1 14.23
12/20/2020 10:00:00 PM 0.76 33.368 0.044 6.68 2.02 14.24
12/20/2020 10:15:00 PM 0.76 33.368 0.044 6.68 2.03 14.24
12/20/2020 10:30:00 PM 0.78 33.404 0.044 6.67 1.97 14.23
12/20/2020 10:45:00 PM 0.78 33.404 0.044 6.66 2.12 14.22
12/20/2020 11:00:00 PM 0.78 33.404 0.044 6.67 2.1 14.23
12/20/2020 11:15:00 PM 0.78 33.404 0.044 6.68 1.91 14.23
12/20/2020 11:30:00 PM 0.79 33.422 0.044 6.67 1.93 14.22
12/20/2020 11:45:00 PM 0.79 33.422 0.044 6.64 1.92 14.22
12/21/2020 12:00:00 AM 0.8 33.44 0.044 6.68 2.02 14.21
12/21/2020 12:15:00 AM 0.81 33.458 0.044 6.67 1.98 14.22
12/21/2020 12:30:00 AM 0.8 33.44 0.044 6.67 1.94 14.22
12/21/2020 12:45:00 AM 0.8 33.44 0.044 6.67 1.97 14.22
12/21/2020 1:00:00 AM 0.8 33.44 0.044 6.66 2.23 14.21
12/21/2020 1:15:00 AM 0.81 33.458 0.044 6.67 1.99 14.22
12/21/2020 1:30:00 AM 0.81 33.458 0.044 6.67 1.92 14.22
12/21/2020 1:45:00 AM 0.81 33.458 0.044 6.65 2.09 14.21
12/21/2020 2:00:00 AM 0.81 33.458 0.044 6.66 2.09 14.21
12/21/2020 2:15:00 AM 0.82 33.476 0.044 6.66 1.97 14.2
12/21/2020 2:30:00 AM 0.82 33.476 0.044 6.62 1.89 14.21
12/21/2020 2:45:00 AM 0.82 33.476 0.044 6.64 1.97 14.21
12/21/2020 3:00:00 AM 0.83 33.494 0.044 6.66 1.95 14.21
12/21/2020 3:15:00 AM 0.81 33.458 0.044 6.64 1.95 14.2
12/21/2020 3:30:00 AM 0.79 33.422 0.044 6.67 1.93 14.2
12/21/2020 3:45:00 AM 0.77 33.386 0.044 6.66 2.05 14.22
12/21/2020 4:00:00 AM 0.75 33.35 0.044 6.67 1.88 14.21
12/21/2020 4:15:00 AM 0.74 33.332 0.044 6.66 1.88 14.22
12/21/2020 4:30:00 AM 0.72 33.296 0.044 6.63 1.93 14.22
12/21/2020 4:45:00 AM 0.7 33.26 0.044 6.64 2.06 14.23
12/21/2020 5:00:00 AM 0.69 33.242 0.045 6.66 1.9 14.23
12/21/2020 5:15:00 AM 0.67 33.206 0.045 6.66 1.9 14.23
12/21/2020 5:30:00 AM 0.67 33.206 0.045 6.62 1.85 14.25
12/21/2020 5:45:00 AM 0.66 33.188 0.045 6.63 2.31 14.26
12/21/2020 6:00:00 AM 0.65 33.17 0.045 6.64 2.03 14.25
12/21/2020 6:15:00 AM 0.66 33.188 0.045 6.68 1.9 14.26
12/21/2020 6:30:00 AM 0.67 33.206 0.045 6.68 1.94 14.26
12/21/2020 6:45:00 AM 0.66 33.188 0.045 6.62 2.54 14.25
12/21/2020 7:00:00 AM 0.68 33.224 0.045 6.64 2 14.25
12/21/2020 7:15:00 AM 0.69 33.242 0.045 6.66 1.91 14.24
12/21/2020 7:30:00 AM 0.69 33.242 0.045 6.67 2.7 14.24
12/21/2020 7:45:00 AM 0.7 33.26 0.045 6.67 2.64 14.24
12/21/2020 8:00:00 AM 0.7 33.26 0.045 6.66 2.63 14.25
12/21/2020 8:15:00 AM 0.71 33.278 0.045 6.68 2.56 14.26
12/21/2020 8:30:00 AM 0.74 33.332 0.045 6.68 2.62 14.3
12/21/2020 8:45:00 AM 0.76 33.368 0.045 6.67 2.57 14.32
12/21/2020 9:00:00 AM 0.77 33.386 0.045 6.7 2.4 14.34
12/21/2020 9:15:00 AM 0.82 33.476 0.044 6.69 2.55 14.37
12/21/2020 9:30:00 AM 0.86 33.548 0.044 6.73 2.46 14.37
12/21/2020 9:45:00 AM 0.88 33.584 0.044 6.74 2.45 14.38
12/21/2020 10:00:00 AM 0.92 33.656 0.044 6.71 2.25 14.38
12/21/2020 10:15:00 AM 0.96 33.728 0.044 6.75 1.99 14.37
12/21/2020 10:30:00 AM 1 33.8 0.044 6.75 2.51 14.36
12/21/2020 10:45:00 AM 1.03 33.854 0.044 6.75 1.96 14.36
12/21/2020 11:00:00 AM 1.06 33.908 0.044 6.73 2.63 14.36
12/21/2020 11:15:00 AM 1.09 33.962 0.044 6.77 1.96 14.35
12/21/2020 11:30:00 AM 1.13 34.034 0.044 6.77 1.78 14.34
12/21/2020 11:45:00 AM 1.15 34.07 0.044 6.77 1.85 14.33
12/21/2020 12:00:00 PM 1.18 34.124 0.044 6.78 1.96 14.32
12/21/2020 12:15:00 PM 1.2 34.16 0.044 6.77 1.92 14.31
12/21/2020 12:30:00 PM 1.24 34.232 0.044 6.78 1.82 14.29
12/21/2020 12:45:00 PM 1.26 34.268 0.044 6.76 1.85 14.28
12/21/2020 1:00:00 PM 1.29 34.322 0.044 6.8 1.87 14.29
12/21/2020 1:15:00 PM 1.33 34.394 0.044 6.78 1.85 14.27
12/21/2020 1:30:00 PM 1.35 34.43 0.044 6.78 1.88 14.26
12/21/2020 1:45:00 PM 1.37 34.466 0.044 6.8 1.88 14.25
12/21/2020 2:00:00 PM 1.4 34.52 0.044 6.8 1.9 14.25
12/21/2020 2:15:00 PM 1.43 34.574 0.044 6.82 1.83 14.24
12/21/2020 2:30:00 PM 1.44 34.592 0.044 6.82 1.88 14.23
12/21/2020 2:45:00 PM 1.46 34.628 0.044 6.8 1.87 14.21
12/21/2020 3:00:00 PM 1.45 34.61 0.044 6.79 1.83 14.2
12/21/2020 3:15:00 PM 1.46 34.628 0.044 6.76 1.85 14.17
12/21/2020 3:30:00 PM 1.46 34.628 0.044 6.78 1.87 14.15
12/21/2020 3:45:00 PM 1.45 34.61 0.044 6.77 1.87 14.14
12/21/2020 4:00:00 PM 1.44 34.592 0.044 6.76 1.83 14.12
12/21/2020 4:15:00 PM 1.42 34.556 0.044 6.71 1.89 14.11
12/21/2020 4:30:00 PM 1.39 34.502 0.044 6.75 1.82 14.08
12/21/2020 4:45:00 PM 1.37 34.466 0.044 6.74 1.83 14.06
12/21/2020 5:00:00 PM 1.34 34.412 0.044 6.72 1.87 14.04
12/21/2020 5:15:00 PM 1.3 34.34 0.044 6.72 1.86 14.03
12/21/2020 5:30:00 PM 1.28 34.304 0.044 6.72 2.18 14.03
12/21/2020 5:45:00 PM 1.26 34.268 0.044 6.71 1.94 14.03
12/21/2020 6:00:00 PM 1.23 34.214 0.044 6.71 1.9 14.02
12/21/2020 6:15:00 PM 1.23 34.214 0.044 6.7 1.9 14.02
12/21/2020 6:30:00 PM 1.22 34.196 0.044 6.7 1.96 14.02
12/21/2020 6:45:00 PM 1.21 34.178 0.044 6.69 2.11 14.01
12/21/2020 7:00:00 PM 1.2 34.16 0.044 6.7 1.87 14.01
12/21/2020 7:15:00 PM 1.19 34.142 0.044 6.69 1.88 14.02
12/21/2020 7:30:00 PM 1.19 34.142 0.044 6.7 1.93 14
12/21/2020 7:45:00 PM 1.19 34.142 0.044 6.67 1.9 14
12/21/2020 8:00:00 PM 1.2 34.16 0.044 6.68 1.89 14.01
12/21/2020 8:15:00 PM 1.2 34.16 0.044 6.7 1.98 13.99
12/21/2020 8:30:00 PM 1.21 34.178 0.044 6.7 1.86 14
12/21/2020 8:45:00 PM 1.23 34.214 0.044 6.65 1.9 13.98
12/21/2020 9:00:00 PM 1.22 34.196 0.044 6.7 1.8 13.98
12/21/2020 9:15:00 PM 1.24 34.232 0.044 6.67 1.77 13.97
12/21/2020 9:30:00 PM 1.26 34.268 0.044 6.7 1.93 13.96
12/21/2020 9:45:00 PM 1.27 34.286 0.044 6.69 1.74 13.95
12/21/2020 10:00:00 PM 1.3 34.34 0.044 6.66 1.77 13.94
12/21/2020 10:15:00 PM 1.32 34.376 0.044 6.7 1.81 13.93
12/21/2020 10:30:00 PM 1.35 34.43 0.044 6.66 1.77 13.92
12/21/2020 10:45:00 PM 1.38 34.484 0.044 6.7 1.85 13.9
12/21/2020 11:00:00 PM 1.39 34.502 0.044 6.66 1.81 13.89
12/21/2020 11:15:00 PM 1.42 34.556 0.044 6.67 1.85 13.88
12/21/2020 11:30:00 PM 1.45 34.61 0.045 6.67 2.16 13.87
12/21/2020 11:45:00 PM 1.48 34.664 0.045 6.66 1.76 13.85
12/22/2020 12:00:00 AM 1.5 34.7 0.045 6.7 1.83 13.84
12/22/2020 12:15:00 AM 1.53 34.754 0.045 6.7 1.8 13.82
12/22/2020 12:30:00 AM 1.54 34.772 0.045 6.66 1.78 13.81
12/22/2020 12:45:00 AM 1.56 34.808 0.045 6.68 1.79 13.78
12/22/2020 1:00:00 AM 1.58 34.844 0.045 6.7 1.87 13.79
12/22/2020 1:15:00 AM 1.59 34.862 0.045 6.67 1.92 13.78
12/22/2020 1:30:00 AM 1.62 34.916 0.045 6.7 1.88 13.77
12/22/2020 1:45:00 AM 1.63 34.934 0.045 6.7 1.82 13.76
12/22/2020 2:00:00 AM 1.62 34.916 0.045 6.69 1.79 13.76
12/22/2020 2:15:00 AM 1.61 34.898 0.045 6.68 1.75 13.75
12/22/2020 2:30:00 AM 1.61 34.898 0.045 6.7 1.97 13.75
12/22/2020 2:45:00 AM 1.62 34.916 0.045 6.68 1.83 13.75
12/22/2020 3:00:00 AM 1.62 34.916 0.045 6.67 1.85 13.74
12/22/2020 3:15:00 AM 1.65 34.97 0.045 6.68 1.93 13.74
12/22/2020 3:30:00 AM 1.69 35.042 0.045 6.71 2.05 13.73
12/22/2020 3:45:00 AM 1.68 35.024 0.045 6.69 2.01 13.72
12/22/2020 4:00:00 AM 1.71 35.078 0.045 6.7 2.07 13.73
12/22/2020 4:15:00 AM 1.73 35.114 0.045 6.7 1.96 13.73
12/22/2020 4:30:00 AM 1.75 35.15 0.045 6.69 1.96 13.72
12/22/2020 4:45:00 AM 1.77 35.186 0.045 6.71 1.85 13.71
12/22/2020 5:00:00 AM 1.81 35.258 0.045 6.69 2.22 13.71
12/22/2020 5:15:00 AM 1.82 35.276 0.045 6.7 1.92 13.71
12/22/2020 5:30:00 AM 1.83 35.294 0.045 6.66 1.97 13.7
12/22/2020 5:45:00 AM 1.81 35.258 0.045 6.71 1.88 13.7
12/22/2020 6:00:00 AM 1.82 35.276 0.045 6.64 1.91 13.7
12/22/2020 6:15:00 AM 1.81 35.258 0.045 6.67 1.91 13.7
12/22/2020 6:30:00 AM 1.8 35.24 0.045 6.68 1.83 13.7
12/22/2020 6:45:00 AM 1.83 35.294 0.045 6.68 1.86 13.7
12/22/2020 7:00:00 AM 1.85 35.33 0.045 6.67 1.88 13.69
12/22/2020 7:15:00 AM 1.86 35.348 0.045 6.67 2.33 13.7
12/22/2020 7:30:00 AM 1.88 35.384 0.045 6.71 1.81 13.71
12/22/2020 7:45:00 AM 1.89 35.402 0.045 6.71 1.84 13.72
12/22/2020 8:00:00 AM 1.92 35.456 0.045 6.67 1.97 13.73
12/22/2020 8:15:00 AM 1.94 35.492 0.045 6.71 1.73 13.73
12/22/2020 8:30:00 AM 1.97 35.546 0.045 6.67 1.81 13.77
12/22/2020 8:45:00 AM 2 35.6 0.045 6.72 2.27 13.79
12/22/2020 9:00:00 AM 2.03 35.654 0.045 6.74 1.89 13.8
12/22/2020 9:15:00 AM 2.05 35.69 0.045 6.7 1.79 13.82
12/22/2020 9:30:00 AM 2.08 35.744 0.045 6.75 5.54 13.82
12/22/2020 9:45:00 AM 2.11 35.798 0.045 6.75 2.01 13.84
12/22/2020 10:00:00 AM 2.13 35.834 0.045 6.76 1.84 13.86
12/22/2020 10:15:00 AM 2.2 35.96 0.045 6.74 1.75 13.87
12/22/2020 10:30:00 AM 2.24 36.032 0.045 6.79 1.8 13.91
12/22/2020 10:45:00 AM 2.29 36.122 0.045 6.78 4.93 13.91
12/22/2020 11:00:00 AM 2.37 36.266 0.044 6.78 1.95 13.93
12/22/2020 11:15:00 AM 2.46 36.428 0.044 6.84 1.79 13.92
12/22/2020 11:30:00 AM 2.48 36.464 0.044 6.82 1.72 13.92
12/22/2020 11:45:00 AM 2.53 36.554 0.044 6.82 2.02 13.9
12/22/2020 12:00:00 PM 2.59 36.662 0.044 6.83 2.02 13.89
12/22/2020 12:15:00 PM 2.62 36.716 0.044 6.8 1.85 13.87
12/22/2020 12:30:00 PM 2.65 36.77 0.044 6.79 1.76 13.84
12/22/2020 12:45:00 PM 2.7 36.86 0.044 6.84 1.79 13.83
12/22/2020 1:00:00 PM 2.76 36.968 0.044 6.85 1.91 13.83
12/22/2020 1:15:00 PM 2.81 37.058 0.044 6.86 1.72 13.82
12/22/2020 1:30:00 PM 2.84 37.112 0.044 6.82 1.8 13.82
12/22/2020 1:45:00 PM 2.88 37.184 0.044 6.81 1.76 13.81
12/22/2020 2:00:00 PM 2.9 37.22 0.044 6.83 1.76 13.8
12/22/2020 2:15:00 PM 2.91 37.238 0.044 6.8 1.76 13.77
12/22/2020 2:30:00 PM 2.91 37.238 0.044 6.78 1.76 13.73
12/22/2020 2:45:00 PM 2.95 37.31 0.044 6.82 1.75 13.72
12/22/2020 3:00:00 PM 2.97 37.346 0.044 6.8 1.81 13.72
12/22/2020 3:15:00 PM 2.97 37.346 0.044 6.79 1.81 13.7
12/22/2020 3:30:00 PM 2.95 37.31 0.044 6.8 1.86 13.67
12/22/2020 3:45:00 PM 2.92 37.256 0.044 6.79 1.76 13.65
12/22/2020 4:00:00 PM 2.89 37.202 0.044 6.77 1.83 13.63
12/22/2020 4:15:00 PM 2.86 37.148 0.044 6.77 10.16 13.62
12/22/2020 4:30:00 PM 2.82 37.076 0.044 6.76 2.2 13.61
12/22/2020 4:45:00 PM 2.79 37.022 0.045 6.75 2.79 13.6
12/22/2020 5:00:00 PM 2.77 36.986 0.045 6.74 2.1 13.6
12/22/2020 5:15:00 PM 2.74 36.932 0.045 6.74 2.01 13.59
12/22/2020 5:30:00 PM 2.72 36.896 0.045 6.74 2.17 13.58
12/22/2020 5:45:00 PM 2.7 36.86 0.045 6.7 1.99 13.59
12/22/2020 6:00:00 PM 2.67 36.806 0.045 6.73 2.11 13.59
12/22/2020 6:15:00 PM 2.65 36.77 0.045 6.73 2.84 13.59
12/22/2020 6:30:00 PM 2.64 36.752 0.045 6.72 1.96 13.6
12/22/2020 6:45:00 PM 2.62 36.716 0.045 6.67 1.98 13.6
12/22/2020 7:00:00 PM 2.61 36.698 0.045 6.7 3.72 13.6
12/22/2020 7:15:00 PM 2.6 36.68 0.045 6.71 1.83 13.61
12/22/2020 7:30:00 PM 2.59 36.662 0.045 6.72 2.04 13.61
12/22/2020 7:45:00 PM 2.58 36.644 0.045 6.71 1.83 13.63
12/22/2020 8:00:00 PM 2.57 36.626 0.045 6.71 1.87 13.63
12/22/2020 8:15:00 PM 2.55 36.59 0.045 6.71 1.83 13.63
12/22/2020 8:30:00 PM 2.53 36.554 0.045 6.67 1.95 13.65
12/22/2020 8:45:00 PM 2.52 36.536 0.045 6.69 1.94 13.65
12/22/2020 9:00:00 PM 2.52 36.536 0.045 6.68 1.87 13.66
12/22/2020 9:15:00 PM 2.51 36.518 0.045 6.68 1.88 13.67
12/22/2020 9:30:00 PM 2.5 36.5 0.045 6.7 1.91 13.68
12/22/2020 9:45:00 PM 2.5 36.5 0.046 6.72 2 13.68
12/22/2020 10:00:00 PM 2.5 36.5 0.046 6.7 1.95 13.69
12/22/2020 10:15:00 PM 2.49 36.482 0.046 6.71 1.98 13.68
12/22/2020 10:30:00 PM 2.48 36.464 0.046 6.7 1.93 13.69
12/22/2020 10:45:00 PM 2.45 36.41 0.046 6.72 1.84 13.69
12/22/2020 11:00:00 PM 2.42 36.356 0.046 6.69 2.12 13.7
12/22/2020 11:15:00 PM 2.38 36.284 0.046 6.7 1.85 13.71
12/22/2020 11:30:00 PM 2.34 36.212 0.046 6.7 1.81 13.71
12/22/2020 11:45:00 PM 2.31 36.158 0.046 6.71 1.86 13.72
12/23/2020 12:00:00 AM 2.28 36.104 0.046 6.7 1.9 13.75
12/23/2020 12:15:00 AM 2.26 36.068 0.046 6.7 1.9 13.75
12/23/2020 12:30:00 AM 2.24 36.032 0.046 6.68 1.87 13.77
12/23/2020 12:45:00 AM 2.23 36.014 0.046 6.66 1.92 13.78
12/23/2020 1:00:00 AM 2.21 35.978 0.046 6.7 1.78 13.8
12/23/2020 1:15:00 AM 2.2 35.96 0.046 6.69 2.06 13.8
12/23/2020 1:30:00 AM 2.18 35.924 0.046 6.71 1.89 13.81
12/23/2020 1:45:00 AM 2.18 35.924 0.046 6.7 1.97 13.81
12/23/2020 2:00:00 AM 2.17 35.906 0.046 6.7 2.1 13.8
12/23/2020 2:15:00 AM 2.18 35.924 0.046 6.7 1.76 13.8
12/23/2020 2:30:00 AM 2.17 35.906 0.046 6.7 1.9 13.83
12/23/2020 2:45:00 AM 2.17 35.906 0.046 6.68 1.93 13.82
12/23/2020 3:00:00 AM 2.18 35.924 0.046 6.69 1.9 13.81
12/23/2020 3:15:00 AM 2.17 35.906 0.046 6.69 1.81 13.83
12/23/2020 3:30:00 AM 2.17 35.906 0.046 6.7 1.87 13.83
12/23/2020 3:45:00 AM 2.15 35.87 0.046 6.69 1.85 13.83
12/23/2020 4:00:00 AM 2.14 35.852 0.046 6.71 1.79 13.83
12/23/2020 4:15:00 AM 2.12 35.816 0.046 6.67 1.71 13.82
12/23/2020 4:30:00 AM 2.09 35.762 0.046 6.67 1.85 13.85
12/23/2020 4:45:00 AM 2.06 35.708 0.046 6.69 1.74 13.85
12/23/2020 5:00:00 AM 2.03 35.654 0.046 6.7 1.84 13.87
12/23/2020 5:15:00 AM 2 35.6 0.046 6.7 1.89 13.86
12/23/2020 5:30:00 AM 1.96 35.528 0.046 6.65 1.99 13.89
12/23/2020 5:45:00 AM 1.92 35.456 0.046 6.7 1.82 13.9
12/23/2020 6:00:00 AM 1.88 35.384 0.046 6.68 1.78 13.92
12/23/2020 6:15:00 AM 1.84 35.312 0.046 6.68 1.83 13.93
12/23/2020 6:30:00 AM 1.81 35.258 0.046 6.68 1.88 13.94
12/23/2020 6:45:00 AM 1.77 35.186 0.046 6.67 1.89 13.96
12/23/2020 7:00:00 AM 1.73 35.114 0.046 6.66 2.19 13.98
12/23/2020 7:15:00 AM 1.7 35.06 0.046 6.66 2.18 13.98
12/23/2020 7:30:00 AM 1.66 34.988 0.046 6.67 3.39 14
12/23/2020 7:45:00 AM 1.63 34.934 0.046 6.71 6.22 14.02
12/23/2020 8:00:00 AM 1.6 34.88 0.046 6.68 1.87 14.05
12/23/2020 8:15:00 AM 1.58 34.844 0.046 6.7 2.07 14.09
12/23/2020 8:30:00 AM 1.56 34.808 0.046 6.71 1.83 14.14
12/23/2020 8:45:00 AM 1.55 34.79 0.046 6.72 1.74 14.18
12/23/2020 9:00:00 AM 1.54 34.772 0.046 6.7 1.66 14.22
12/23/2020 9:15:00 AM 1.53 34.754 0.046 6.75 1.78 14.25
12/23/2020 9:30:00 AM 1.55 34.79 0.046 6.72 1.77 14.28
12/23/2020 9:45:00 AM 1.57 34.826 0.046 6.76 1.68 14.32
12/23/2020 10:00:00 AM 1.58 34.844 0.046 6.77 1.88 14.33
12/23/2020 10:15:00 AM 1.6 34.88 0.046 6.8 1.72 14.35
12/23/2020 10:30:00 AM 1.62 34.916 0.046 6.79 1.79 14.35
12/23/2020 10:45:00 AM 1.67 35.006 0.046 6.77 1.68 14.34
12/23/2020 11:00:00 AM 1.74 35.132 0.046 6.81 1.74 14.34
12/23/2020 11:15:00 AM 1.8 35.24 0.046 6.8 1.8 14.33
12/23/2020 11:30:00 AM 1.88 35.384 0.046 6.83 1.83 14.32
12/23/2020 11:45:00 AM 1.98 35.564 0.046 6.84 18.42 14.29
12/23/2020 12:00:00 PM 2.1 35.78 0.046 6.87 2.41 14.26
12/23/2020 12:15:00 PM 2.22 35.996 0.046 6.87 2.29 14.23
12/23/2020 12:30:00 PM 2.34 36.212 0.046 6.89 2.19 14.2
12/23/2020 12:45:00 PM 2.43 36.374 0.046 6.87 2.22 14.15
12/23/2020 1:00:00 PM 2.53 36.554 0.046 6.87 2.09 14.11
12/23/2020 1:15:00 PM 2.65 36.77 0.046 6.91 2.37 14.08
12/23/2020 1:30:00 PM 2.71 36.878 0.046 6.91 1.95 14.06
12/23/2020 1:45:00 PM 2.8 37.04 0.045 6.91 2.09 14.01
12/23/2020 2:00:00 PM 2.89 37.202 0.045 6.9 1.94 13.98
12/23/2020 2:15:00 PM 2.96 37.328 0.045 6.92 1.89 13.93
12/23/2020 2:30:00 PM 3.01 37.418 0.045 6.91 1.86 13.9
12/23/2020 2:45:00 PM 3.05 37.49 0.045 6.91 2.53 13.87
12/23/2020 3:00:00 PM 3.1 37.58 0.045 6.89 2.67 13.85
12/23/2020 3:15:00 PM 3.1 37.58 0.045 6.9 1.89 13.83
12/23/2020 3:30:00 PM 3.09 37.562 0.045 6.89 2.03 13.8
12/23/2020 3:45:00 PM 3.08 37.544 0.045 6.88 2.01 13.78
12/23/2020 4:00:00 PM 3.05 37.49 0.045 6.86 1.87 13.75
12/23/2020 4:15:00 PM 3.02 37.436 0.045 6.81 1.8 13.73
12/23/2020 4:30:00 PM 2.97 37.346 0.045 6.8 1.91 13.7
12/23/2020 4:45:00 PM 2.92 37.256 0.046 6.81 1.86 13.68
12/23/2020 5:00:00 PM 2.86 37.148 0.046 6.78 3.43 13.65
12/23/2020 5:15:00 PM 2.81 37.058 0.046 6.77 2.11 13.64
12/23/2020 5:30:00 PM 2.75 36.95 0.046 6.76 2.02 13.63
12/23/2020 5:45:00 PM 2.7 36.86 0.046 6.75 1.9 13.62
12/23/2020 6:00:00 PM 2.66 36.788 0.046 6.73 1.95 13.64
12/23/2020 6:15:00 PM 2.62 36.716 0.046 6.72 1.88 13.63
12/23/2020 6:30:00 PM 2.57 36.626 0.046 6.73 1.97 13.64
12/23/2020 6:45:00 PM 2.53 36.554 0.046 6.73 1.84 13.64
12/23/2020 7:00:00 PM 2.49 36.482 0.046 6.72 1.86 13.66
12/23/2020 7:15:00 PM 2.45 36.41 0.046 6.72 1.88 13.66
12/23/2020 7:30:00 PM 2.41 36.338 0.046 6.72 2.05 13.67
12/23/2020 7:45:00 PM 2.38 36.284 0.046 6.72 2.07 13.68
12/23/2020 8:00:00 PM 2.35 36.23 0.046 6.72 1.89 13.68
12/23/2020 8:15:00 PM 2.32 36.176 0.046 6.71 1.9 13.69
12/23/2020 8:30:00 PM 2.29 36.122 0.046 6.71 1.86 13.71
12/23/2020 8:45:00 PM 2.27 36.086 0.046 6.72 1.83 13.7
12/23/2020 9:00:00 PM 2.24 36.032 0.046 6.71 1.94 13.72
12/23/2020 9:15:00 PM 2.22 35.996 0.047 6.71 1.8 13.73
12/23/2020 9:30:00 PM 2.21 35.978 0.047 6.72 1.76 13.72
12/23/2020 9:45:00 PM 2.2 35.96 0.047 6.7 1.74 13.74
12/23/2020 10:00:00 PM 2.18 35.924 0.047 6.69 1.77 13.73
12/23/2020 10:15:00 PM 2.18 35.924 0.047 6.7 1.83 13.72
12/23/2020 10:30:00 PM 2.16 35.888 0.047 6.67 1.8 13.72
12/23/2020 10:45:00 PM 2.15 35.87 0.047 6.69 1.75 13.72
12/23/2020 11:00:00 PM 2.15 35.87 0.047 6.7 1.83 13.73
12/23/2020 11:15:00 PM 2.14 35.852 0.047 6.7 1.78 13.73
12/23/2020 11:30:00 PM 2.13 35.834 0.047 6.69 1.81 13.74
12/23/2020 11:45:00 PM 2.12 35.816 0.047 6.69 1.96 13.73
12/24/2020 12:00:00 AM 2.11 35.798 0.047 6.71 1.89 13.74
12/24/2020 12:15:00 AM 2.08 35.744 0.047 6.71 2.15 13.75
12/24/2020 12:30:00 AM 2.06 35.708 0.047 6.71 1.87 13.75
12/24/2020 12:45:00 AM 2.04 35.672 0.047 6.7 1.85 13.76
12/24/2020 1:00:00 AM 2.02 35.636 0.047 6.73 1.83 13.75
12/24/2020 1:15:00 AM 1.99 35.582 0.047 6.7 1.85 13.77
12/24/2020 1:30:00 AM 1.98 35.564 0.047 6.72 2.41 13.78
12/24/2020 1:45:00 AM 1.95 35.51 0.047 6.7 1.84 13.78
12/24/2020 2:00:00 AM 1.95 35.51 0.047 6.7 1.78 13.77
12/24/2020 2:15:00 AM 1.93 35.474 0.047 6.71 2.28 13.79
12/24/2020 2:30:00 AM 1.92 35.456 0.047 6.71 1.83 13.79
12/24/2020 2:45:00 AM 1.9 35.42 0.047 6.71 1.89 13.79
12/24/2020 3:00:00 AM 1.9 35.42 0.047 6.69 1.95 13.78
12/24/2020 3:15:00 AM 1.89 35.402 0.047 6.72 2.19 13.79
12/24/2020 3:30:00 AM 1.87 35.366 0.047 6.7 1.78 13.79
12/24/2020 3:45:00 AM 1.86 35.348 0.047 6.72 1.99 13.79
12/24/2020 4:00:00 AM 1.85 35.33 0.047 6.72 1.81 13.8
12/24/2020 4:15:00 AM 1.83 35.294 0.047 6.72 1.9 13.8
12/24/2020 4:30:00 AM 1.82 35.276 0.047 6.7 1.8 13.81
12/24/2020 4:45:00 AM 1.8 35.24 0.047 6.71 2.02 13.81
12/24/2020 5:00:00 AM 1.78 35.204 0.047 6.7 1.96 13.82
12/24/2020 5:15:00 AM 1.77 35.186 0.047 6.72 1.88 13.82
12/24/2020 5:30:00 AM 1.78 35.204 0.047 6.71 1.74 13.82
12/24/2020 5:45:00 AM 1.8 35.24 0.047 6.71 1.76 13.82
12/24/2020 6:00:00 AM 1.83 35.294 0.047 6.7 2.03 13.82
12/24/2020 6:15:00 AM 1.84 35.312 0.047 6.73 2.09 13.81
12/24/2020 6:30:00 AM 1.87 35.366 0.047 6.73 1.96 13.8
12/24/2020 6:45:00 AM 1.92 35.456 0.047 6.73 1.86 13.78
12/24/2020 7:00:00 AM 1.97 35.546 0.047 6.72 1.77 13.78
12/24/2020 7:15:00 AM 2.04 35.672 0.047 6.73 1.74 13.76
12/24/2020 7:30:00 AM 2.09 35.762 0.047 6.74 2.41 13.73
12/24/2020 7:45:00 AM 2.15 35.87 0.047 6.73 2.01 13.71
12/24/2020 8:00:00 AM 2.2 35.96 0.047 6.75 1.79 13.7
12/24/2020 8:15:00 AM 2.24 36.032 0.046 6.75 1.87 13.7
12/24/2020 8:30:00 AM 2.29 36.122 0.046 6.73 1.78 13.68
12/24/2020 8:45:00 AM 2.34 36.212 0.046 6.76 1.81 13.68
12/24/2020 9:00:00 AM 2.39 36.302 0.046 6.75 1.78 13.69
12/24/2020 9:15:00 AM 2.43 36.374 0.046 6.75 1.81 13.68
12/24/2020 9:30:00 AM 2.48 36.464 0.046 6.75 1.78 13.68
12/24/2020 9:45:00 AM 2.53 36.554 0.046 6.73 1.8 13.69
12/24/2020 10:00:00 AM 2.58 36.644 0.045 6.78 1.91 13.71
12/24/2020 10:15:00 AM 2.63 36.734 0.045 6.78 1.83 13.7
12/24/2020 10:30:00 AM 2.68 36.824 0.045 6.79 1.82 13.69
12/24/2020 10:45:00 AM 2.72 36.896 0.045 6.77 2.15 13.68
12/24/2020 11:00:00 AM 2.76 36.968 0.045 6.78 2.25 13.66
12/24/2020 11:15:00 AM 2.8 37.04 0.045 6.78 3.33 13.65
12/24/2020 11:30:00 AM 2.84 37.112 0.045 6.77 2.37 13.64
12/24/2020 11:45:00 AM 2.86 37.148 0.044 6.78 3.19 13.63
12/24/2020 12:00:00 PM 2.89 37.202 0.044 6.76 3.51 13.61
12/24/2020 12:15:00 PM 2.92 37.256 0.044 6.75 3.67 13.6
12/24/2020 12:30:00 PM 2.93 37.274 0.044 6.75 4.01 13.57
12/24/2020 12:45:00 PM 2.93 37.274 0.044 6.72 7.34 13.55
12/24/2020 1:00:00 PM 2.93 37.274 0.044 6.73 5.71 13.54
12/24/2020 1:15:00 PM 2.9 37.22 0.044 6.71 8.33 13.53
12/24/2020 1:30:00 PM 2.86 37.148 0.044 6.69 8.47 13.52
12/24/2020 1:45:00 PM 2.8 37.04 0.043 6.68 8.56 13.52
12/24/2020 2:00:00 PM 2.73 36.914 0.043 6.66 12.29 13.52
12/24/2020 2:15:00 PM 2.67 36.806 0.043 6.65 12.85 13.52
12/24/2020 2:30:00 PM 2.61 36.698 0.043 6.63 12.11 13.52
12/24/2020 2:45:00 PM 2.56 36.608 0.043 6.63 14.38 13.51
12/24/2020 3:00:00 PM 2.52 36.536 0.043 6.61 14.31 13.51
12/24/2020 3:15:00 PM 2.49 36.482 0.043 6.58 32.34 13.51
12/24/2020 3:30:00 PM 2.48 36.464 0.042 6.59 24.66 13.5
12/24/2020 3:45:00 PM 2.47 36.446 0.042 6.58 26.06 13.49
12/24/2020 4:00:00 PM 2.48 36.464 0.041 6.54 37.51 13.47
12/24/2020 4:15:00 PM 2.51 36.518 0.04 6.56 35.79 13.46
12/24/2020 4:30:00 PM 2.56 36.608 0.04 6.55 48.25 13.43
12/24/2020 4:45:00 PM 2.6 36.68 0.039 6.54 40.66 13.41
12/24/2020 5:00:00 PM 2.62 36.716 0.039 6.49 46.85 13.39
12/24/2020 5:15:00 PM 2.64 36.752 0.039 6.5 72.01 13.38
12/24/2020 5:30:00 PM 2.62 36.716 0.038 6.3 122.11 13.36
12/24/2020 5:45:00 PM 2.58 36.644 0.038 6.26 82.6 13.38
12/24/2020 6:00:00 PM 2.56 36.608 0.037 6.33 97.84 13.4
12/24/2020 6:15:00 PM 2.58 36.644 0.037 6.32 93.42 13.38
12/24/2020 6:30:00 PM 2.57 36.626 0.037 6.33 107.76 13.32
12/24/2020 6:45:00 PM 2.63 36.734 0.036 6.35 91.66 13.33
12/24/2020 7:00:00 PM 2.72 36.896 0.035 6.36 79.67 13.27
12/24/2020 7:15:00 PM 2.78 37.004 0.035 6.3 100.51 13.24
12/24/2020 7:30:00 PM 2.91 37.238 0.024 6.35 57.35 13.22
12/24/2020 7:45:00 PM 3.03 37.454 0.025 6.15 109.19 13.19
12/24/2020 8:00:00 PM 3.13 37.634 0.034 6.01 87.81 13.15
12/24/2020 8:15:00 PM 3.07 37.526 0.028 6.01 165.12 13.12
12/24/2020 8:30:00 PM 3.14 37.652 0.027 6.03 248.04 13.13
12/24/2020 8:45:00 PM 3.26 37.868 0.027 6.03 339.07 13.1
12/24/2020 9:00:00 PM 3.4 38.12 0.025 6.18 407.23 13.07
12/24/2020 9:15:00 PM 3.49 38.282 0.024 6.16 477.84 13.04
12/24/2020 9:30:00 PM 3.55 38.39 0.023 6.17 886.08 13.03
12/24/2020 9:45:00 PM 3.61 38.498 0.023 6.17 239.4 13.03
12/24/2020 10:00:00 PM 3.65 38.57 0.023 6.09 95.78 13.01
12/24/2020 10:15:00 PM 3.74 38.732 0.023 6.04 149.13 12.98
12/24/2020 10:30:00 PM 3.85 38.93 0.023 6.03 331.42 12.94
12/24/2020 10:45:00 PM 3.96 39.128 0.023 6.07 221.21 12.9
12/24/2020 11:00:00 PM 4.02 39.236 0.022 6.04 282.96 12.88
12/24/2020 11:15:00 PM 4.08 39.344 0.022 6.05 233.32 12.87
12/24/2020 11:30:00 PM 4.12 39.416 0.021 6.11 568.81 12.86
12/24/2020 11:45:00 PM 4.15 39.47 0.033 6.07 95.89 12.83
12/25/2020 12:00:00 AM 4.21 39.578 0.028 5.82 95.32 12.81
12/25/2020 12:15:00 AM 4.26 39.668 0.024 6.04 766.19 12.79
12/25/2020 12:30:00 AM 4.34 39.812 0.033 6.21 100.35 12.76
12/25/2020 12:45:00 AM 4.38 39.884 0.033 6.08 89.99 12.73
12/25/2020 1:00:00 AM 4.42 39.956 0.033 5.8 87 12.73
12/25/2020 1:15:00 AM 4.47 40.046 0.033 5.96 63.08 12.69
12/25/2020 1:30:00 AM 4.53 40.154 0.033 5.75 146.14 12.68
12/25/2020 1:45:00 AM 4.55 40.19 0.033 5.71 122.24 12.67
12/25/2020 2:00:00 AM 4.57 40.226 0.032 5.8 149.54 12.67
12/25/2020 2:15:00 AM 4.6 40.28 0.032 5.74 165.15 12.66
12/25/2020 2:30:00 AM 4.63 40.334 0.032 5.77 180.56 12.65
12/25/2020 2:45:00 AM 4.65 40.37 0.031 5.86 253.06 12.65
12/25/2020 3:00:00 AM 4.67 40.406 0.03 5.8 292.79 12.65
12/25/2020 3:15:00 AM 4.68 40.424 0.031 5.72 208.49 12.64
12/25/2020 3:30:00 AM 4.71 40.478 0.032 5.77 220.05 12.63
12/25/2020 3:45:00 AM 4.74 40.532 0.032 5.76 298.16 12.62
12/25/2020 4:00:00 AM 4.76 40.568 0.031 5.83 250.32 12.62
12/25/2020 4:15:00 AM 4.8 40.64 0.031 5.84 240.57 12.6
12/25/2020 4:30:00 AM 4.86 40.748 0.03 5.89 357.51 12.58
12/25/2020 4:45:00 AM 4.9 40.82 0.029 5.92 339.32 12.54
12/25/2020 5:00:00 AM 4.94 40.892 0.027 5.87 280.89 12.55
12/25/2020 5:15:00 AM 4.99 40.982 0.027 5.84 298.64 12.5
12/25/2020 5:30:00 AM 5.01 41.018 0.027 5.86 284.94 12.4
12/25/2020 5:45:00 AM 5.01 41.018 0.027 5.91 267.36 12.52
12/25/2020 6:00:00 AM 5.04 41.072 0.026 5.8 282.81 12.54
12/25/2020 6:15:00 AM 5.06 41.108 0.026 5.87 287.55 12.54
12/25/2020 6:30:00 AM 5.09 41.162 0.026 5.92 295.75 12.55
12/25/2020 6:45:00 AM 5.11 41.198 0.026 5.86 285.89 12.54
12/25/2020 7:00:00 AM 5.13 41.234 0.026 5.87 340.27 12.51
12/25/2020 7:15:00 AM 5.15 41.27 0.025 5.89 319.07 12.53
12/25/2020 7:30:00 AM 5.17 41.306 0.026 5.9 270.18 12.54
12/25/2020 7:45:00 AM 5.19 41.342 0.026 5.86 308.31 12.54
12/25/2020 8:00:00 AM 5.21 41.378 0.026 5.97 399.81 12.53
12/25/2020 8:15:00 AM 5.23 41.414 0.026 5.98 418.11 12.53
12/25/2020 8:30:00 AM 5.25 41.45 0.025 5.9 452.43 12.53
12/25/2020 8:45:00 AM 5.26 41.468 0.025 5.8 519.88 12.53
12/25/2020 9:00:00 AM 5.27 41.486 0.025 5.72 586.29 12.52
12/25/2020 9:15:00 AM 5.29 41.522 0.025 5.75 556.27 12.52
12/25/2020 9:30:00 AM 5.31 41.558 0.026 5.65 448.24 12.53
12/25/2020 9:45:00 AM 5.32 41.576 0.026 5.76 405.29 12.52
12/25/2020 10:00:00 AM 5.33 41.594 0.027 5.79 410.23 12.52
12/25/2020 10:15:00 AM 5.34 41.612 0.028 5.78 424.55 12.52
12/25/2020 10:30:00 AM 5.34 41.612 0.029 5.79 432.99 12.51
12/25/2020 10:45:00 AM 5.35 41.63 0.029 5.81 409.6 12.52
12/25/2020 11:00:00 AM 5.36 41.648 0.029 5.8 345.55 12.52
12/25/2020 11:15:00 AM 5.38 41.684 0.029 5.78 350.41 12.52
12/25/2020 11:30:00 AM 5.4 41.72 0.028 5.77 367.49 12.5
12/25/2020 11:45:00 AM 5.41 41.738 0.028 5.74 403.16 12.51
12/25/2020 12:00:00 PM 5.43 41.774 0.028 5.82 392.78 12.5
12/25/2020 12:15:00 PM 5.44 41.792 0.028 5.69 313.75 12.5
12/25/2020 12:30:00 PM 5.45 41.81 0.027 5.79 300.4 12.49
12/25/2020 12:45:00 PM 5.46 41.828 0.027 5.75 331.39 12.48
12/25/2020 1:00:00 PM 5.46 41.828 0.027 5.81 352.86 12.48
12/25/2020 1:15:00 PM 5.47 41.846 0.027 5.79 390.39 12.48
12/25/2020 1:30:00 PM 5.46 41.828 0.027 5.9 442.84 12.48
12/25/2020 1:45:00 PM 5.46 41.828 0.027 5.8 495.99 12.49
12/25/2020 2:00:00 PM 5.45 41.81 0.027 5.79 487.24 12.49
12/25/2020 2:15:00 PM 5.44 41.792 0.027 5.79 486.52 12.51
12/25/2020 2:30:00 PM 5.43 41.774 0.027 5.82 495.26 12.52
12/25/2020 2:45:00 PM 5.42 41.756 0.027 5.86 498.89 12.5
12/25/2020 3:00:00 PM 5.41 41.738 0.027 5.87 509.99 12.51
12/25/2020 3:15:00 PM 5.4 41.72 0.026 5.85 513.05 12.53
12/25/2020 3:30:00 PM 5.38 41.684 0.026 5.83 549.97 12.54
12/25/2020 3:45:00 PM 5.37 41.666 0.026 5.87 537.27 12.53
12/25/2020 4:00:00 PM 5.35 41.63 0.026 5.84 515.38 12.55
12/25/2020 4:15:00 PM 5.33 41.594 0.026 5.86 509.44 12.55
12/25/2020 4:30:00 PM 5.3 41.54 0.026 5.91 542.08 12.56
12/25/2020 4:45:00 PM 5.27 41.486 0.026 5.87 534.37 12.57
12/25/2020 5:00:00 PM 5.24 41.432 0.026 5.84 535.99 12.57
12/25/2020 5:15:00 PM 5.21 41.378 0.025 5.88 548.59 12.59
12/25/2020 5:30:00 PM 5.19 41.342 0.026 5.84 528.6 12.61
12/25/2020 5:45:00 PM 5.16 41.288 0.025 5.81 496.93 12.61
12/25/2020 6:00:00 PM 5.13 41.234 0.025 5.82 475.76 12.61
12/25/2020 6:15:00 PM 5.1 41.18 0.025 5.87 474.6 12.64
12/25/2020 6:30:00 PM 5.07 41.126 0.025 5.81 466.01 12.63
12/25/2020 6:45:00 PM 5.04 41.072 0.025 5.82 449.3 12.63
12/25/2020 7:00:00 PM 5 41 0.025 5.87 530.36 12.64
12/25/2020 7:15:00 PM 4.97 40.946 0.025 5.8 492.93 12.66
12/25/2020 7:30:00 PM 4.94 40.892 0.025 5.88 459.07 12.67
12/25/2020 7:45:00 PM 4.93 40.874 0.025 5.92 422.1 12.68
12/25/2020 8:00:00 PM 4.9 40.82 0.025 5.91 398.52 12.69
12/25/2020 8:15:00 PM 4.89 40.802 0.024 5.93 364.28 12.7
12/25/2020 8:30:00 PM 4.87 40.766 0.024 5.92 341.21 12.71
12/25/2020 8:45:00 PM 4.84 40.712 0.024 5.92 330.83 12.72
12/25/2020 9:00:00 PM 4.83 40.694 0.024 5.94 314.55 12.72
12/25/2020 9:15:00 PM 4.8 40.64 0.024 5.94 754.6 12.73
12/25/2020 9:30:00 PM 4.78 40.604 0.024 5.93 1942.87 12.74
12/25/2020 9:45:00 PM 4.75 40.55 0.024 5.97 138.59 12.75
12/25/2020 10:00:00 PM 4.72 40.496 0.024 5.97 110.93 12.76
12/25/2020 10:15:00 PM 4.7 40.46 0.023 5.91 99.28 12.77
12/25/2020 10:30:00 PM 4.68 40.424 0.023 5.95 95.25 12.78
12/25/2020 10:45:00 PM 4.65 40.37 0.023 5.97 94.06 12.79
12/25/2020 11:00:00 PM 4.62 40.316 0.023 5.98 85.27 12.8
12/25/2020 11:15:00 PM 4.6 40.28 0.023 5.98 91.02 12.81
12/25/2020 11:30:00 PM 4.58 40.244 0.023 5.98 96.31 12.82
12/25/2020 11:45:00 PM 4.56 40.208 0.023 5.91 90 12.82
12/26/2020 12:00:00 AM 4.53 40.154 0.023 5.96 115.47 12.83
12/26/2020 12:15:00 AM 4.51 40.118 0.023 5.99 110.89 12.84
12/26/2020 12:30:00 AM 4.48 40.064 0.022 6.03 94.51 12.84
12/26/2020 12:45:00 AM 4.47 40.046 0.022 6.01 91.01 12.86
12/26/2020 1:00:00 AM 4.44 39.992 0.022 5.99 90.11 12.86
12/26/2020 1:15:00 AM 4.41 39.938 0.022 5.94 83.4 12.87
12/26/2020 1:30:00 AM 4.38 39.884 0.022 5.89 116.01 12.88
12/26/2020 1:45:00 AM 4.35 39.83 0.022 5.9 104.97 12.89
12/26/2020 2:00:00 AM 4.32 39.776 0.022 5.94 122.58 12.9
12/26/2020 2:15:00 AM 4.28 39.704 0.022 5.93 69.95 12.91
12/26/2020 2:30:00 AM 4.26 39.668 0.022 5.93 96.52 12.92
12/26/2020 2:45:00 AM 4.24 39.632 0.022 5.88 70.25 12.93
12/26/2020 3:00:00 AM 4.23 39.614 0.022 5.96 71.33 12.93
12/26/2020 3:15:00 AM 4.22 39.596 0.021 5.96 59.28 12.94
12/26/2020 3:30:00 AM 4.21 39.578 0.021 5.95 58.94 12.94
12/26/2020 3:45:00 AM 4.2 39.56 0.021 5.89 53.75 12.95
12/26/2020 4:00:00 AM 4.19 39.542 0.021 5.96 42.33 12.96
12/26/2020 4:15:00 AM 4.18 39.524 0.021 5.91 26.07 12.96
12/26/2020 4:30:00 AM 4.16 39.488 0.021 5.97 15.18 12.96
12/26/2020 4:45:00 AM 4.15 39.47 0.02 5.98 18.93 12.97
12/26/2020 5:00:00 AM 4.14 39.452 0.029 6.22 29.15 12.97
12/26/2020 5:15:00 AM 4.12 39.416 0.028 6 59.08 12.97
12/26/2020 5:30:00 AM 4.11 39.398 0.027 6 22.84 12.98
12/26/2020 5:45:00 AM 4.09 39.362 0.03 6 63.43 12.99
12/26/2020 6:00:00 AM 4.07 39.326 0.023 6.01 1854.22 13
12/26/2020 6:15:00 AM 4.07 39.326 0.034 5.98 48.02 13.01
12/26/2020 6:30:00 AM 4.06 39.308 0.034 6.02 2715.65 13.01
12/26/2020 6:45:00 AM 4.05 39.29 0.031 5.96 40.74 13.01
12/26/2020 7:00:00 AM 4.04 39.272 0.032 6.02 3602.62 13.02
12/26/2020 7:15:00 AM 4.03 39.254 0.034 6.05 43.47 13.03
12/26/2020 7:30:00 AM 4.02 39.236 0.029 6.01 7.12 13.03
12/26/2020 7:45:00 AM 4.01 39.218 0.027 6.02 10.7 13.04
12/26/2020 8:00:00 AM 4 39.2 0.033 6.1 12.46 13.06
12/26/2020 8:15:00 AM 4 39.2 0.025 6.02 15.49 13.04
12/26/2020 8:30:00 AM 4.01 39.218 0.031 6.06 44.05 13.03
12/26/2020 8:45:00 AM 4.01 39.218 0.034 6.03 14.64 13.03
12/26/2020 9:00:00 AM 4.01 39.218 0.034 6.05 174.4 13.05
12/26/2020 9:15:00 AM 4.02 39.236 0.034 6.07 35.05 13.06
12/26/2020 9:30:00 AM 4.02 39.236 0.034 6.08 17.98 13.06
12/26/2020 9:45:00 AM 4.02 39.236 0.034 6.04 30.6 13.07
12/26/2020 10:00:00 AM 4.03 39.254 0.032 6.07 24.61 13.07
12/26/2020 10:15:00 AM 4.05 39.29 0.035 6.06 19.72 13.07
12/26/2020 10:30:00 AM 4.06 39.308 0.026 6.09 14.82 13.07
12/26/2020 10:45:00 AM 4.07 39.326 0.035 6.08 290.05 13.05
12/26/2020 11:00:00 AM 4.09 39.362 0.033 6.06 9.54 13.06
12/26/2020 11:15:00 AM 4.11 39.398 0.034 6.1 10.81 13.07
12/26/2020 11:30:00 AM 4.13 39.434 0.029 6.06 14.62 13.06
12/26/2020 11:45:00 AM 4.16 39.488 0.034 6.1 9.51 13.06
12/26/2020 12:00:00 PM 4.19 39.542 0.034 6.09 13.25 13.05
12/26/2020 12:15:00 PM 4.21 39.578 0.033 6.09 8.57 13.05
12/26/2020 12:30:00 PM 4.23 39.614 0.034 6.09 10.59 13.04
12/26/2020 12:45:00 PM 4.24 39.632 0.032 6.1 8.36 13.03
12/26/2020 1:00:00 PM 4.25 39.65 0.034 6.1 8.24 13.03
12/26/2020 1:15:00 PM 4.26 39.668 0.034 6.1 8.21 13.02
12/26/2020 1:30:00 PM 4.27 39.686 0.034 6.08 8.1 13.01
12/26/2020 1:45:00 PM 4.28 39.704 0.034 6.1 8.09 13.01
12/26/2020 2:00:00 PM 4.28 39.704 0.034 6.09 7.95 13.01
12/26/2020 2:15:00 PM 4.28 39.704 0.034 6.05 7.81 13.01
12/26/2020 2:30:00 PM 4.29 39.722 0.034 6.1 7.87 13
12/26/2020 2:45:00 PM 4.3 39.74 0.034 6.1 7.85 13
12/26/2020 3:00:00 PM 4.3 39.74 0.034 6.1 7.85 13
12/26/2020 3:15:00 PM 4.3 39.74 0.034 6.1 7.68 12.99
12/26/2020 3:30:00 PM 4.3 39.74 0.034 6.11 7.72 12.99
12/26/2020 3:45:00 PM 4.29 39.722 0.034 6.11 7.89 13
12/26/2020 4:00:00 PM 4.27 39.686 0.034 6.11 7.7 13
12/26/2020 4:15:00 PM 4.27 39.686 0.034 6.1 7.53 13
12/26/2020 4:30:00 PM 4.25 39.65 0.034 6.1 7.62 13
12/26/2020 4:45:00 PM 4.23 39.614 0.034 6.11 7.35 13.01
12/26/2020 5:00:00 PM 4.2 39.56 0.035 6.11 7.55 13.01
12/26/2020 5:15:00 PM 4.19 39.542 0.035 6.1 8.8 13.01
12/26/2020 5:30:00 PM 4.17 39.506 0.032 6.1 7.29 13.02
12/26/2020 5:45:00 PM 4.15 39.47 0.035 6.11 7.74 13.03
12/26/2020 6:00:00 PM 4.13 39.434 0.035 6.1 7.34 13.03
12/26/2020 6:15:00 PM 4.12 39.416 0.029 6.1 9.66 13.04
12/26/2020 6:30:00 PM 4.11 39.398 0.024 6.1 9.38 13.04
12/26/2020 6:45:00 PM 4.09 39.362 0.035 6.12 212.57 13.05
12/26/2020 7:00:00 PM 4.08 39.344 0.035 6.12 7.37 13.06
12/26/2020 7:15:00 PM 4.07 39.326 0.035 6.11 9.93 13.06
12/26/2020 7:30:00 PM 4.05 39.29 0.035 6.12 7.11 13.07
12/26/2020 7:45:00 PM 4.05 39.29 0.035 6.13 6.96 13.07
12/26/2020 8:00:00 PM 4.04 39.272 0.035 6.11 7.18 13.08
12/26/2020 8:15:00 PM 4.03 39.254 0.035 6.12 6.83 13.09
12/26/2020 8:30:00 PM 4.02 39.236 0.035 6.1 6.84 13.09
12/26/2020 8:45:00 PM 4.02 39.236 0.035 6.12 6.83 13.1
12/26/2020 9:00:00 PM 4 39.2 0.035 6.12 7.11 13.11
12/26/2020 9:15:00 PM 4 39.2 0.035 6.12 6.72 13.11
12/26/2020 9:30:00 PM 3.99 39.182 0.035 6.12 6.86 13.11
12/26/2020 9:45:00 PM 3.98 39.164 0.035 6.11 7.12 13.12
12/26/2020 10:00:00 PM 3.98 39.164 0.035 6.11 6.85 13.11
12/26/2020 10:15:00 PM 3.98 39.164 0.035 6.08 6.82 13.12
12/26/2020 10:30:00 PM 3.98 39.164 0.035 6.05 7.02 13.12
12/26/2020 10:45:00 PM 3.98 39.164 0.035 6.05 6.94 13.12
12/26/2020 11:00:00 PM 3.98 39.164 0.035 6.04 6.66 13.13
12/26/2020 11:15:00 PM 3.98 39.164 0.035 6.06 6.89 13.13
12/26/2020 11:30:00 PM 3.98 39.164 0.035 6.05 6.73 13.13
12/26/2020 11:45:00 PM 3.98 39.164 0.035 6.06 6.53 13.13
12/27/2020 12:00:00 AM 3.98 39.164 0.035 6.08 6.79 13.13
12/27/2020 12:15:00 AM 3.98 39.164 0.035 6.06 6.77 13.13
12/27/2020 12:30:00 AM 3.98 39.164 0.035 6.08 6.99 13.13
12/27/2020 12:45:00 AM 3.97 39.146 0.035 6.08 7.16 13.13
12/27/2020 1:00:00 AM 3.97 39.146 0.035 6.06 6.53 13.13
12/27/2020 1:15:00 AM 3.97 39.146 0.035 6.07 6.65 13.13
12/27/2020 1:30:00 AM 3.97 39.146 0.035 6.08 6.52 13.14
12/27/2020 1:45:00 AM 3.97 39.146 0.035 6.08 6.4 13.14
12/27/2020 2:00:00 AM 3.98 39.164 0.035 6.08 6.78 13.14
12/27/2020 2:15:00 AM 3.98 39.164 0.035 6.09 6.79 13.14
12/27/2020 2:30:00 AM 3.99 39.182 0.035 6.1 6.22 13.14
12/27/2020 2:45:00 AM 3.99 39.182 0.035 6.1 6.16 13.14
12/27/2020 3:00:00 AM 4 39.2 0.035 6.08 6.19 13.14
12/27/2020 3:15:00 AM 4 39.2 0.035 6.07 6.32 13.14
12/27/2020 3:30:00 AM 4.01 39.218 0.035 6.07 6.31 13.14
12/27/2020 3:45:00 AM 4.01 39.218 0.035 6.07 6.15 13.14
12/27/2020 4:00:00 AM 4.01 39.218 0.035 6.09 6.46 13.14
12/27/2020 4:15:00 AM 4.02 39.236 0.035 6.09 6.34 13.15
12/27/2020 4:30:00 AM 4.02 39.236 0.035 6.06 5.91 13.15
12/27/2020 4:45:00 AM 4.02 39.236 0.035 6.09 6.15 13.14
12/27/2020 5:00:00 AM 4.03 39.254 0.035 6.1 5.97 13.15
12/27/2020 5:15:00 AM 4.03 39.254 0.035 6.08 6.03 13.15
12/27/2020 5:30:00 AM 4.04 39.272 0.035 6.08 5.75 13.15
12/27/2020 5:45:00 AM 4.04 39.272 0.035 6.1 5.65 13.15
12/27/2020 6:00:00 AM 4.05 39.29 0.035 6.1 5.7 13.15
12/27/2020 6:15:00 AM 4.05 39.29 0.035 6.11 5.71 13.15
12/27/2020 6:30:00 AM 4.06 39.308 0.035 6.11 5.6 13.16
12/27/2020 6:45:00 AM 4.07 39.326 0.035 6.11 5.8 13.15
12/27/2020 7:00:00 AM 4.07 39.326 0.035 6.11 5.7 13.15
12/27/2020 7:15:00 AM 4.08 39.344 0.035 6.1 5.71 13.15
12/27/2020 7:30:00 AM 4.09 39.362 0.035 6.1 5.81 13.15
12/27/2020 7:45:00 AM 4.09 39.362 0.035 6.11 5.66 13.15
12/27/2020 8:00:00 AM 4.09 39.362 0.036 6.1 5.58 13.15
12/27/2020 8:15:00 AM 4.1 39.38 0.036 6.1 5.94 13.16
12/27/2020 8:30:00 AM 4.1 39.38 0.036 6.14 5.47 13.16
12/27/2020 8:45:00 AM 4.11 39.398 0.036 6.15 5.43 13.17
12/27/2020 9:00:00 AM 4.13 39.434 0.036 6.14 5.42 13.17
12/27/2020 9:15:00 AM 4.14 39.452 0.036 6.16 5.48 13.17
12/27/2020 9:30:00 AM 4.15 39.47 0.036 6.14 5.27 13.18
12/27/2020 9:45:00 AM 4.16 39.488 0.036 6.14 5.38 13.18
12/27/2020 10:00:00 AM 4.18 39.524 0.036 6.17 5.29 13.18
12/27/2020 10:15:00 AM 4.2 39.56 0.036 6.16 5.2 13.18
12/27/2020 10:30:00 AM 4.25 39.65 0.036 6.14 5.16 13.18
12/27/2020 10:45:00 AM 4.3 39.74 0.036 6.2 5.64 13.17
12/27/2020 11:00:00 AM 4.35 39.83 0.036 6.36 5.42 13.15
12/27/2020 11:15:00 AM 4.42 39.956 0.036 6.21 5.23 13.14
12/27/2020 11:30:00 AM 4.47 40.046 0.036 6.21 5.43 13.12
12/27/2020 11:45:00 AM 4.54 40.172 0.036 6.23 5.48 13.1
12/27/2020 12:00:00 PM 4.58 40.244 0.036 6.21 5.28 13.08
12/27/2020 12:15:00 PM 4.6 40.28 0.036 6.23 12.2 13.08
12/27/2020 12:30:00 PM 4.65 40.37 0.036 6.21 5.19 13.05
12/27/2020 12:45:00 PM 4.7 40.46 0.036 6.19 5.53 13.04
12/27/2020 1:00:00 PM 4.73 40.514 0.036 6.23 5.27 13.02
12/27/2020 1:15:00 PM 4.78 40.604 0.036 6.25 5.21 13
12/27/2020 1:30:00 PM 4.84 40.712 0.036 6.23 5.35 12.99
12/27/2020 1:45:00 PM 4.87 40.766 0.036 6.24 5.36 12.97
12/27/2020 2:00:00 PM 4.91 40.838 0.036 6.22 5.37 12.95
12/27/2020 2:15:00 PM 4.93 40.874 0.036 6.23 5.25 12.93
12/27/2020 2:30:00 PM 4.94 40.892 0.036 6.22 5.23 12.93
12/27/2020 2:45:00 PM 4.95 40.91 0.036 6.21 5.45 12.93
12/27/2020 3:00:00 PM 4.95 40.91 0.036 6.22 5.23 12.92
12/27/2020 3:15:00 PM 4.96 40.928 0.036 6.21 5.95 12.92
12/27/2020 3:30:00 PM 4.95 40.91 0.036 6.22 5.75 12.91
12/27/2020 3:45:00 PM 4.94 40.892 0.036 6.21 5.54 12.91
12/27/2020 4:00:00 PM 4.92 40.856 0.036 6.22 5.31 12.91
12/27/2020 4:15:00 PM 4.91 40.838 0.036 6.24 5.11 12.9
12/27/2020 4:30:00 PM 4.89 40.802 0.036 6.22 5.5 12.9
12/27/2020 4:45:00 PM 4.87 40.766 0.036 6.22 5.52 12.9
12/27/2020 5:00:00 PM 4.83 40.694 0.036 6.21 5.25 12.9
12/27/2020 5:15:00 PM 4.81 40.658 0.036 6.21 5.31 12.9
12/27/2020 5:30:00 PM 4.78 40.604 0.036 6.24 5.05 12.9
12/27/2020 5:45:00 PM 4.76 40.568 0.036 6.24 5.02 12.91
12/27/2020 6:00:00 PM 4.73 40.514 0.036 6.2 4.8 12.92
12/27/2020 6:15:00 PM 4.71 40.478 0.036 6.21 4.68 12.93
12/27/2020 6:30:00 PM 4.68 40.424 0.036 6.21 4.72 12.94
12/27/2020 6:45:00 PM 4.65 40.37 0.036 6.2 4.68 12.95
12/27/2020 7:00:00 PM 4.62 40.316 0.036 6.21 4.65 12.96
12/27/2020 7:15:00 PM 4.59 40.262 0.036 6.22 4.65 12.96
12/27/2020 7:30:00 PM 4.55 40.19 0.036 6.21 4.51 12.97
12/27/2020 7:45:00 PM 4.52 40.136 0.036 6.22 4.62 12.99
12/27/2020 8:00:00 PM 4.49 40.082 0.036 6.22 4.54 12.99
12/27/2020 8:15:00 PM 4.46 40.028 0.036 6.21 4.63 13
12/27/2020 8:30:00 PM 4.43 39.974 0.036 6.2 4.52 13.02
12/27/2020 8:45:00 PM 4.41 39.938 0.036 6.21 4.44 13.02
12/27/2020 9:00:00 PM 4.38 39.884 0.036 6.22 4.49 13.03
12/27/2020 9:15:00 PM 4.35 39.83 0.036 6.19 4.35 13.05
12/27/2020 9:30:00 PM 4.33 39.794 0.036 6.16 4.43 13.05
12/27/2020 9:45:00 PM 4.31 39.758 0.036 6.23 4.28 13.06
12/27/2020 10:00:00 PM 4.3 39.74 0.036 6.21 4.14 13.07
12/27/2020 10:15:00 PM 4.29 39.722 0.036 6.24 4.48 13.07
12/27/2020 10:30:00 PM 4.28 39.704 0.036 6.23 4.19 13.07
12/27/2020 10:45:00 PM 4.27 39.686 0.036 6.22 4.2 13.07
12/27/2020 11:00:00 PM 4.26 39.668 0.036 6.23 4.07 13.08
12/27/2020 11:15:00 PM 4.26 39.668 0.036 6.22 4.19 13.07
12/27/2020 11:30:00 PM 4.25 39.65 0.036 6.22 4.19 13.07
12/27/2020 11:45:00 PM 4.24 39.632 0.036 6.23 4.06 13.08
12/28/2020 12:00:00 AM 4.24 39.632 0.036 6.23 3.89 13.08
12/28/2020 12:15:00 AM 4.23 39.614 0.036 6.22 4.01 13.07
12/28/2020 12:30:00 AM 4.23 39.614 0.036 6.22 4.09 13.07
12/28/2020 12:45:00 AM 4.22 39.596 0.036 6.24 4.08 13.07
12/28/2020 1:00:00 AM 4.22 39.596 0.036 6.23 4.13 13.07
12/28/2020 1:15:00 AM 4.22 39.596 0.036 6.23 4.15 13.07
12/28/2020 1:30:00 AM 4.21 39.578 0.036 6.24 4.2 13.06
12/28/2020 1:45:00 AM 4.22 39.596 0.036 6.24 4.08 13.06
12/28/2020 2:00:00 AM 4.22 39.596 0.036 6.23 4.19 13.05
12/28/2020 2:15:00 AM 4.23 39.614 0.036 6.23 4.22 13.06
12/28/2020 2:30:00 AM 4.23 39.614 0.036 6.23 4.28 13.05
12/28/2020 2:45:00 AM 4.24 39.632 0.036 6.24 4.03 13.05
12/28/2020 3:00:00 AM 4.25 39.65 0.036 6.23 4.01 13.05
12/28/2020 3:15:00 AM 4.25 39.65 0.036 6.24 4.02 13.05
12/28/2020 3:30:00 AM 4.26 39.668 0.036 6.22 3.99 13.04
12/28/2020 3:45:00 AM 4.27 39.686 0.036 6.25 4.08 13.03
12/28/2020 4:00:00 AM 4.29 39.722 0.036 6.23 4.02 13.03
12/28/2020 4:15:00 AM 4.31 39.758 0.036 6.23 4.04 13.02
12/28/2020 4:30:00 AM 4.29 39.722 0.036 6.2 3.93 13.01
12/28/2020 4:45:00 AM 4.23 39.614 0.036 6.21 3.96 13.02
12/28/2020 5:00:00 AM 4.16 39.488 0.036 6.21 4.04 13.02
12/28/2020 5:15:00 AM 4.17 39.506 0.036 6.2 4.1 13.03
12/28/2020 5:30:00 AM 4.16 39.488 0.036 6.21 3.98 13.04
12/28/2020 5:45:00 AM 4.18 39.524 0.036 6.22 4.04 13.04
12/28/2020 6:00:00 AM 4.21 39.578 0.036 6.23 4.06 13.04
12/28/2020 6:15:00 AM 4.23 39.614 0.036 6.23 4.06 13.04
12/28/2020 6:30:00 AM 4.24 39.632 0.036 6.23 4 13.04
12/28/2020 6:45:00 AM 4.26 39.668 0.036 6.23 3.96 13.04
12/28/2020 7:00:00 AM 4.29 39.722 0.036 6.22 3.76 13.03
12/28/2020 7:15:00 AM 4.31 39.758 0.036 6.22 3.91 13.02
12/28/2020 7:30:00 AM 4.33 39.794 0.036 6.24 4.04 13.02
12/28/2020 7:45:00 AM 4.35 39.83 0.036 6.24 3.92 13.01
12/28/2020 8:00:00 AM 4.36 39.848 0.036 6.22 3.94 13.01
12/28/2020 8:15:00 AM 4.38 39.884 0.036 6.23 3.85 13
12/28/2020 8:30:00 AM 4.4 39.92 0.036 6.24 3.83 13
12/28/2020 8:45:00 AM 4.43 39.974 0.036 6.24 3.92 13
12/28/2020 9:00:00 AM 4.45 40.01 0.036 6.25 3.68 12.99
12/28/2020 9:15:00 AM 4.48 40.064 0.036 6.24